<gpx creator="Cyclotour.ca" version="1.1" xmlns:gpsies="http://www.gpsies.com/GPX/1/0" xmlns:xsi="http://www.w3.org/2001/XMLSchema-instance" xmlns="http://www.topografix.com/GPX/1/1" xsi:schemaLocation="http://www.topografix.com/GPX/1/1 http://www.topografix.com/GPX/1/1/gpx.xsd http://www.gpsies.com/GPX/1/0 http://www.gpsies.com/gpsies.xsd">
<trk>
<name>Lac-aux-sables</name>
<trkseg>
<trkpt lat="46.860920000" lon="-72.407200000">
<ele>0</ele>
<time>2026-09-04T06:31:28Z</time>
</trkpt>
<trkpt lat="46.860080000" lon="-72.403490000">
<ele>0</ele>
<time>2026-09-04T06:31:29Z</time>
</trkpt>
<trkpt lat="46.859720000" lon="-72.401990000">
<ele>0</ele>
<time>2026-09-04T06:31:30Z</time>
</trkpt>
<trkpt lat="46.859420000" lon="-72.400790000">
<ele>0</ele>
<time>2026-09-04T06:31:31Z</time>
</trkpt>
<trkpt lat="46.859040000" lon="-72.399190000">
<ele>0</ele>
<time>2026-09-04T06:31:32Z</time>
</trkpt>
<trkpt lat="46.858980000" lon="-72.398960000">
<ele>0</ele>
<time>2026-09-04T06:31:33Z</time>
</trkpt>
<trkpt lat="46.858910000" lon="-72.398750000">
<ele>0</ele>
<time>2026-09-04T06:31:34Z</time>
</trkpt>
<trkpt lat="46.858790000" lon="-72.398540000">
<ele>0</ele>
<time>2026-09-04T06:31:35Z</time>
</trkpt>
<trkpt lat="46.859100000" lon="-72.397920000">
<ele>0</ele>
<time>2026-09-04T06:31:36Z</time>
</trkpt>
<trkpt lat="46.859530000" lon="-72.397070000">
<ele>0</ele>
<time>2026-09-04T06:31:37Z</time>
</trkpt>
<trkpt lat="46.859740000" lon="-72.396650000">
<ele>0</ele>
<time>2026-09-04T06:31:38Z</time>
</trkpt>
<trkpt lat="46.860110000" lon="-72.396080000">
<ele>0</ele>
<time>2026-09-04T06:31:39Z</time>
</trkpt>
<trkpt lat="46.861380000" lon="-72.394360000">
<ele>0</ele>
<time>2026-09-04T06:31:40Z</time>
</trkpt>
<trkpt lat="46.861380000" lon="-72.394360000">
<ele>0</ele>
<time>2026-09-04T06:31:41Z</time>
</trkpt>
<trkpt lat="46.863590000" lon="-72.391310000">
<ele>0</ele>
<time>2026-09-04T06:31:42Z</time>
</trkpt>
<trkpt lat="46.864090000" lon="-72.390620000">
<ele>0</ele>
<time>2026-09-04T06:31:43Z</time>
</trkpt>
<trkpt lat="46.865210000" lon="-72.389100000">
<ele>0</ele>
<time>2026-09-04T06:31:44Z</time>
</trkpt>
<trkpt lat="46.865920000" lon="-72.388160000">
<ele>0</ele>
<time>2026-09-04T06:31:45Z</time>
</trkpt>
<trkpt lat="46.865900000" lon="-72.387570000">
<ele>0</ele>
<time>2026-09-04T06:31:46Z</time>
</trkpt>
<trkpt lat="46.865890000" lon="-72.386950000">
<ele>0</ele>
<time>2026-09-04T06:31:47Z</time>
</trkpt>
<trkpt lat="46.865900000" lon="-72.386570000">
<ele>0</ele>
<time>2026-09-04T06:31:48Z</time>
</trkpt>
<trkpt lat="46.865950000" lon="-72.386450000">
<ele>0</ele>
<time>2026-09-04T06:31:49Z</time>
</trkpt>
<trkpt lat="46.866070000" lon="-72.386250000">
<ele>0</ele>
<time>2026-09-04T06:31:50Z</time>
</trkpt>
<trkpt lat="46.866320000" lon="-72.385870000">
<ele>0</ele>
<time>2026-09-04T06:31:51Z</time>
</trkpt>
<trkpt lat="46.866470000" lon="-72.385510000">
<ele>0</ele>
<time>2026-09-04T06:31:52Z</time>
</trkpt>
<trkpt lat="46.866760000" lon="-72.384630000">
<ele>0</ele>
<time>2026-09-04T06:31:53Z</time>
</trkpt>
<trkpt lat="46.867230000" lon="-72.383120000">
<ele>0</ele>
<time>2026-09-04T06:31:54Z</time>
</trkpt>
<trkpt lat="46.867330000" lon="-72.382570000">
<ele>0</ele>
<time>2026-09-04T06:31:55Z</time>
</trkpt>
<trkpt lat="46.867410000" lon="-72.381830000">
<ele>0</ele>
<time>2026-09-04T06:31:56Z</time>
</trkpt>
<trkpt lat="46.867590000" lon="-72.380650000">
<ele>0</ele>
<time>2026-09-04T06:31:57Z</time>
</trkpt>
<trkpt lat="46.867630000" lon="-72.380320000">
<ele>0</ele>
<time>2026-09-04T06:31:58Z</time>
</trkpt>
<trkpt lat="46.867630000" lon="-72.379870000">
<ele>0</ele>
<time>2026-09-04T06:31:59Z</time>
</trkpt>
<trkpt lat="46.867600000" lon="-72.378820000">
<ele>0</ele>
<time>2026-09-04T06:32:00Z</time>
</trkpt>
<trkpt lat="46.867540000" lon="-72.376720000">
<ele>0</ele>
<time>2026-09-04T06:32:01Z</time>
</trkpt>
<trkpt lat="46.867400000" lon="-72.374560000">
<ele>0</ele>
<time>2026-09-04T06:32:02Z</time>
</trkpt>
<trkpt lat="46.867240000" lon="-72.373480000">
<ele>0</ele>
<time>2026-09-04T06:32:03Z</time>
</trkpt>
<trkpt lat="46.867210000" lon="-72.373220000">
<ele>0</ele>
<time>2026-09-04T06:32:04Z</time>
</trkpt>
<trkpt lat="46.867200000" lon="-72.372960000">
<ele>0</ele>
<time>2026-09-04T06:32:05Z</time>
</trkpt>
<trkpt lat="46.867200000" lon="-72.372680000">
<ele>0</ele>
<time>2026-09-04T06:32:06Z</time>
</trkpt>
<trkpt lat="46.867240000" lon="-72.372410000">
<ele>0</ele>
<time>2026-09-04T06:32:07Z</time>
</trkpt>
<trkpt lat="46.867310000" lon="-72.371980000">
<ele>0</ele>
<time>2026-09-04T06:32:08Z</time>
</trkpt>
<trkpt lat="46.867480000" lon="-72.371260000">
<ele>0</ele>
<time>2026-09-04T06:32:09Z</time>
</trkpt>
<trkpt lat="46.867640000" lon="-72.370790000">
<ele>0</ele>
<time>2026-09-04T06:32:10Z</time>
</trkpt>
<trkpt lat="46.867890000" lon="-72.370210000">
<ele>0</ele>
<time>2026-09-04T06:32:11Z</time>
</trkpt>
<trkpt lat="46.868130000" lon="-72.369740000">
<ele>0</ele>
<time>2026-09-04T06:32:12Z</time>
</trkpt>
<trkpt lat="46.868320000" lon="-72.369240000">
<ele>0</ele>
<time>2026-09-04T06:32:13Z</time>
</trkpt>
<trkpt lat="46.868550000" lon="-72.368460000">
<ele>0</ele>
<time>2026-09-04T06:32:14Z</time>
</trkpt>
<trkpt lat="46.868680000" lon="-72.367970000">
<ele>0</ele>
<time>2026-09-04T06:32:15Z</time>
</trkpt>
<trkpt lat="46.868990000" lon="-72.366730000">
<ele>0</ele>
<time>2026-09-04T06:32:16Z</time>
</trkpt>
<trkpt lat="46.869160000" lon="-72.365980000">
<ele>0</ele>
<time>2026-09-04T06:32:17Z</time>
</trkpt>
<trkpt lat="46.869350000" lon="-72.365250000">
<ele>0</ele>
<time>2026-09-04T06:32:18Z</time>
</trkpt>
<trkpt lat="46.869590000" lon="-72.364390000">
<ele>0</ele>
<time>2026-09-04T06:32:19Z</time>
</trkpt>
<trkpt lat="46.870070000" lon="-72.363300000">
<ele>0</ele>
<time>2026-09-04T06:32:20Z</time>
</trkpt>
<trkpt lat="46.870480000" lon="-72.362400000">
<ele>0</ele>
<time>2026-09-04T06:32:21Z</time>
</trkpt>
<trkpt lat="46.871330000" lon="-72.360720000">
<ele>0</ele>
<time>2026-09-04T06:32:22Z</time>
</trkpt>
<trkpt lat="46.871480000" lon="-72.360380000">
<ele>0</ele>
<time>2026-09-04T06:32:23Z</time>
</trkpt>
<trkpt lat="46.871620000" lon="-72.359900000">
<ele>0</ele>
<time>2026-09-04T06:32:24Z</time>
</trkpt>
<trkpt lat="46.871830000" lon="-72.358620000">
<ele>0</ele>
<time>2026-09-04T06:32:25Z</time>
</trkpt>
<trkpt lat="46.871930000" lon="-72.357790000">
<ele>0</ele>
<time>2026-09-04T06:32:26Z</time>
</trkpt>
<trkpt lat="46.872000000" lon="-72.357240000">
<ele>0</ele>
<time>2026-09-04T06:32:27Z</time>
</trkpt>
<trkpt lat="46.872170000" lon="-72.356440000">
<ele>0</ele>
<time>2026-09-04T06:32:28Z</time>
</trkpt>
<trkpt lat="46.872310000" lon="-72.355920000">
<ele>0</ele>
<time>2026-09-04T06:32:29Z</time>
</trkpt>
<trkpt lat="46.872880000" lon="-72.353810000">
<ele>0</ele>
<time>2026-09-04T06:32:30Z</time>
</trkpt>
<trkpt lat="46.873180000" lon="-72.352640000">
<ele>0</ele>
<time>2026-09-04T06:32:31Z</time>
</trkpt>
<trkpt lat="46.873340000" lon="-72.352170000">
<ele>0</ele>
<time>2026-09-04T06:32:32Z</time>
</trkpt>
<trkpt lat="46.873920000" lon="-72.350880000">
<ele>0</ele>
<time>2026-09-04T06:32:33Z</time>
</trkpt>
<trkpt lat="46.874330000" lon="-72.349950000">
<ele>0</ele>
<time>2026-09-04T06:32:34Z</time>
</trkpt>
<trkpt lat="46.874450000" lon="-72.349740000">
<ele>0</ele>
<time>2026-09-04T06:32:35Z</time>
</trkpt>
<trkpt lat="46.874570000" lon="-72.349550000">
<ele>0</ele>
<time>2026-09-04T06:32:36Z</time>
</trkpt>
<trkpt lat="46.874810000" lon="-72.349270000">
<ele>0</ele>
<time>2026-09-04T06:32:37Z</time>
</trkpt>
<trkpt lat="46.875000000" lon="-72.349120000">
<ele>0</ele>
<time>2026-09-04T06:32:38Z</time>
</trkpt>
<trkpt lat="46.875630000" lon="-72.348630000">
<ele>0</ele>
<time>2026-09-04T06:32:39Z</time>
</trkpt>
<trkpt lat="46.875780000" lon="-72.348480000">
<ele>0</ele>
<time>2026-09-04T06:32:40Z</time>
</trkpt>
<trkpt lat="46.875910000" lon="-72.348300000">
<ele>0</ele>
<time>2026-09-04T06:32:41Z</time>
</trkpt>
<trkpt lat="46.876070000" lon="-72.347910000">
<ele>0</ele>
<time>2026-09-04T06:32:42Z</time>
</trkpt>
<trkpt lat="46.876140000" lon="-72.347440000">
<ele>0</ele>
<time>2026-09-04T06:32:43Z</time>
</trkpt>
<trkpt lat="46.876180000" lon="-72.347050000">
<ele>0</ele>
<time>2026-09-04T06:32:44Z</time>
</trkpt>
<trkpt lat="46.876290000" lon="-72.346100000">
<ele>0</ele>
<time>2026-09-04T06:32:45Z</time>
</trkpt>
<trkpt lat="46.876520000" lon="-72.345140000">
<ele>0</ele>
<time>2026-09-04T06:32:46Z</time>
</trkpt>
<trkpt lat="46.876800000" lon="-72.343890000">
<ele>0</ele>
<time>2026-09-04T06:32:47Z</time>
</trkpt>
<trkpt lat="46.876890000" lon="-72.343610000">
<ele>0</ele>
<time>2026-09-04T06:32:48Z</time>
</trkpt>
<trkpt lat="46.877150000" lon="-72.342970000">
<ele>0</ele>
<time>2026-09-04T06:32:49Z</time>
</trkpt>
<trkpt lat="46.877320000" lon="-72.342270000">
<ele>0</ele>
<time>2026-09-04T06:32:50Z</time>
</trkpt>
<trkpt lat="46.877370000" lon="-72.341790000">
<ele>0</ele>
<time>2026-09-04T06:32:51Z</time>
</trkpt>
<trkpt lat="46.877440000" lon="-72.340960000">
<ele>0</ele>
<time>2026-09-04T06:32:52Z</time>
</trkpt>
<trkpt lat="46.877530000" lon="-72.340340000">
<ele>0</ele>
<time>2026-09-04T06:32:53Z</time>
</trkpt>
<trkpt lat="46.877670000" lon="-72.339710000">
<ele>0</ele>
<time>2026-09-04T06:32:54Z</time>
</trkpt>
<trkpt lat="46.877730000" lon="-72.339350000">
<ele>0</ele>
<time>2026-09-04T06:32:55Z</time>
</trkpt>
<trkpt lat="46.877710000" lon="-72.338860000">
<ele>0</ele>
<time>2026-09-04T06:32:56Z</time>
</trkpt>
<trkpt lat="46.877650000" lon="-72.338580000">
<ele>0</ele>
<time>2026-09-04T06:32:57Z</time>
</trkpt>
<trkpt lat="46.877570000" lon="-72.338340000">
<ele>0</ele>
<time>2026-09-04T06:32:58Z</time>
</trkpt>
<trkpt lat="46.877300000" lon="-72.337900000">
<ele>0</ele>
<time>2026-09-04T06:32:59Z</time>
</trkpt>
<trkpt lat="46.876950000" lon="-72.337390000">
<ele>0</ele>
<time>2026-09-04T06:33:00Z</time>
</trkpt>
<trkpt lat="46.875710000" lon="-72.335490000">
<ele>0</ele>
<time>2026-09-04T06:33:01Z</time>
</trkpt>
<trkpt lat="46.875480000" lon="-72.335080000">
<ele>0</ele>
<time>2026-09-04T06:33:02Z</time>
</trkpt>
<trkpt lat="46.875070000" lon="-72.334210000">
<ele>0</ele>
<time>2026-09-04T06:33:03Z</time>
</trkpt>
<trkpt lat="46.874590000" lon="-72.333140000">
<ele>0</ele>
<time>2026-09-04T06:33:04Z</time>
</trkpt>
<trkpt lat="46.874440000" lon="-72.332940000">
<ele>0</ele>
<time>2026-09-04T06:33:05Z</time>
</trkpt>
<trkpt lat="46.874260000" lon="-72.332780000">
<ele>0</ele>
<time>2026-09-04T06:33:06Z</time>
</trkpt>
<trkpt lat="46.873530000" lon="-72.332340000">
<ele>0</ele>
<time>2026-09-04T06:33:07Z</time>
</trkpt>
<trkpt lat="46.872650000" lon="-72.331740000">
<ele>0</ele>
<time>2026-09-04T06:33:08Z</time>
</trkpt>
<trkpt lat="46.872300000" lon="-72.331470000">
<ele>0</ele>
<time>2026-09-04T06:33:09Z</time>
</trkpt>
<trkpt lat="46.871880000" lon="-72.331050000">
<ele>0</ele>
<time>2026-09-04T06:33:10Z</time>
</trkpt>
<trkpt lat="46.870900000" lon="-72.329990000">
<ele>0</ele>
<time>2026-09-04T06:33:11Z</time>
</trkpt>
<trkpt lat="46.870590000" lon="-72.329630000">
<ele>0</ele>
<time>2026-09-04T06:33:12Z</time>
</trkpt>
<trkpt lat="46.870320000" lon="-72.329280000">
<ele>0</ele>
<time>2026-09-04T06:33:13Z</time>
</trkpt>
<trkpt lat="46.870090000" lon="-72.328840000">
<ele>0</ele>
<time>2026-09-04T06:33:14Z</time>
</trkpt>
<trkpt lat="46.869870000" lon="-72.328170000">
<ele>0</ele>
<time>2026-09-04T06:33:15Z</time>
</trkpt>
<trkpt lat="46.869770000" lon="-72.327650000">
<ele>0</ele>
<time>2026-09-04T06:33:16Z</time>
</trkpt>
<trkpt lat="46.869720000" lon="-72.327130000">
<ele>0</ele>
<time>2026-09-04T06:33:17Z</time>
</trkpt>
<trkpt lat="46.869680000" lon="-72.325550000">
<ele>0</ele>
<time>2026-09-04T06:33:18Z</time>
</trkpt>
<trkpt lat="46.869720000" lon="-72.324390000">
<ele>0</ele>
<time>2026-09-04T06:33:19Z</time>
</trkpt>
<trkpt lat="46.869870000" lon="-72.323630000">
<ele>0</ele>
<time>2026-09-04T06:33:20Z</time>
</trkpt>
<trkpt lat="46.870010000" lon="-72.323120000">
<ele>0</ele>
<time>2026-09-04T06:33:21Z</time>
</trkpt>
<trkpt lat="46.870270000" lon="-72.322330000">
<ele>0</ele>
<time>2026-09-04T06:33:22Z</time>
</trkpt>
<trkpt lat="46.870270000" lon="-72.322330000">
<ele>0</ele>
<time>2026-09-04T06:33:23Z</time>
</trkpt>
<trkpt lat="46.870420000" lon="-72.321990000">
<ele>0</ele>
<time>2026-09-04T06:33:24Z</time>
</trkpt>
<trkpt lat="46.870800000" lon="-72.321370000">
<ele>0</ele>
<time>2026-09-04T06:33:25Z</time>
</trkpt>
<trkpt lat="46.871290000" lon="-72.320620000">
<ele>0</ele>
<time>2026-09-04T06:33:26Z</time>
</trkpt>
<trkpt lat="46.871630000" lon="-72.320040000">
<ele>0</ele>
<time>2026-09-04T06:33:27Z</time>
</trkpt>
<trkpt lat="46.871740000" lon="-72.319830000">
<ele>0</ele>
<time>2026-09-04T06:33:28Z</time>
</trkpt>
<trkpt lat="46.872070000" lon="-72.319140000">
<ele>0</ele>
<time>2026-09-04T06:33:29Z</time>
</trkpt>
<trkpt lat="46.872560000" lon="-72.318100000">
<ele>0</ele>
<time>2026-09-04T06:33:30Z</time>
</trkpt>
<trkpt lat="46.872930000" lon="-72.317320000">
<ele>0</ele>
<time>2026-09-04T06:33:31Z</time>
</trkpt>
<trkpt lat="46.873190000" lon="-72.316840000">
<ele>0</ele>
<time>2026-09-04T06:33:32Z</time>
</trkpt>
<trkpt lat="46.873450000" lon="-72.316460000">
<ele>0</ele>
<time>2026-09-04T06:33:33Z</time>
</trkpt>
<trkpt lat="46.873780000" lon="-72.316080000">
<ele>0</ele>
<time>2026-09-04T06:33:34Z</time>
</trkpt>
<trkpt lat="46.874190000" lon="-72.315720000">
<ele>0</ele>
<time>2026-09-04T06:33:35Z</time>
</trkpt>
<trkpt lat="46.874720000" lon="-72.315330000">
<ele>0</ele>
<time>2026-09-04T06:33:36Z</time>
</trkpt>
<trkpt lat="46.875180000" lon="-72.315090000">
<ele>0</ele>
<time>2026-09-04T06:33:37Z</time>
</trkpt>
<trkpt lat="46.875420000" lon="-72.315000000">
<ele>0</ele>
<time>2026-09-04T06:33:38Z</time>
</trkpt>
<trkpt lat="46.875870000" lon="-72.314820000">
<ele>0</ele>
<time>2026-09-04T06:33:39Z</time>
</trkpt>
<trkpt lat="46.876390000" lon="-72.314590000">
<ele>0</ele>
<time>2026-09-04T06:33:40Z</time>
</trkpt>
<trkpt lat="46.876780000" lon="-72.314460000">
<ele>0</ele>
<time>2026-09-04T06:33:41Z</time>
</trkpt>
<trkpt lat="46.877290000" lon="-72.314390000">
<ele>0</ele>
<time>2026-09-04T06:33:42Z</time>
</trkpt>
<trkpt lat="46.877680000" lon="-72.314320000">
<ele>0</ele>
<time>2026-09-04T06:33:43Z</time>
</trkpt>
<trkpt lat="46.878120000" lon="-72.314190000">
<ele>0</ele>
<time>2026-09-04T06:33:44Z</time>
</trkpt>
<trkpt lat="46.878300000" lon="-72.314120000">
<ele>0</ele>
<time>2026-09-04T06:33:45Z</time>
</trkpt>
<trkpt lat="46.878880000" lon="-72.313870000">
<ele>0</ele>
<time>2026-09-04T06:33:46Z</time>
</trkpt>
<trkpt lat="46.879460000" lon="-72.313610000">
<ele>0</ele>
<time>2026-09-04T06:33:47Z</time>
</trkpt>
<trkpt lat="46.879890000" lon="-72.313350000">
<ele>0</ele>
<time>2026-09-04T06:33:48Z</time>
</trkpt>
<trkpt lat="46.880050000" lon="-72.313240000">
<ele>0</ele>
<time>2026-09-04T06:33:49Z</time>
</trkpt>
<trkpt lat="46.880430000" lon="-72.312940000">
<ele>0</ele>
<time>2026-09-04T06:33:50Z</time>
</trkpt>
<trkpt lat="46.880810000" lon="-72.312530000">
<ele>0</ele>
<time>2026-09-04T06:33:51Z</time>
</trkpt>
<trkpt lat="46.880940000" lon="-72.312330000">
<ele>0</ele>
<time>2026-09-04T06:33:52Z</time>
</trkpt>
<trkpt lat="46.881080000" lon="-72.311960000">
<ele>0</ele>
<time>2026-09-04T06:33:53Z</time>
</trkpt>
<trkpt lat="46.881140000" lon="-72.311600000">
<ele>0</ele>
<time>2026-09-04T06:33:54Z</time>
</trkpt>
<trkpt lat="46.881220000" lon="-72.310810000">
<ele>0</ele>
<time>2026-09-04T06:33:55Z</time>
</trkpt>
<trkpt lat="46.881300000" lon="-72.310180000">
<ele>0</ele>
<time>2026-09-04T06:33:56Z</time>
</trkpt>
<trkpt lat="46.881380000" lon="-72.309820000">
<ele>0</ele>
<time>2026-09-04T06:33:57Z</time>
</trkpt>
<trkpt lat="46.881520000" lon="-72.309380000">
<ele>0</ele>
<time>2026-09-04T06:33:58Z</time>
</trkpt>
<trkpt lat="46.881650000" lon="-72.309070000">
<ele>0</ele>
<time>2026-09-04T06:33:59Z</time>
</trkpt>
<trkpt lat="46.882100000" lon="-72.308290000">
<ele>0</ele>
<time>2026-09-04T06:34:00Z</time>
</trkpt>
<trkpt lat="46.882360000" lon="-72.307890000">
<ele>0</ele>
<time>2026-09-04T06:34:01Z</time>
</trkpt>
<trkpt lat="46.882610000" lon="-72.307430000">
<ele>0</ele>
<time>2026-09-04T06:34:02Z</time>
</trkpt>
<trkpt lat="46.882700000" lon="-72.307260000">
<ele>0</ele>
<time>2026-09-04T06:34:03Z</time>
</trkpt>
<trkpt lat="46.882850000" lon="-72.306850000">
<ele>0</ele>
<time>2026-09-04T06:34:04Z</time>
</trkpt>
<trkpt lat="46.882970000" lon="-72.306410000">
<ele>0</ele>
<time>2026-09-04T06:34:05Z</time>
</trkpt>
<trkpt lat="46.882990000" lon="-72.306300000">
<ele>0</ele>
<time>2026-09-04T06:34:06Z</time>
</trkpt>
<trkpt lat="46.883010000" lon="-72.306100000">
<ele>0</ele>
<time>2026-09-04T06:34:07Z</time>
</trkpt>
<trkpt lat="46.882970000" lon="-72.306030000">
<ele>0</ele>
<time>2026-09-04T06:34:08Z</time>
</trkpt>
<trkpt lat="46.882890000" lon="-72.305900000">
<ele>0</ele>
<time>2026-09-04T06:34:09Z</time>
</trkpt>
<trkpt lat="46.882880000" lon="-72.305880000">
<ele>0</ele>
<time>2026-09-04T06:34:10Z</time>
</trkpt>
<trkpt lat="46.882880000" lon="-72.305880000">
<ele>0</ele>
<time>2026-09-04T06:34:11Z</time>
</trkpt>
<trkpt lat="46.882660000" lon="-72.305680000">
<ele>0</ele>
<time>2026-09-04T06:34:12Z</time>
</trkpt>
<trkpt lat="46.882070000" lon="-72.305230000">
<ele>0</ele>
<time>2026-09-04T06:34:13Z</time>
</trkpt>
<trkpt lat="46.881590000" lon="-72.305010000">
<ele>0</ele>
<time>2026-09-04T06:34:14Z</time>
</trkpt>
<trkpt lat="46.881590000" lon="-72.305010000">
<ele>0</ele>
<time>2026-09-04T06:34:15Z</time>
</trkpt>
<trkpt lat="46.881030000" lon="-72.304760000">
<ele>0</ele>
<time>2026-09-04T06:34:16Z</time>
</trkpt>
<trkpt lat="46.881070000" lon="-72.304500000">
<ele>0</ele>
<time>2026-09-04T06:34:17Z</time>
</trkpt>
<trkpt lat="46.881240000" lon="-72.303760000">
<ele>0</ele>
<time>2026-09-04T06:34:18Z</time>
</trkpt>
<trkpt lat="46.881420000" lon="-72.303300000">
<ele>0</ele>
<time>2026-09-04T06:34:19Z</time>
</trkpt>
<trkpt lat="46.881650000" lon="-72.302820000">
<ele>0</ele>
<time>2026-09-04T06:34:20Z</time>
</trkpt>
<trkpt lat="46.881650000" lon="-72.302820000">
<ele>0</ele>
<time>2026-09-04T06:34:21Z</time>
</trkpt>
<trkpt lat="46.882340000" lon="-72.301680000">
<ele>0</ele>
<time>2026-09-04T06:34:22Z</time>
</trkpt>
<trkpt lat="46.882660000" lon="-72.301150000">
<ele>0</ele>
<time>2026-09-04T06:34:23Z</time>
</trkpt>
<trkpt lat="46.882830000" lon="-72.300670000">
<ele>0</ele>
<time>2026-09-04T06:34:24Z</time>
</trkpt>
<trkpt lat="46.883120000" lon="-72.299930000">
<ele>0</ele>
<time>2026-09-04T06:34:25Z</time>
</trkpt>
<trkpt lat="46.883510000" lon="-72.299040000">
<ele>0</ele>
<time>2026-09-04T06:34:26Z</time>
</trkpt>
<trkpt lat="46.883620000" lon="-72.298830000">
<ele>0</ele>
<time>2026-09-04T06:34:27Z</time>
</trkpt>
<trkpt lat="46.883870000" lon="-72.298450000">
<ele>0</ele>
<time>2026-09-04T06:34:28Z</time>
</trkpt>
<trkpt lat="46.884400000" lon="-72.297760000">
<ele>0</ele>
<time>2026-09-04T06:34:29Z</time>
</trkpt>
<trkpt lat="46.884810000" lon="-72.297330000">
<ele>0</ele>
<time>2026-09-04T06:34:30Z</time>
</trkpt>
<trkpt lat="46.885010000" lon="-72.297200000">
<ele>0</ele>
<time>2026-09-04T06:34:31Z</time>
</trkpt>
<trkpt lat="46.885240000" lon="-72.297100000">
<ele>0</ele>
<time>2026-09-04T06:34:32Z</time>
</trkpt>
<trkpt lat="46.885540000" lon="-72.296960000">
<ele>0</ele>
<time>2026-09-04T06:34:33Z</time>
</trkpt>
<trkpt lat="46.885940000" lon="-72.296830000">
<ele>0</ele>
<time>2026-09-04T06:34:34Z</time>
</trkpt>
<trkpt lat="46.886300000" lon="-72.296760000">
<ele>0</ele>
<time>2026-09-04T06:34:35Z</time>
</trkpt>
<trkpt lat="46.887370000" lon="-72.296650000">
<ele>0</ele>
<time>2026-09-04T06:34:36Z</time>
</trkpt>
<trkpt lat="46.888080000" lon="-72.296610000">
<ele>0</ele>
<time>2026-09-04T06:34:37Z</time>
</trkpt>
<trkpt lat="46.888230000" lon="-72.296590000">
<ele>0</ele>
<time>2026-09-04T06:34:38Z</time>
</trkpt>
<trkpt lat="46.888420000" lon="-72.296550000">
<ele>0</ele>
<time>2026-09-04T06:34:39Z</time>
</trkpt>
<trkpt lat="46.888600000" lon="-72.296440000">
<ele>0</ele>
<time>2026-09-04T06:34:40Z</time>
</trkpt>
<trkpt lat="46.888760000" lon="-72.296310000">
<ele>0</ele>
<time>2026-09-04T06:34:41Z</time>
</trkpt>
<trkpt lat="46.888880000" lon="-72.296170000">
<ele>0</ele>
<time>2026-09-04T06:34:42Z</time>
</trkpt>
<trkpt lat="46.889010000" lon="-72.295980000">
<ele>0</ele>
<time>2026-09-04T06:34:43Z</time>
</trkpt>
<trkpt lat="46.889300000" lon="-72.295480000">
<ele>0</ele>
<time>2026-09-04T06:34:44Z</time>
</trkpt>
<trkpt lat="46.889690000" lon="-72.294750000">
<ele>0</ele>
<time>2026-09-04T06:34:45Z</time>
</trkpt>
<trkpt lat="46.890340000" lon="-72.293500000">
<ele>0</ele>
<time>2026-09-04T06:34:46Z</time>
</trkpt>
<trkpt lat="46.890990000" lon="-72.292240000">
<ele>0</ele>
<time>2026-09-04T06:34:47Z</time>
</trkpt>
<trkpt lat="46.891280000" lon="-72.291570000">
<ele>0</ele>
<time>2026-09-04T06:34:48Z</time>
</trkpt>
<trkpt lat="46.891530000" lon="-72.290880000">
<ele>0</ele>
<time>2026-09-04T06:34:49Z</time>
</trkpt>
<trkpt lat="46.891770000" lon="-72.290130000">
<ele>0</ele>
<time>2026-09-04T06:34:50Z</time>
</trkpt>
<trkpt lat="46.891870000" lon="-72.289600000">
<ele>0</ele>
<time>2026-09-04T06:34:51Z</time>
</trkpt>
<trkpt lat="46.891900000" lon="-72.289000000">
<ele>0</ele>
<time>2026-09-04T06:34:52Z</time>
</trkpt>
<trkpt lat="46.891850000" lon="-72.288350000">
<ele>0</ele>
<time>2026-09-04T06:34:53Z</time>
</trkpt>
<trkpt lat="46.891780000" lon="-72.287560000">
<ele>0</ele>
<time>2026-09-04T06:34:54Z</time>
</trkpt>
<trkpt lat="46.891770000" lon="-72.287240000">
<ele>0</ele>
<time>2026-09-04T06:34:55Z</time>
</trkpt>
<trkpt lat="46.891800000" lon="-72.286890000">
<ele>0</ele>
<time>2026-09-04T06:34:56Z</time>
</trkpt>
<trkpt lat="46.891870000" lon="-72.286530000">
<ele>0</ele>
<time>2026-09-04T06:34:57Z</time>
</trkpt>
<trkpt lat="46.891980000" lon="-72.286060000">
<ele>0</ele>
<time>2026-09-04T06:34:58Z</time>
</trkpt>
<trkpt lat="46.892090000" lon="-72.285810000">
<ele>0</ele>
<time>2026-09-04T06:34:59Z</time>
</trkpt>
<trkpt lat="46.892280000" lon="-72.285470000">
<ele>0</ele>
<time>2026-09-04T06:35:00Z</time>
</trkpt>
<trkpt lat="46.892490000" lon="-72.285200000">
<ele>0</ele>
<time>2026-09-04T06:35:01Z</time>
</trkpt>
<trkpt lat="46.893100000" lon="-72.284520000">
<ele>0</ele>
<time>2026-09-04T06:35:02Z</time>
</trkpt>
<trkpt lat="46.893260000" lon="-72.284340000">
<ele>0</ele>
<time>2026-09-04T06:35:03Z</time>
</trkpt>
<trkpt lat="46.893470000" lon="-72.284120000">
<ele>0</ele>
<time>2026-09-04T06:35:04Z</time>
</trkpt>
<trkpt lat="46.893640000" lon="-72.283990000">
<ele>0</ele>
<time>2026-09-04T06:35:05Z</time>
</trkpt>
<trkpt lat="46.893780000" lon="-72.283920000">
<ele>0</ele>
<time>2026-09-04T06:35:06Z</time>
</trkpt>
<trkpt lat="46.893930000" lon="-72.283860000">
<ele>0</ele>
<time>2026-09-04T06:35:07Z</time>
</trkpt>
<trkpt lat="46.894380000" lon="-72.283750000">
<ele>0</ele>
<time>2026-09-04T06:35:08Z</time>
</trkpt>
<trkpt lat="46.894990000" lon="-72.283670000">
<ele>0</ele>
<time>2026-09-04T06:35:09Z</time>
</trkpt>
<trkpt lat="46.895570000" lon="-72.283600000">
<ele>0</ele>
<time>2026-09-04T06:35:10Z</time>
</trkpt>
<trkpt lat="46.896240000" lon="-72.283610000">
<ele>0</ele>
<time>2026-09-04T06:35:11Z</time>
</trkpt>
<trkpt lat="46.896570000" lon="-72.283590000">
<ele>0</ele>
<time>2026-09-04T06:35:12Z</time>
</trkpt>
<trkpt lat="46.896680000" lon="-72.283560000">
<ele>0</ele>
<time>2026-09-04T06:35:13Z</time>
</trkpt>
<trkpt lat="46.897290000" lon="-72.283310000">
<ele>0</ele>
<time>2026-09-04T06:35:14Z</time>
</trkpt>
<trkpt lat="46.897760000" lon="-72.283120000">
<ele>0</ele>
<time>2026-09-04T06:35:15Z</time>
</trkpt>
<trkpt lat="46.898150000" lon="-72.283050000">
<ele>0</ele>
<time>2026-09-04T06:35:16Z</time>
</trkpt>
<trkpt lat="46.899060000" lon="-72.282960000">
<ele>0</ele>
<time>2026-09-04T06:35:17Z</time>
</trkpt>
<trkpt lat="46.899320000" lon="-72.282990000">
<ele>0</ele>
<time>2026-09-04T06:35:18Z</time>
</trkpt>
<trkpt lat="46.899590000" lon="-72.283050000">
<ele>0</ele>
<time>2026-09-04T06:35:19Z</time>
</trkpt>
<trkpt lat="46.900130000" lon="-72.283180000">
<ele>0</ele>
<time>2026-09-04T06:35:20Z</time>
</trkpt>
<trkpt lat="46.900470000" lon="-72.283310000">
<ele>0</ele>
<time>2026-09-04T06:35:21Z</time>
</trkpt>
<trkpt lat="46.900640000" lon="-72.283390000">
<ele>0</ele>
<time>2026-09-04T06:35:22Z</time>
</trkpt>
<trkpt lat="46.900810000" lon="-72.283510000">
<ele>0</ele>
<time>2026-09-04T06:35:23Z</time>
</trkpt>
<trkpt lat="46.901050000" lon="-72.283730000">
<ele>0</ele>
<time>2026-09-04T06:35:24Z</time>
</trkpt>
<trkpt lat="46.901050000" lon="-72.283730000">
<ele>0</ele>
<time>2026-09-04T06:35:25Z</time>
</trkpt>
<trkpt lat="46.901730000" lon="-72.284440000">
<ele>0</ele>
<time>2026-09-04T06:35:26Z</time>
</trkpt>
<trkpt lat="46.902250000" lon="-72.284960000">
<ele>0</ele>
<time>2026-09-04T06:35:27Z</time>
</trkpt>
<trkpt lat="46.902590000" lon="-72.285190000">
<ele>0</ele>
<time>2026-09-04T06:35:28Z</time>
</trkpt>
<trkpt lat="46.902840000" lon="-72.285280000">
<ele>0</ele>
<time>2026-09-04T06:35:29Z</time>
</trkpt>
<trkpt lat="46.903080000" lon="-72.285320000">
<ele>0</ele>
<time>2026-09-04T06:35:30Z</time>
</trkpt>
<trkpt lat="46.903280000" lon="-72.285310000">
<ele>0</ele>
<time>2026-09-04T06:35:31Z</time>
</trkpt>
<trkpt lat="46.903580000" lon="-72.285230000">
<ele>0</ele>
<time>2026-09-04T06:35:32Z</time>
</trkpt>
<trkpt lat="46.903970000" lon="-72.285100000">
<ele>0</ele>
<time>2026-09-04T06:35:33Z</time>
</trkpt>
<trkpt lat="46.904310000" lon="-72.285010000">
<ele>0</ele>
<time>2026-09-04T06:35:34Z</time>
</trkpt>
<trkpt lat="46.904610000" lon="-72.285010000">
<ele>0</ele>
<time>2026-09-04T06:35:35Z</time>
</trkpt>
<trkpt lat="46.904790000" lon="-72.285030000">
<ele>0</ele>
<time>2026-09-04T06:35:36Z</time>
</trkpt>
<trkpt lat="46.905330000" lon="-72.285100000">
<ele>0</ele>
<time>2026-09-04T06:35:37Z</time>
</trkpt>
<trkpt lat="46.905700000" lon="-72.285190000">
<ele>0</ele>
<time>2026-09-04T06:35:38Z</time>
</trkpt>
<trkpt lat="46.906200000" lon="-72.285400000">
<ele>0</ele>
<time>2026-09-04T06:35:39Z</time>
</trkpt>
<trkpt lat="46.907060000" lon="-72.285830000">
<ele>0</ele>
<time>2026-09-04T06:35:40Z</time>
</trkpt>
<trkpt lat="46.907680000" lon="-72.286090000">
<ele>0</ele>
<time>2026-09-04T06:35:41Z</time>
</trkpt>
<trkpt lat="46.908090000" lon="-72.286290000">
<ele>0</ele>
<time>2026-09-04T06:35:42Z</time>
</trkpt>
<trkpt lat="46.908280000" lon="-72.286400000">
<ele>0</ele>
<time>2026-09-04T06:35:43Z</time>
</trkpt>
<trkpt lat="46.908560000" lon="-72.286600000">
<ele>0</ele>
<time>2026-09-04T06:35:44Z</time>
</trkpt>
<trkpt lat="46.908850000" lon="-72.286850000">
<ele>0</ele>
<time>2026-09-04T06:35:45Z</time>
</trkpt>
<trkpt lat="46.909340000" lon="-72.287310000">
<ele>0</ele>
<time>2026-09-04T06:35:46Z</time>
</trkpt>
<trkpt lat="46.909800000" lon="-72.287730000">
<ele>0</ele>
<time>2026-09-04T06:35:47Z</time>
</trkpt>
<trkpt lat="46.910540000" lon="-72.288470000">
<ele>0</ele>
<time>2026-09-04T06:35:48Z</time>
</trkpt>
<trkpt lat="46.911130000" lon="-72.289080000">
<ele>0</ele>
<time>2026-09-04T06:35:49Z</time>
</trkpt>
<trkpt lat="46.911480000" lon="-72.289480000">
<ele>0</ele>
<time>2026-09-04T06:35:50Z</time>
</trkpt>
<trkpt lat="46.911810000" lon="-72.289940000">
<ele>0</ele>
<time>2026-09-04T06:35:51Z</time>
</trkpt>
<trkpt lat="46.912340000" lon="-72.290830000">
<ele>0</ele>
<time>2026-09-04T06:35:52Z</time>
</trkpt>
<trkpt lat="46.912660000" lon="-72.291290000">
<ele>0</ele>
<time>2026-09-04T06:35:53Z</time>
</trkpt>
<trkpt lat="46.913050000" lon="-72.291750000">
<ele>0</ele>
<time>2026-09-04T06:35:54Z</time>
</trkpt>
<trkpt lat="46.913180000" lon="-72.291880000">
<ele>0</ele>
<time>2026-09-04T06:35:55Z</time>
</trkpt>
<trkpt lat="46.913530000" lon="-72.292120000">
<ele>0</ele>
<time>2026-09-04T06:35:56Z</time>
</trkpt>
<trkpt lat="46.914250000" lon="-72.292470000">
<ele>0</ele>
<time>2026-09-04T06:35:57Z</time>
</trkpt>
<trkpt lat="46.915440000" lon="-72.293050000">
<ele>0</ele>
<time>2026-09-04T06:35:58Z</time>
</trkpt>
<trkpt lat="46.917260000" lon="-72.293820000">
<ele>0</ele>
<time>2026-09-04T06:35:59Z</time>
</trkpt>
<trkpt lat="46.917510000" lon="-72.293910000">
<ele>0</ele>
<time>2026-09-04T06:36:00Z</time>
</trkpt>
<trkpt lat="46.917740000" lon="-72.293950000">
<ele>0</ele>
<time>2026-09-04T06:36:01Z</time>
</trkpt>
<trkpt lat="46.917900000" lon="-72.293960000">
<ele>0</ele>
<time>2026-09-04T06:36:02Z</time>
</trkpt>
<trkpt lat="46.918390000" lon="-72.293910000">
<ele>0</ele>
<time>2026-09-04T06:36:03Z</time>
</trkpt>
<trkpt lat="46.918680000" lon="-72.293850000">
<ele>0</ele>
<time>2026-09-04T06:36:04Z</time>
</trkpt>
<trkpt lat="46.919040000" lon="-72.293730000">
<ele>0</ele>
<time>2026-09-04T06:36:05Z</time>
</trkpt>
<trkpt lat="46.919390000" lon="-72.293600000">
<ele>0</ele>
<time>2026-09-04T06:36:06Z</time>
</trkpt>
<trkpt lat="46.919560000" lon="-72.293560000">
<ele>0</ele>
<time>2026-09-04T06:36:07Z</time>
</trkpt>
<trkpt lat="46.919740000" lon="-72.293550000">
<ele>0</ele>
<time>2026-09-04T06:36:08Z</time>
</trkpt>
<trkpt lat="46.919990000" lon="-72.293590000">
<ele>0</ele>
<time>2026-09-04T06:36:09Z</time>
</trkpt>
<trkpt lat="46.920600000" lon="-72.293910000">
<ele>0</ele>
<time>2026-09-04T06:36:10Z</time>
</trkpt>
<trkpt lat="46.921320000" lon="-72.294330000">
<ele>0</ele>
<time>2026-09-04T06:36:11Z</time>
</trkpt>
<trkpt lat="46.922140000" lon="-72.294810000">
<ele>0</ele>
<time>2026-09-04T06:36:12Z</time>
</trkpt>
<trkpt lat="46.923250000" lon="-72.295560000">
<ele>0</ele>
<time>2026-09-04T06:36:13Z</time>
</trkpt>
<trkpt lat="46.923610000" lon="-72.295790000">
<ele>0</ele>
<time>2026-09-04T06:36:14Z</time>
</trkpt>
<trkpt lat="46.923790000" lon="-72.295860000">
<ele>0</ele>
<time>2026-09-04T06:36:15Z</time>
</trkpt>
<trkpt lat="46.923960000" lon="-72.295900000">
<ele>0</ele>
<time>2026-09-04T06:36:16Z</time>
</trkpt>
<trkpt lat="46.924140000" lon="-72.295910000">
<ele>0</ele>
<time>2026-09-04T06:36:17Z</time>
</trkpt>
<trkpt lat="46.924340000" lon="-72.295880000">
<ele>0</ele>
<time>2026-09-04T06:36:18Z</time>
</trkpt>
<trkpt lat="46.924790000" lon="-72.295770000">
<ele>0</ele>
<time>2026-09-04T06:36:19Z</time>
</trkpt>
<trkpt lat="46.925200000" lon="-72.295620000">
<ele>0</ele>
<time>2026-09-04T06:36:20Z</time>
</trkpt>
<trkpt lat="46.925730000" lon="-72.295430000">
<ele>0</ele>
<time>2026-09-04T06:36:21Z</time>
</trkpt>
<trkpt lat="46.926250000" lon="-72.295250000">
<ele>0</ele>
<time>2026-09-04T06:36:22Z</time>
</trkpt>
<trkpt lat="46.926890000" lon="-72.295040000">
<ele>0</ele>
<time>2026-09-04T06:36:23Z</time>
</trkpt>
<trkpt lat="46.927320000" lon="-72.294930000">
<ele>0</ele>
<time>2026-09-04T06:36:24Z</time>
</trkpt>
<trkpt lat="46.929970000" lon="-72.294310000">
<ele>0</ele>
<time>2026-09-04T06:36:25Z</time>
</trkpt>
<trkpt lat="46.930680000" lon="-72.294130000">
<ele>0</ele>
<time>2026-09-04T06:36:26Z</time>
</trkpt>
<trkpt lat="46.930870000" lon="-72.294070000">
<ele>0</ele>
<time>2026-09-04T06:36:27Z</time>
</trkpt>
<trkpt lat="46.931130000" lon="-72.293930000">
<ele>0</ele>
<time>2026-09-04T06:36:28Z</time>
</trkpt>
<trkpt lat="46.931360000" lon="-72.293760000">
<ele>0</ele>
<time>2026-09-04T06:36:29Z</time>
</trkpt>
<trkpt lat="46.931510000" lon="-72.293600000">
<ele>0</ele>
<time>2026-09-04T06:36:30Z</time>
</trkpt>
<trkpt lat="46.931840000" lon="-72.293160000">
<ele>0</ele>
<time>2026-09-04T06:36:31Z</time>
</trkpt>
<trkpt lat="46.932010000" lon="-72.292910000">
<ele>0</ele>
<time>2026-09-04T06:36:32Z</time>
</trkpt>
<trkpt lat="46.932310000" lon="-72.292350000">
<ele>0</ele>
<time>2026-09-04T06:36:33Z</time>
</trkpt>
<trkpt lat="46.932470000" lon="-72.292020000">
<ele>0</ele>
<time>2026-09-04T06:36:34Z</time>
</trkpt>
<trkpt lat="46.932710000" lon="-72.291390000">
<ele>0</ele>
<time>2026-09-04T06:36:35Z</time>
</trkpt>
<trkpt lat="46.932990000" lon="-72.290490000">
<ele>0</ele>
<time>2026-09-04T06:36:36Z</time>
</trkpt>
<trkpt lat="46.933140000" lon="-72.289940000">
<ele>0</ele>
<time>2026-09-04T06:36:37Z</time>
</trkpt>
<trkpt lat="46.933670000" lon="-72.287810000">
<ele>0</ele>
<time>2026-09-04T06:36:38Z</time>
</trkpt>
<trkpt lat="46.933960000" lon="-72.286640000">
<ele>0</ele>
<time>2026-09-04T06:36:39Z</time>
</trkpt>
<trkpt lat="46.933970000" lon="-72.286440000">
<ele>0</ele>
<time>2026-09-04T06:36:40Z</time>
</trkpt>
<trkpt lat="46.933930000" lon="-72.286190000">
<ele>0</ele>
<time>2026-09-04T06:36:41Z</time>
</trkpt>
<trkpt lat="46.933910000" lon="-72.285890000">
<ele>0</ele>
<time>2026-09-04T06:36:42Z</time>
</trkpt>
<trkpt lat="46.933980000" lon="-72.285590000">
<ele>0</ele>
<time>2026-09-04T06:36:43Z</time>
</trkpt>
<trkpt lat="46.934170000" lon="-72.285010000">
<ele>0</ele>
<time>2026-09-04T06:36:44Z</time>
</trkpt>
<trkpt lat="46.934360000" lon="-72.284310000">
<ele>0</ele>
<time>2026-09-04T06:36:45Z</time>
</trkpt>
<trkpt lat="46.934480000" lon="-72.283680000">
<ele>0</ele>
<time>2026-09-04T06:36:46Z</time>
</trkpt>
<trkpt lat="46.934580000" lon="-72.282450000">
<ele>0</ele>
<time>2026-09-04T06:36:47Z</time>
</trkpt>
<trkpt lat="46.934630000" lon="-72.281610000">
<ele>0</ele>
<time>2026-09-04T06:36:48Z</time>
</trkpt>
<trkpt lat="46.934710000" lon="-72.281020000">
<ele>0</ele>
<time>2026-09-04T06:36:49Z</time>
</trkpt>
<trkpt lat="46.934860000" lon="-72.280560000">
<ele>0</ele>
<time>2026-09-04T06:36:50Z</time>
</trkpt>
<trkpt lat="46.935380000" lon="-72.279210000">
<ele>0</ele>
<time>2026-09-04T06:36:51Z</time>
</trkpt>
<trkpt lat="46.935720000" lon="-72.278280000">
<ele>0</ele>
<time>2026-09-04T06:36:52Z</time>
</trkpt>
<trkpt lat="46.936320000" lon="-72.276660000">
<ele>0</ele>
<time>2026-09-04T06:36:53Z</time>
</trkpt>
<trkpt lat="46.936450000" lon="-72.276170000">
<ele>0</ele>
<time>2026-09-04T06:36:54Z</time>
</trkpt>
<trkpt lat="46.936530000" lon="-72.275660000">
<ele>0</ele>
<time>2026-09-04T06:36:55Z</time>
</trkpt>
<trkpt lat="46.936620000" lon="-72.274970000">
<ele>0</ele>
<time>2026-09-04T06:36:56Z</time>
</trkpt>
<trkpt lat="46.936640000" lon="-72.274590000">
<ele>0</ele>
<time>2026-09-04T06:36:57Z</time>
</trkpt>
<trkpt lat="46.936610000" lon="-72.274310000">
<ele>0</ele>
<time>2026-09-04T06:36:58Z</time>
</trkpt>
<trkpt lat="46.936540000" lon="-72.273930000">
<ele>0</ele>
<time>2026-09-04T06:36:59Z</time>
</trkpt>
<trkpt lat="46.936390000" lon="-72.273360000">
<ele>0</ele>
<time>2026-09-04T06:37:00Z</time>
</trkpt>
<trkpt lat="46.936330000" lon="-72.273060000">
<ele>0</ele>
<time>2026-09-04T06:37:01Z</time>
</trkpt>
<trkpt lat="46.936280000" lon="-72.272660000">
<ele>0</ele>
<time>2026-09-04T06:37:02Z</time>
</trkpt>
<trkpt lat="46.936270000" lon="-72.271800000">
<ele>0</ele>
<time>2026-09-04T06:37:03Z</time>
</trkpt>
<trkpt lat="46.936280000" lon="-72.270480000">
<ele>0</ele>
<time>2026-09-04T06:37:04Z</time>
</trkpt>
<trkpt lat="46.936290000" lon="-72.269760000">
<ele>0</ele>
<time>2026-09-04T06:37:05Z</time>
</trkpt>
<trkpt lat="46.936330000" lon="-72.269330000">
<ele>0</ele>
<time>2026-09-04T06:37:06Z</time>
</trkpt>
<trkpt lat="46.936330000" lon="-72.269330000">
<ele>0</ele>
<time>2026-09-04T06:37:07Z</time>
</trkpt>
<trkpt lat="46.936470000" lon="-72.268540000">
<ele>0</ele>
<time>2026-09-04T06:37:08Z</time>
</trkpt>
<trkpt lat="46.936650000" lon="-72.267940000">
<ele>0</ele>
<time>2026-09-04T06:37:09Z</time>
</trkpt>
<trkpt lat="46.937230000" lon="-72.266600000">
<ele>0</ele>
<time>2026-09-04T06:37:10Z</time>
</trkpt>
<trkpt lat="46.937510000" lon="-72.265930000">
<ele>0</ele>
<time>2026-09-04T06:37:11Z</time>
</trkpt>
<trkpt lat="46.937750000" lon="-72.265300000">
<ele>0</ele>
<time>2026-09-04T06:37:12Z</time>
</trkpt>
<trkpt lat="46.938080000" lon="-72.264380000">
<ele>0</ele>
<time>2026-09-04T06:37:13Z</time>
</trkpt>
<trkpt lat="46.938220000" lon="-72.263930000">
<ele>0</ele>
<time>2026-09-04T06:37:14Z</time>
</trkpt>
<trkpt lat="46.938330000" lon="-72.263530000">
<ele>0</ele>
<time>2026-09-04T06:37:15Z</time>
</trkpt>
<trkpt lat="46.938440000" lon="-72.263010000">
<ele>0</ele>
<time>2026-09-04T06:37:16Z</time>
</trkpt>
<trkpt lat="46.938510000" lon="-72.262560000">
<ele>0</ele>
<time>2026-09-04T06:37:17Z</time>
</trkpt>
<trkpt lat="46.938690000" lon="-72.261310000">
<ele>0</ele>
<time>2026-09-04T06:37:18Z</time>
</trkpt>
<trkpt lat="46.938760000" lon="-72.260990000">
<ele>0</ele>
<time>2026-09-04T06:37:19Z</time>
</trkpt>
<trkpt lat="46.938900000" lon="-72.260550000">
<ele>0</ele>
<time>2026-09-04T06:37:20Z</time>
</trkpt>
<trkpt lat="46.939020000" lon="-72.260280000">
<ele>0</ele>
<time>2026-09-04T06:37:21Z</time>
</trkpt>
<trkpt lat="46.939330000" lon="-72.259680000">
<ele>0</ele>
<time>2026-09-04T06:37:22Z</time>
</trkpt>
<trkpt lat="46.939710000" lon="-72.259090000">
<ele>0</ele>
<time>2026-09-04T06:37:23Z</time>
</trkpt>
<trkpt lat="46.940070000" lon="-72.258610000">
<ele>0</ele>
<time>2026-09-04T06:37:24Z</time>
</trkpt>
<trkpt lat="46.940390000" lon="-72.258300000">
<ele>0</ele>
<time>2026-09-04T06:37:25Z</time>
</trkpt>
<trkpt lat="46.940760000" lon="-72.258030000">
<ele>0</ele>
<time>2026-09-04T06:37:26Z</time>
</trkpt>
<trkpt lat="46.941030000" lon="-72.257860000">
<ele>0</ele>
<time>2026-09-04T06:37:27Z</time>
</trkpt>
<trkpt lat="46.941410000" lon="-72.257660000">
<ele>0</ele>
<time>2026-09-04T06:37:28Z</time>
</trkpt>
<trkpt lat="46.941930000" lon="-72.257450000">
<ele>0</ele>
<time>2026-09-04T06:37:29Z</time>
</trkpt>
<trkpt lat="46.942280000" lon="-72.257350000">
<ele>0</ele>
<time>2026-09-04T06:37:30Z</time>
</trkpt>
<trkpt lat="46.942820000" lon="-72.257240000">
<ele>0</ele>
<time>2026-09-04T06:37:31Z</time>
</trkpt>
<trkpt lat="46.943200000" lon="-72.257140000">
<ele>0</ele>
<time>2026-09-04T06:37:32Z</time>
</trkpt>
<trkpt lat="46.943340000" lon="-72.257080000">
<ele>0</ele>
<time>2026-09-04T06:37:33Z</time>
</trkpt>
<trkpt lat="46.943550000" lon="-72.256980000">
<ele>0</ele>
<time>2026-09-04T06:37:34Z</time>
</trkpt>
<trkpt lat="46.943900000" lon="-72.256770000">
<ele>0</ele>
<time>2026-09-04T06:37:35Z</time>
</trkpt>
<trkpt lat="46.944290000" lon="-72.256380000">
<ele>0</ele>
<time>2026-09-04T06:37:36Z</time>
</trkpt>
<trkpt lat="46.944440000" lon="-72.256200000">
<ele>0</ele>
<time>2026-09-04T06:37:37Z</time>
</trkpt>
<trkpt lat="46.944850000" lon="-72.255690000">
<ele>0</ele>
<time>2026-09-04T06:37:38Z</time>
</trkpt>
<trkpt lat="46.945280000" lon="-72.255200000">
<ele>0</ele>
<time>2026-09-04T06:37:39Z</time>
</trkpt>
<trkpt lat="46.945700000" lon="-72.254720000">
<ele>0</ele>
<time>2026-09-04T06:37:40Z</time>
</trkpt>
<trkpt lat="46.945830000" lon="-72.254540000">
<ele>0</ele>
<time>2026-09-04T06:37:41Z</time>
</trkpt>
<trkpt lat="46.946150000" lon="-72.254100000">
<ele>0</ele>
<time>2026-09-04T06:37:42Z</time>
</trkpt>
<trkpt lat="46.946250000" lon="-72.254000000">
<ele>0</ele>
<time>2026-09-04T06:37:43Z</time>
</trkpt>
<trkpt lat="46.946550000" lon="-72.253770000">
<ele>0</ele>
<time>2026-09-04T06:37:44Z</time>
</trkpt>
<trkpt lat="46.947060000" lon="-72.253450000">
<ele>0</ele>
<time>2026-09-04T06:37:45Z</time>
</trkpt>
<trkpt lat="46.947210000" lon="-72.253350000">
<ele>0</ele>
<time>2026-09-04T06:37:46Z</time>
</trkpt>
<trkpt lat="46.947370000" lon="-72.253220000">
<ele>0</ele>
<time>2026-09-04T06:37:47Z</time>
</trkpt>
<trkpt lat="46.947650000" lon="-72.252900000">
<ele>0</ele>
<time>2026-09-04T06:37:48Z</time>
</trkpt>
<trkpt lat="46.947850000" lon="-72.252570000">
<ele>0</ele>
<time>2026-09-04T06:37:49Z</time>
</trkpt>
<trkpt lat="46.947970000" lon="-72.252260000">
<ele>0</ele>
<time>2026-09-04T06:37:50Z</time>
</trkpt>
<trkpt lat="46.948140000" lon="-72.251700000">
<ele>0</ele>
<time>2026-09-04T06:37:51Z</time>
</trkpt>
<trkpt lat="46.948270000" lon="-72.251100000">
<ele>0</ele>
<time>2026-09-04T06:37:52Z</time>
</trkpt>
<trkpt lat="46.948300000" lon="-72.250680000">
<ele>0</ele>
<time>2026-09-04T06:37:53Z</time>
</trkpt>
<trkpt lat="46.948300000" lon="-72.250100000">
<ele>0</ele>
<time>2026-09-04T06:37:54Z</time>
</trkpt>
<trkpt lat="46.948340000" lon="-72.249560000">
<ele>0</ele>
<time>2026-09-04T06:37:55Z</time>
</trkpt>
<trkpt lat="46.948420000" lon="-72.249170000">
<ele>0</ele>
<time>2026-09-04T06:37:56Z</time>
</trkpt>
<trkpt lat="46.948510000" lon="-72.248830000">
<ele>0</ele>
<time>2026-09-04T06:37:57Z</time>
</trkpt>
<trkpt lat="46.948650000" lon="-72.248510000">
<ele>0</ele>
<time>2026-09-04T06:37:58Z</time>
</trkpt>
<trkpt lat="46.948910000" lon="-72.248050000">
<ele>0</ele>
<time>2026-09-04T06:37:59Z</time>
</trkpt>
<trkpt lat="46.949200000" lon="-72.247710000">
<ele>0</ele>
<time>2026-09-04T06:38:00Z</time>
</trkpt>
<trkpt lat="46.949360000" lon="-72.247560000">
<ele>0</ele>
<time>2026-09-04T06:38:01Z</time>
</trkpt>
<trkpt lat="46.949620000" lon="-72.247370000">
<ele>0</ele>
<time>2026-09-04T06:38:02Z</time>
</trkpt>
<trkpt lat="46.949960000" lon="-72.247190000">
<ele>0</ele>
<time>2026-09-04T06:38:03Z</time>
</trkpt>
<trkpt lat="46.950840000" lon="-72.246930000">
<ele>0</ele>
<time>2026-09-04T06:38:04Z</time>
</trkpt>
<trkpt lat="46.951360000" lon="-72.246710000">
<ele>0</ele>
<time>2026-09-04T06:38:05Z</time>
</trkpt>
<trkpt lat="46.951780000" lon="-72.246470000">
<ele>0</ele>
<time>2026-09-04T06:38:06Z</time>
</trkpt>
<trkpt lat="46.952360000" lon="-72.246110000">
<ele>0</ele>
<time>2026-09-04T06:38:07Z</time>
</trkpt>
<trkpt lat="46.952860000" lon="-72.245830000">
<ele>0</ele>
<time>2026-09-04T06:38:08Z</time>
</trkpt>
<trkpt lat="46.953190000" lon="-72.245620000">
<ele>0</ele>
<time>2026-09-04T06:38:09Z</time>
</trkpt>
<trkpt lat="46.953510000" lon="-72.245380000">
<ele>0</ele>
<time>2026-09-04T06:38:10Z</time>
</trkpt>
<trkpt lat="46.953680000" lon="-72.245280000">
<ele>0</ele>
<time>2026-09-04T06:38:11Z</time>
</trkpt>
<trkpt lat="46.953850000" lon="-72.245200000">
<ele>0</ele>
<time>2026-09-04T06:38:12Z</time>
</trkpt>
<trkpt lat="46.954200000" lon="-72.245100000">
<ele>0</ele>
<time>2026-09-04T06:38:13Z</time>
</trkpt>
<trkpt lat="46.954550000" lon="-72.244990000">
<ele>0</ele>
<time>2026-09-04T06:38:14Z</time>
</trkpt>
<trkpt lat="46.954900000" lon="-72.244840000">
<ele>0</ele>
<time>2026-09-04T06:38:15Z</time>
</trkpt>
<trkpt lat="46.955070000" lon="-72.244740000">
<ele>0</ele>
<time>2026-09-04T06:38:16Z</time>
</trkpt>
<trkpt lat="46.955490000" lon="-72.244450000">
<ele>0</ele>
<time>2026-09-04T06:38:17Z</time>
</trkpt>
<trkpt lat="46.955850000" lon="-72.244100000">
<ele>0</ele>
<time>2026-09-04T06:38:18Z</time>
</trkpt>
<trkpt lat="46.955990000" lon="-72.243940000">
<ele>0</ele>
<time>2026-09-04T06:38:19Z</time>
</trkpt>
<trkpt lat="46.956240000" lon="-72.243570000">
<ele>0</ele>
<time>2026-09-04T06:38:20Z</time>
</trkpt>
<trkpt lat="46.956580000" lon="-72.243030000">
<ele>0</ele>
<time>2026-09-04T06:38:21Z</time>
</trkpt>
<trkpt lat="46.957000000" lon="-72.242310000">
<ele>0</ele>
<time>2026-09-04T06:38:22Z</time>
</trkpt>
<trkpt lat="46.957240000" lon="-72.241810000">
<ele>0</ele>
<time>2026-09-04T06:38:23Z</time>
</trkpt>
<trkpt lat="46.957450000" lon="-72.241280000">
<ele>0</ele>
<time>2026-09-04T06:38:24Z</time>
</trkpt>
<trkpt lat="46.957670000" lon="-72.240570000">
<ele>0</ele>
<time>2026-09-04T06:38:25Z</time>
</trkpt>
<trkpt lat="46.957840000" lon="-72.239840000">
<ele>0</ele>
<time>2026-09-04T06:38:26Z</time>
</trkpt>
<trkpt lat="46.958140000" lon="-72.238570000">
<ele>0</ele>
<time>2026-09-04T06:38:27Z</time>
</trkpt>
<trkpt lat="46.958290000" lon="-72.237880000">
<ele>0</ele>
<time>2026-09-04T06:38:28Z</time>
</trkpt>
<trkpt lat="46.958470000" lon="-72.237330000">
<ele>0</ele>
<time>2026-09-04T06:38:29Z</time>
</trkpt>
<trkpt lat="46.958660000" lon="-72.236780000">
<ele>0</ele>
<time>2026-09-04T06:38:30Z</time>
</trkpt>
<trkpt lat="46.958780000" lon="-72.236230000">
<ele>0</ele>
<time>2026-09-04T06:38:31Z</time>
</trkpt>
<trkpt lat="46.958800000" lon="-72.235710000">
<ele>0</ele>
<time>2026-09-04T06:38:32Z</time>
</trkpt>
<trkpt lat="46.958780000" lon="-72.235070000">
<ele>0</ele>
<time>2026-09-04T06:38:33Z</time>
</trkpt>
<trkpt lat="46.958720000" lon="-72.233490000">
<ele>0</ele>
<time>2026-09-04T06:38:34Z</time>
</trkpt>
<trkpt lat="46.958690000" lon="-72.232970000">
<ele>0</ele>
<time>2026-09-04T06:38:35Z</time>
</trkpt>
<trkpt lat="46.958650000" lon="-72.232710000">
<ele>0</ele>
<time>2026-09-04T06:38:36Z</time>
</trkpt>
<trkpt lat="46.958550000" lon="-72.232290000">
<ele>0</ele>
<time>2026-09-04T06:38:37Z</time>
</trkpt>
<trkpt lat="46.958040000" lon="-72.230810000">
<ele>0</ele>
<time>2026-09-04T06:38:38Z</time>
</trkpt>
<trkpt lat="46.957840000" lon="-72.230080000">
<ele>0</ele>
<time>2026-09-04T06:38:39Z</time>
</trkpt>
<trkpt lat="46.957520000" lon="-72.228630000">
<ele>0</ele>
<time>2026-09-04T06:38:40Z</time>
</trkpt>
<trkpt lat="46.957370000" lon="-72.228200000">
<ele>0</ele>
<time>2026-09-04T06:38:41Z</time>
</trkpt>
<trkpt lat="46.957140000" lon="-72.227660000">
<ele>0</ele>
<time>2026-09-04T06:38:42Z</time>
</trkpt>
<trkpt lat="46.956830000" lon="-72.227140000">
<ele>0</ele>
<time>2026-09-04T06:38:43Z</time>
</trkpt>
<trkpt lat="46.956460000" lon="-72.226600000">
<ele>0</ele>
<time>2026-09-04T06:38:44Z</time>
</trkpt>
<trkpt lat="46.955690000" lon="-72.225580000">
<ele>0</ele>
<time>2026-09-04T06:38:45Z</time>
</trkpt>
<trkpt lat="46.955150000" lon="-72.224890000">
<ele>0</ele>
<time>2026-09-04T06:38:46Z</time>
</trkpt>
<trkpt lat="46.954760000" lon="-72.224460000">
<ele>0</ele>
<time>2026-09-04T06:38:47Z</time>
</trkpt>
<trkpt lat="46.954300000" lon="-72.224040000">
<ele>0</ele>
<time>2026-09-04T06:38:48Z</time>
</trkpt>
<trkpt lat="46.954150000" lon="-72.223900000">
<ele>0</ele>
<time>2026-09-04T06:38:49Z</time>
</trkpt>
<trkpt lat="46.953920000" lon="-72.223610000">
<ele>0</ele>
<time>2026-09-04T06:38:50Z</time>
</trkpt>
<trkpt lat="46.953750000" lon="-72.223340000">
<ele>0</ele>
<time>2026-09-04T06:38:51Z</time>
</trkpt>
<trkpt lat="46.953550000" lon="-72.222930000">
<ele>0</ele>
<time>2026-09-04T06:38:52Z</time>
</trkpt>
<trkpt lat="46.953420000" lon="-72.222600000">
<ele>0</ele>
<time>2026-09-04T06:38:53Z</time>
</trkpt>
<trkpt lat="46.953260000" lon="-72.222030000">
<ele>0</ele>
<time>2026-09-04T06:38:54Z</time>
</trkpt>
<trkpt lat="46.953160000" lon="-72.221570000">
<ele>0</ele>
<time>2026-09-04T06:38:55Z</time>
</trkpt>
<trkpt lat="46.953050000" lon="-72.220960000">
<ele>0</ele>
<time>2026-09-04T06:38:56Z</time>
</trkpt>
<trkpt lat="46.952920000" lon="-72.219930000">
<ele>0</ele>
<time>2026-09-04T06:38:57Z</time>
</trkpt>
<trkpt lat="46.952840000" lon="-72.219150000">
<ele>0</ele>
<time>2026-09-04T06:38:58Z</time>
</trkpt>
<trkpt lat="46.952830000" lon="-72.218770000">
<ele>0</ele>
<time>2026-09-04T06:38:59Z</time>
</trkpt>
<trkpt lat="46.952900000" lon="-72.217840000">
<ele>0</ele>
<time>2026-09-04T06:39:00Z</time>
</trkpt>
<trkpt lat="46.952940000" lon="-72.217050000">
<ele>0</ele>
<time>2026-09-04T06:39:01Z</time>
</trkpt>
<trkpt lat="46.952980000" lon="-72.216500000">
<ele>0</ele>
<time>2026-09-04T06:39:02Z</time>
</trkpt>
<trkpt lat="46.953100000" lon="-72.216030000">
<ele>0</ele>
<time>2026-09-04T06:39:03Z</time>
</trkpt>
<trkpt lat="46.953190000" lon="-72.215800000">
<ele>0</ele>
<time>2026-09-04T06:39:04Z</time>
</trkpt>
<trkpt lat="46.953730000" lon="-72.214680000">
<ele>0</ele>
<time>2026-09-04T06:39:05Z</time>
</trkpt>
<trkpt lat="46.954430000" lon="-72.213220000">
<ele>0</ele>
<time>2026-09-04T06:39:06Z</time>
</trkpt>
<trkpt lat="46.954530000" lon="-72.212990000">
<ele>0</ele>
<time>2026-09-04T06:39:07Z</time>
</trkpt>
<trkpt lat="46.954630000" lon="-72.212670000">
<ele>0</ele>
<time>2026-09-04T06:39:08Z</time>
</trkpt>
<trkpt lat="46.954800000" lon="-72.211960000">
<ele>0</ele>
<time>2026-09-04T06:39:09Z</time>
</trkpt>
<trkpt lat="46.955340000" lon="-72.209730000">
<ele>0</ele>
<time>2026-09-04T06:39:10Z</time>
</trkpt>
<trkpt lat="46.955500000" lon="-72.209320000">
<ele>0</ele>
<time>2026-09-04T06:39:11Z</time>
</trkpt>
<trkpt lat="46.955700000" lon="-72.208950000">
<ele>0</ele>
<time>2026-09-04T06:39:12Z</time>
</trkpt>
<trkpt lat="46.955860000" lon="-72.208720000">
<ele>0</ele>
<time>2026-09-04T06:39:13Z</time>
</trkpt>
<trkpt lat="46.956170000" lon="-72.208190000">
<ele>0</ele>
<time>2026-09-04T06:39:14Z</time>
</trkpt>
<trkpt lat="46.956240000" lon="-72.208030000">
<ele>0</ele>
<time>2026-09-04T06:39:15Z</time>
</trkpt>
<trkpt lat="46.956500000" lon="-72.207460000">
<ele>0</ele>
<time>2026-09-04T06:39:16Z</time>
</trkpt>
<trkpt lat="46.956790000" lon="-72.206850000">
<ele>0</ele>
<time>2026-09-04T06:39:17Z</time>
</trkpt>
<trkpt lat="46.956930000" lon="-72.206610000">
<ele>0</ele>
<time>2026-09-04T06:39:18Z</time>
</trkpt>
<trkpt lat="46.957020000" lon="-72.206420000">
<ele>0</ele>
<time>2026-09-04T06:39:19Z</time>
</trkpt>
<trkpt lat="46.957310000" lon="-72.205840000">
<ele>0</ele>
<time>2026-09-04T06:39:20Z</time>
</trkpt>
<trkpt lat="46.957450000" lon="-72.205610000">
<ele>0</ele>
<time>2026-09-04T06:39:21Z</time>
</trkpt>
<trkpt lat="46.957850000" lon="-72.204900000">
<ele>0</ele>
<time>2026-09-04T06:39:22Z</time>
</trkpt>
<trkpt lat="46.957980000" lon="-72.204720000">
<ele>0</ele>
<time>2026-09-04T06:39:23Z</time>
</trkpt>
<trkpt lat="46.958120000" lon="-72.204570000">
<ele>0</ele>
<time>2026-09-04T06:39:24Z</time>
</trkpt>
<trkpt lat="46.958270000" lon="-72.204440000">
<ele>0</ele>
<time>2026-09-04T06:39:25Z</time>
</trkpt>
<trkpt lat="46.958560000" lon="-72.204270000">
<ele>0</ele>
<time>2026-09-04T06:39:26Z</time>
</trkpt>
<trkpt lat="46.958960000" lon="-72.204120000">
<ele>0</ele>
<time>2026-09-04T06:39:27Z</time>
</trkpt>
<trkpt lat="46.959460000" lon="-72.203960000">
<ele>0</ele>
<time>2026-09-04T06:39:28Z</time>
</trkpt>
<trkpt lat="46.960050000" lon="-72.203710000">
<ele>0</ele>
<time>2026-09-04T06:39:29Z</time>
</trkpt>
<trkpt lat="46.960480000" lon="-72.203470000">
<ele>0</ele>
<time>2026-09-04T06:39:30Z</time>
</trkpt>
<trkpt lat="46.960670000" lon="-72.203310000">
<ele>0</ele>
<time>2026-09-04T06:39:31Z</time>
</trkpt>
<trkpt lat="46.960830000" lon="-72.203130000">
<ele>0</ele>
<time>2026-09-04T06:39:32Z</time>
</trkpt>
<trkpt lat="46.961050000" lon="-72.202780000">
<ele>0</ele>
<time>2026-09-04T06:39:33Z</time>
</trkpt>
<trkpt lat="46.961250000" lon="-72.202420000">
<ele>0</ele>
<time>2026-09-04T06:39:34Z</time>
</trkpt>
<trkpt lat="46.961340000" lon="-72.202220000">
<ele>0</ele>
<time>2026-09-04T06:39:35Z</time>
</trkpt>
<trkpt lat="46.961420000" lon="-72.201950000">
<ele>0</ele>
<time>2026-09-04T06:39:36Z</time>
</trkpt>
<trkpt lat="46.961480000" lon="-72.201660000">
<ele>0</ele>
<time>2026-09-04T06:39:37Z</time>
</trkpt>
<trkpt lat="46.961500000" lon="-72.201390000">
<ele>0</ele>
<time>2026-09-04T06:39:38Z</time>
</trkpt>
<trkpt lat="46.961480000" lon="-72.200940000">
<ele>0</ele>
<time>2026-09-04T06:39:39Z</time>
</trkpt>
<trkpt lat="46.961400000" lon="-72.200400000">
<ele>0</ele>
<time>2026-09-04T06:39:40Z</time>
</trkpt>
<trkpt lat="46.961320000" lon="-72.199880000">
<ele>0</ele>
<time>2026-09-04T06:39:41Z</time>
</trkpt>
<trkpt lat="46.961200000" lon="-72.199010000">
<ele>0</ele>
<time>2026-09-04T06:39:42Z</time>
</trkpt>
<trkpt lat="46.961100000" lon="-72.197780000">
<ele>0</ele>
<time>2026-09-04T06:39:43Z</time>
</trkpt>
<trkpt lat="46.961080000" lon="-72.196990000">
<ele>0</ele>
<time>2026-09-04T06:39:44Z</time>
</trkpt>
<trkpt lat="46.961130000" lon="-72.195770000">
<ele>0</ele>
<time>2026-09-04T06:39:45Z</time>
</trkpt>
<trkpt lat="46.961200000" lon="-72.195220000">
<ele>0</ele>
<time>2026-09-04T06:39:46Z</time>
</trkpt>
<trkpt lat="46.961240000" lon="-72.194970000">
<ele>0</ele>
<time>2026-09-04T06:39:47Z</time>
</trkpt>
<trkpt lat="46.961310000" lon="-72.194730000">
<ele>0</ele>
<time>2026-09-04T06:39:48Z</time>
</trkpt>
<trkpt lat="46.961440000" lon="-72.194400000">
<ele>0</ele>
<time>2026-09-04T06:39:49Z</time>
</trkpt>
<trkpt lat="46.961530000" lon="-72.194180000">
<ele>0</ele>
<time>2026-09-04T06:39:50Z</time>
</trkpt>
<trkpt lat="46.961840000" lon="-72.193590000">
<ele>0</ele>
<time>2026-09-04T06:39:51Z</time>
</trkpt>
<trkpt lat="46.962430000" lon="-72.192530000">
<ele>0</ele>
<time>2026-09-04T06:39:52Z</time>
</trkpt>
<trkpt lat="46.962960000" lon="-72.191490000">
<ele>0</ele>
<time>2026-09-04T06:39:53Z</time>
</trkpt>
<trkpt lat="46.963290000" lon="-72.190910000">
<ele>0</ele>
<time>2026-09-04T06:39:54Z</time>
</trkpt>
<trkpt lat="46.963530000" lon="-72.190530000">
<ele>0</ele>
<time>2026-09-04T06:39:55Z</time>
</trkpt>
<trkpt lat="46.963830000" lon="-72.190140000">
<ele>0</ele>
<time>2026-09-04T06:39:56Z</time>
</trkpt>
<trkpt lat="46.964090000" lon="-72.189920000">
<ele>0</ele>
<time>2026-09-04T06:39:57Z</time>
</trkpt>
<trkpt lat="46.964330000" lon="-72.189780000">
<ele>0</ele>
<time>2026-09-04T06:39:58Z</time>
</trkpt>
<trkpt lat="46.964480000" lon="-72.189690000">
<ele>0</ele>
<time>2026-09-04T06:39:59Z</time>
</trkpt>
<trkpt lat="46.964670000" lon="-72.189620000">
<ele>0</ele>
<time>2026-09-04T06:40:00Z</time>
</trkpt>
<trkpt lat="46.965020000" lon="-72.189540000">
<ele>0</ele>
<time>2026-09-04T06:40:01Z</time>
</trkpt>
<trkpt lat="46.965380000" lon="-72.189500000">
<ele>0</ele>
<time>2026-09-04T06:40:02Z</time>
</trkpt>
<trkpt lat="46.965740000" lon="-72.189510000">
<ele>0</ele>
<time>2026-09-04T06:40:03Z</time>
</trkpt>
<trkpt lat="46.966280000" lon="-72.189610000">
<ele>0</ele>
<time>2026-09-04T06:40:04Z</time>
</trkpt>
<trkpt lat="46.966460000" lon="-72.189660000">
<ele>0</ele>
<time>2026-09-04T06:40:05Z</time>
</trkpt>
<trkpt lat="46.966640000" lon="-72.189710000">
<ele>0</ele>
<time>2026-09-04T06:40:06Z</time>
</trkpt>
<trkpt lat="46.966970000" lon="-72.189860000">
<ele>0</ele>
<time>2026-09-04T06:40:07Z</time>
</trkpt>
<trkpt lat="46.967320000" lon="-72.190050000">
<ele>0</ele>
<time>2026-09-04T06:40:08Z</time>
</trkpt>
<trkpt lat="46.967490000" lon="-72.190130000">
<ele>0</ele>
<time>2026-09-04T06:40:09Z</time>
</trkpt>
<trkpt lat="46.967800000" lon="-72.190220000">
<ele>0</ele>
<time>2026-09-04T06:40:10Z</time>
</trkpt>
<trkpt lat="46.968020000" lon="-72.190210000">
<ele>0</ele>
<time>2026-09-04T06:40:11Z</time>
</trkpt>
<trkpt lat="46.969070000" lon="-72.189840000">
<ele>0</ele>
<time>2026-09-04T06:40:12Z</time>
</trkpt>
<trkpt lat="46.970120000" lon="-72.189470000">
<ele>0</ele>
<time>2026-09-04T06:40:13Z</time>
</trkpt>
<trkpt lat="46.970810000" lon="-72.189190000">
<ele>0</ele>
<time>2026-09-04T06:40:14Z</time>
</trkpt>
<trkpt lat="46.971070000" lon="-72.189090000">
<ele>0</ele>
<time>2026-09-04T06:40:15Z</time>
</trkpt>
<trkpt lat="46.971370000" lon="-72.188910000">
<ele>0</ele>
<time>2026-09-04T06:40:16Z</time>
</trkpt>
<trkpt lat="46.971570000" lon="-72.188760000">
<ele>0</ele>
<time>2026-09-04T06:40:17Z</time>
</trkpt>
<trkpt lat="46.971960000" lon="-72.188350000">
<ele>0</ele>
<time>2026-09-04T06:40:18Z</time>
</trkpt>
<trkpt lat="46.972440000" lon="-72.187740000">
<ele>0</ele>
<time>2026-09-04T06:40:19Z</time>
</trkpt>
<trkpt lat="46.972820000" lon="-72.187170000">
<ele>0</ele>
<time>2026-09-04T06:40:20Z</time>
</trkpt>
<trkpt lat="46.973360000" lon="-72.186120000">
<ele>0</ele>
<time>2026-09-04T06:40:21Z</time>
</trkpt>
<trkpt lat="46.973560000" lon="-72.185680000">
<ele>0</ele>
<time>2026-09-04T06:40:22Z</time>
</trkpt>
<trkpt lat="46.973780000" lon="-72.184990000">
<ele>0</ele>
<time>2026-09-04T06:40:23Z</time>
</trkpt>
<trkpt lat="46.973970000" lon="-72.184290000">
<ele>0</ele>
<time>2026-09-04T06:40:24Z</time>
</trkpt>
<trkpt lat="46.974060000" lon="-72.183820000">
<ele>0</ele>
<time>2026-09-04T06:40:25Z</time>
</trkpt>
<trkpt lat="46.974280000" lon="-72.182540000">
<ele>0</ele>
<time>2026-09-04T06:40:26Z</time>
</trkpt>
<trkpt lat="46.974360000" lon="-72.181920000">
<ele>0</ele>
<time>2026-09-04T06:40:27Z</time>
</trkpt>
<trkpt lat="46.974480000" lon="-72.181040000">
<ele>0</ele>
<time>2026-09-04T06:40:28Z</time>
</trkpt>
<trkpt lat="46.974670000" lon="-72.180420000">
<ele>0</ele>
<time>2026-09-04T06:40:29Z</time>
</trkpt>
<trkpt lat="46.974840000" lon="-72.179990000">
<ele>0</ele>
<time>2026-09-04T06:40:30Z</time>
</trkpt>
<trkpt lat="46.975000000" lon="-72.179520000">
<ele>0</ele>
<time>2026-09-04T06:40:31Z</time>
</trkpt>
<trkpt lat="46.975270000" lon="-72.178760000">
<ele>0</ele>
<time>2026-09-04T06:40:32Z</time>
</trkpt>
<trkpt lat="46.975410000" lon="-72.178430000">
<ele>0</ele>
<time>2026-09-04T06:40:33Z</time>
</trkpt>
<trkpt lat="46.975650000" lon="-72.177990000">
<ele>0</ele>
<time>2026-09-04T06:40:34Z</time>
</trkpt>
<trkpt lat="46.975920000" lon="-72.177610000">
<ele>0</ele>
<time>2026-09-04T06:40:35Z</time>
</trkpt>
<trkpt lat="46.976090000" lon="-72.177460000">
<ele>0</ele>
<time>2026-09-04T06:40:36Z</time>
</trkpt>
<trkpt lat="46.976250000" lon="-72.177380000">
<ele>0</ele>
<time>2026-09-04T06:40:37Z</time>
</trkpt>
<trkpt lat="46.976430000" lon="-72.177320000">
<ele>0</ele>
<time>2026-09-04T06:40:38Z</time>
</trkpt>
<trkpt lat="46.976510000" lon="-72.177310000">
<ele>0</ele>
<time>2026-09-04T06:40:39Z</time>
</trkpt>
<trkpt lat="46.976700000" lon="-72.177320000">
<ele>0</ele>
<time>2026-09-04T06:40:40Z</time>
</trkpt>
<trkpt lat="46.976840000" lon="-72.177360000">
<ele>0</ele>
<time>2026-09-04T06:40:41Z</time>
</trkpt>
<trkpt lat="46.976990000" lon="-72.177420000">
<ele>0</ele>
<time>2026-09-04T06:40:42Z</time>
</trkpt>
<trkpt lat="46.977480000" lon="-72.177690000">
<ele>0</ele>
<time>2026-09-04T06:40:43Z</time>
</trkpt>
<trkpt lat="46.977970000" lon="-72.177950000">
<ele>0</ele>
<time>2026-09-04T06:40:44Z</time>
</trkpt>
<trkpt lat="46.978350000" lon="-72.178120000">
<ele>0</ele>
<time>2026-09-04T06:40:45Z</time>
</trkpt>
<trkpt lat="46.978500000" lon="-72.178130000">
<ele>0</ele>
<time>2026-09-04T06:40:46Z</time>
</trkpt>
<trkpt lat="46.978760000" lon="-72.178070000">
<ele>0</ele>
<time>2026-09-04T06:40:47Z</time>
</trkpt>
<trkpt lat="46.978850000" lon="-72.178040000">
<ele>0</ele>
<time>2026-09-04T06:40:48Z</time>
</trkpt>
<trkpt lat="46.978970000" lon="-72.178240000">
<ele>0</ele>
<time>2026-09-04T06:40:49Z</time>
</trkpt>
<trkpt lat="46.978970000" lon="-72.178240000">
<ele>0</ele>
<time>2026-09-04T06:40:50Z</time>
</trkpt>
<trkpt lat="46.979370000" lon="-72.178800000">
<ele>0</ele>
<time>2026-09-04T06:40:51Z</time>
</trkpt>
<trkpt lat="46.979630000" lon="-72.179050000">
<ele>0</ele>
<time>2026-09-04T06:40:52Z</time>
</trkpt>
<trkpt lat="46.979850000" lon="-72.179210000">
<ele>0</ele>
<time>2026-09-04T06:40:53Z</time>
</trkpt>
<trkpt lat="46.980230000" lon="-72.179430000">
<ele>0</ele>
<time>2026-09-04T06:40:54Z</time>
</trkpt>
<trkpt lat="46.980570000" lon="-72.179590000">
<ele>0</ele>
<time>2026-09-04T06:40:55Z</time>
</trkpt>
<trkpt lat="46.980820000" lon="-72.179670000">
<ele>0</ele>
<time>2026-09-04T06:40:56Z</time>
</trkpt>
<trkpt lat="46.981110000" lon="-72.179710000">
<ele>0</ele>
<time>2026-09-04T06:40:57Z</time>
</trkpt>
<trkpt lat="46.981830000" lon="-72.179750000">
<ele>0</ele>
<time>2026-09-04T06:40:58Z</time>
</trkpt>
<trkpt lat="46.982250000" lon="-72.179760000">
<ele>0</ele>
<time>2026-09-04T06:40:59Z</time>
</trkpt>
<trkpt lat="46.983090000" lon="-72.179710000">
<ele>0</ele>
<time>2026-09-04T06:41:00Z</time>
</trkpt>
<trkpt lat="46.984830000" lon="-72.179620000">
<ele>0</ele>
<time>2026-09-04T06:41:01Z</time>
</trkpt>
<trkpt lat="46.984830000" lon="-72.179620000">
<ele>0</ele>
<time>2026-09-04T06:41:02Z</time>
</trkpt>
<trkpt lat="46.986360000" lon="-72.179550000">
<ele>0</ele>
<time>2026-09-04T06:41:03Z</time>
</trkpt>
<trkpt lat="46.987130000" lon="-72.179640000">
<ele>0</ele>
<time>2026-09-04T06:41:04Z</time>
</trkpt>
<trkpt lat="46.988330000" lon="-72.179950000">
<ele>0</ele>
<time>2026-09-04T06:41:05Z</time>
</trkpt>
<trkpt lat="46.988940000" lon="-72.180130000">
<ele>0</ele>
<time>2026-09-04T06:41:06Z</time>
</trkpt>
<trkpt lat="46.989220000" lon="-72.180260000">
<ele>0</ele>
<time>2026-09-04T06:41:07Z</time>
</trkpt>
<trkpt lat="46.990820000" lon="-72.180620000">
<ele>0</ele>
<time>2026-09-04T06:41:08Z</time>
</trkpt>
<trkpt lat="46.991170000" lon="-72.180700000">
<ele>0</ele>
<time>2026-09-04T06:41:09Z</time>
</trkpt>
<trkpt lat="46.991410000" lon="-72.180750000">
<ele>0</ele>
<time>2026-09-04T06:41:10Z</time>
</trkpt>
<trkpt lat="46.991640000" lon="-72.180660000">
<ele>0</ele>
<time>2026-09-04T06:41:11Z</time>
</trkpt>
<trkpt lat="46.991720000" lon="-72.180470000">
<ele>0</ele>
<time>2026-09-04T06:41:12Z</time>
</trkpt>
<trkpt lat="46.991800000" lon="-72.180230000">
<ele>0</ele>
<time>2026-09-04T06:41:13Z</time>
</trkpt>
<trkpt lat="46.991890000" lon="-72.179960000">
<ele>0</ele>
<time>2026-09-04T06:41:14Z</time>
</trkpt>
<trkpt lat="46.992020000" lon="-72.179880000">
<ele>0</ele>
<time>2026-09-04T06:41:15Z</time>
</trkpt>
<trkpt lat="46.992020000" lon="-72.179880000">
<ele>0</ele>
<time>2026-09-04T06:41:16Z</time>
</trkpt>
<trkpt lat="46.992610000" lon="-72.179560000">
<ele>0</ele>
<time>2026-09-04T06:41:17Z</time>
</trkpt>
<trkpt lat="46.993050000" lon="-72.179290000">
<ele>0</ele>
<time>2026-09-04T06:41:18Z</time>
</trkpt>
<trkpt lat="46.993720000" lon="-72.178830000">
<ele>0</ele>
<time>2026-09-04T06:41:19Z</time>
</trkpt>
<trkpt lat="46.994040000" lon="-72.178580000">
<ele>0</ele>
<time>2026-09-04T06:41:20Z</time>
</trkpt>
<trkpt lat="46.994510000" lon="-72.178250000">
<ele>0</ele>
<time>2026-09-04T06:41:21Z</time>
</trkpt>
<trkpt lat="46.994770000" lon="-72.178140000">
<ele>0</ele>
<time>2026-09-04T06:41:22Z</time>
</trkpt>
<trkpt lat="46.995600000" lon="-72.177560000">
<ele>0</ele>
<time>2026-09-04T06:41:23Z</time>
</trkpt>
<trkpt lat="46.996210000" lon="-72.177070000">
<ele>0</ele>
<time>2026-09-04T06:41:25Z</time>
</trkpt>
<trkpt lat="46.996720000" lon="-72.176670000">
<ele>0</ele>
<time>2026-09-04T06:41:26Z</time>
</trkpt>
<trkpt lat="46.996920000" lon="-72.176500000">
<ele>0</ele>
<time>2026-09-04T06:41:27Z</time>
</trkpt>
<trkpt lat="46.997000000" lon="-72.176740000">
<ele>0</ele>
<time>2026-09-04T06:41:28Z</time>
</trkpt>
<trkpt lat="46.997000000" lon="-72.176740000">
<ele>0</ele>
<time>2026-09-04T06:41:29Z</time>
</trkpt>
<trkpt lat="46.997320000" lon="-72.177790000">
<ele>0</ele>
<time>2026-09-04T06:41:30Z</time>
</trkpt>
<trkpt lat="46.997400000" lon="-72.177990000">
<ele>0</ele>
<time>2026-09-04T06:41:31Z</time>
</trkpt>
<trkpt lat="46.997520000" lon="-72.177930000">
<ele>0</ele>
<time>2026-09-04T06:41:32Z</time>
</trkpt>
<trkpt lat="46.997520000" lon="-72.177930000">
<ele>0</ele>
<time>2026-09-04T06:41:33Z</time>
</trkpt>
<trkpt lat="46.997400000" lon="-72.177990000">
<ele>0</ele>
<time>2026-09-04T06:41:34Z</time>
</trkpt>
<trkpt lat="46.997340000" lon="-72.177840000">
<ele>0</ele>
<time>2026-09-04T06:41:35Z</time>
</trkpt>
<trkpt lat="46.997300000" lon="-72.177730000">
<ele>0</ele>
<time>2026-09-04T06:41:36Z</time>
</trkpt>
<trkpt lat="46.997300000" lon="-72.177730000">
<ele>0</ele>
<time>2026-09-04T06:41:37Z</time>
</trkpt>
<trkpt lat="46.996920000" lon="-72.176500000">
<ele>0</ele>
<time>2026-09-04T06:41:38Z</time>
</trkpt>
<trkpt lat="46.996580000" lon="-72.176780000">
<ele>0</ele>
<time>2026-09-04T06:41:39Z</time>
</trkpt>
<trkpt lat="46.996580000" lon="-72.176780000">
<ele>0</ele>
<time>2026-09-04T06:41:40Z</time>
</trkpt>
<trkpt lat="46.995900000" lon="-72.177320000">
<ele>0</ele>
<time>2026-09-04T06:41:41Z</time>
</trkpt>
<trkpt lat="46.995260000" lon="-72.177800000">
<ele>0</ele>
<time>2026-09-04T06:41:42Z</time>
</trkpt>
<trkpt lat="46.994770000" lon="-72.178140000">
<ele>0</ele>
<time>2026-09-04T06:41:43Z</time>
</trkpt>
<trkpt lat="46.994510000" lon="-72.178250000">
<ele>0</ele>
<time>2026-09-04T06:41:44Z</time>
</trkpt>
<trkpt lat="46.994040000" lon="-72.178580000">
<ele>0</ele>
<time>2026-09-04T06:41:45Z</time>
</trkpt>
<trkpt lat="46.993720000" lon="-72.178830000">
<ele>0</ele>
<time>2026-09-04T06:41:46Z</time>
</trkpt>
<trkpt lat="46.992610000" lon="-72.179560000">
<ele>0</ele>
<time>2026-09-04T06:41:47Z</time>
</trkpt>
<trkpt lat="46.991890000" lon="-72.179960000">
<ele>0</ele>
<time>2026-09-04T06:41:48Z</time>
</trkpt>
<trkpt lat="46.991720000" lon="-72.180470000">
<ele>0</ele>
<time>2026-09-04T06:41:49Z</time>
</trkpt>
<trkpt lat="46.991640000" lon="-72.180660000">
<ele>0</ele>
<time>2026-09-04T06:41:50Z</time>
</trkpt>
<trkpt lat="46.991410000" lon="-72.180750000">
<ele>0</ele>
<time>2026-09-04T06:41:51Z</time>
</trkpt>
<trkpt lat="46.991000000" lon="-72.180660000">
<ele>0</ele>
<time>2026-09-04T06:41:52Z</time>
</trkpt>
<trkpt lat="46.989750000" lon="-72.180380000">
<ele>0</ele>
<time>2026-09-04T06:41:53Z</time>
</trkpt>
<trkpt lat="46.989220000" lon="-72.180260000">
<ele>0</ele>
<time>2026-09-04T06:41:54Z</time>
</trkpt>
<trkpt lat="46.988940000" lon="-72.180130000">
<ele>0</ele>
<time>2026-09-04T06:41:55Z</time>
</trkpt>
<trkpt lat="46.988110000" lon="-72.179910000">
<ele>0</ele>
<time>2026-09-04T06:41:56Z</time>
</trkpt>
<trkpt lat="46.987220000" lon="-72.179660000">
<ele>0</ele>
<time>2026-09-04T06:41:57Z</time>
</trkpt>
<trkpt lat="46.987080000" lon="-72.179640000">
<ele>0</ele>
<time>2026-09-04T06:41:58Z</time>
</trkpt>
<trkpt lat="46.986360000" lon="-72.179550000">
<ele>0</ele>
<time>2026-09-04T06:41:59Z</time>
</trkpt>
<trkpt lat="46.985280000" lon="-72.179600000">
<ele>0</ele>
<time>2026-09-04T06:42:00Z</time>
</trkpt>
<trkpt lat="46.984330000" lon="-72.179640000">
<ele>0</ele>
<time>2026-09-04T06:42:01Z</time>
</trkpt>
<trkpt lat="46.982550000" lon="-72.179740000">
<ele>0</ele>
<time>2026-09-04T06:42:02Z</time>
</trkpt>
<trkpt lat="46.982190000" lon="-72.179760000">
<ele>0</ele>
<time>2026-09-04T06:42:03Z</time>
</trkpt>
<trkpt lat="46.981300000" lon="-72.179710000">
<ele>0</ele>
<time>2026-09-04T06:42:04Z</time>
</trkpt>
<trkpt lat="46.980820000" lon="-72.179670000">
<ele>0</ele>
<time>2026-09-04T06:42:05Z</time>
</trkpt>
<trkpt lat="46.980550000" lon="-72.179590000">
<ele>0</ele>
<time>2026-09-04T06:42:06Z</time>
</trkpt>
<trkpt lat="46.980060000" lon="-72.179340000">
<ele>0</ele>
<time>2026-09-04T06:42:07Z</time>
</trkpt>
<trkpt lat="46.979630000" lon="-72.179050000">
<ele>0</ele>
<time>2026-09-04T06:42:08Z</time>
</trkpt>
<trkpt lat="46.979370000" lon="-72.178800000">
<ele>0</ele>
<time>2026-09-04T06:42:09Z</time>
</trkpt>
<trkpt lat="46.979140000" lon="-72.178480000">
<ele>0</ele>
<time>2026-09-04T06:42:10Z</time>
</trkpt>
<trkpt lat="46.979000000" lon="-72.178290000">
<ele>0</ele>
<time>2026-09-04T06:42:11Z</time>
</trkpt>
<trkpt lat="46.978850000" lon="-72.178040000">
<ele>0</ele>
<time>2026-09-04T06:42:12Z</time>
</trkpt>
<trkpt lat="46.978760000" lon="-72.178070000">
<ele>0</ele>
<time>2026-09-04T06:42:13Z</time>
</trkpt>
<trkpt lat="46.978590000" lon="-72.178110000">
<ele>0</ele>
<time>2026-09-04T06:42:14Z</time>
</trkpt>
<trkpt lat="46.978500000" lon="-72.178130000">
<ele>0</ele>
<time>2026-09-04T06:42:15Z</time>
</trkpt>
<trkpt lat="46.978350000" lon="-72.178120000">
<ele>0</ele>
<time>2026-09-04T06:42:16Z</time>
</trkpt>
<trkpt lat="46.977970000" lon="-72.177950000">
<ele>0</ele>
<time>2026-09-04T06:42:17Z</time>
</trkpt>
<trkpt lat="46.977480000" lon="-72.177690000">
<ele>0</ele>
<time>2026-09-04T06:42:18Z</time>
</trkpt>
<trkpt lat="46.976990000" lon="-72.177420000">
<ele>0</ele>
<time>2026-09-04T06:42:19Z</time>
</trkpt>
<trkpt lat="46.976840000" lon="-72.177360000">
<ele>0</ele>
<time>2026-09-04T06:42:20Z</time>
</trkpt>
<trkpt lat="46.976700000" lon="-72.177320000">
<ele>0</ele>
<time>2026-09-04T06:42:21Z</time>
</trkpt>
<trkpt lat="46.976510000" lon="-72.177310000">
<ele>0</ele>
<time>2026-09-04T06:42:22Z</time>
</trkpt>
<trkpt lat="46.976430000" lon="-72.177320000">
<ele>0</ele>
<time>2026-09-04T06:42:23Z</time>
</trkpt>
<trkpt lat="46.976250000" lon="-72.177380000">
<ele>0</ele>
<time>2026-09-04T06:42:24Z</time>
</trkpt>
<trkpt lat="46.976090000" lon="-72.177460000">
<ele>0</ele>
<time>2026-09-04T06:42:25Z</time>
</trkpt>
<trkpt lat="46.975920000" lon="-72.177610000">
<ele>0</ele>
<time>2026-09-04T06:42:26Z</time>
</trkpt>
<trkpt lat="46.975650000" lon="-72.177990000">
<ele>0</ele>
<time>2026-09-04T06:42:27Z</time>
</trkpt>
<trkpt lat="46.975410000" lon="-72.178430000">
<ele>0</ele>
<time>2026-09-04T06:42:28Z</time>
</trkpt>
<trkpt lat="46.975270000" lon="-72.178760000">
<ele>0</ele>
<time>2026-09-04T06:42:29Z</time>
</trkpt>
<trkpt lat="46.975000000" lon="-72.179520000">
<ele>0</ele>
<time>2026-09-04T06:42:30Z</time>
</trkpt>
<trkpt lat="46.974840000" lon="-72.179990000">
<ele>0</ele>
<time>2026-09-04T06:42:31Z</time>
</trkpt>
<trkpt lat="46.974670000" lon="-72.180420000">
<ele>0</ele>
<time>2026-09-04T06:42:32Z</time>
</trkpt>
<trkpt lat="46.974480000" lon="-72.181040000">
<ele>0</ele>
<time>2026-09-04T06:42:33Z</time>
</trkpt>
<trkpt lat="46.974360000" lon="-72.181920000">
<ele>0</ele>
<time>2026-09-04T06:42:34Z</time>
</trkpt>
<trkpt lat="46.974280000" lon="-72.182540000">
<ele>0</ele>
<time>2026-09-04T06:42:35Z</time>
</trkpt>
<trkpt lat="46.974060000" lon="-72.183820000">
<ele>0</ele>
<time>2026-09-04T06:42:36Z</time>
</trkpt>
<trkpt lat="46.973970000" lon="-72.184290000">
<ele>0</ele>
<time>2026-09-04T06:42:37Z</time>
</trkpt>
<trkpt lat="46.973780000" lon="-72.184990000">
<ele>0</ele>
<time>2026-09-04T06:42:38Z</time>
</trkpt>
<trkpt lat="46.973560000" lon="-72.185680000">
<ele>0</ele>
<time>2026-09-04T06:42:39Z</time>
</trkpt>
<trkpt lat="46.973360000" lon="-72.186120000">
<ele>0</ele>
<time>2026-09-04T06:42:40Z</time>
</trkpt>
<trkpt lat="46.972820000" lon="-72.187170000">
<ele>0</ele>
<time>2026-09-04T06:42:41Z</time>
</trkpt>
<trkpt lat="46.972440000" lon="-72.187740000">
<ele>0</ele>
<time>2026-09-04T06:42:42Z</time>
</trkpt>
<trkpt lat="46.971960000" lon="-72.188350000">
<ele>0</ele>
<time>2026-09-04T06:42:43Z</time>
</trkpt>
<trkpt lat="46.971570000" lon="-72.188760000">
<ele>0</ele>
<time>2026-09-04T06:42:44Z</time>
</trkpt>
<trkpt lat="46.971370000" lon="-72.188910000">
<ele>0</ele>
<time>2026-09-04T06:42:45Z</time>
</trkpt>
<trkpt lat="46.971070000" lon="-72.189090000">
<ele>0</ele>
<time>2026-09-04T06:42:46Z</time>
</trkpt>
<trkpt lat="46.970810000" lon="-72.189190000">
<ele>0</ele>
<time>2026-09-04T06:42:47Z</time>
</trkpt>
<trkpt lat="46.970480000" lon="-72.189340000">
<ele>0</ele>
<time>2026-09-04T06:42:48Z</time>
</trkpt>
<trkpt lat="46.970120000" lon="-72.189470000">
<ele>0</ele>
<time>2026-09-04T06:42:49Z</time>
</trkpt>
<trkpt lat="46.969600000" lon="-72.189660000">
<ele>0</ele>
<time>2026-09-04T06:42:50Z</time>
</trkpt>
<trkpt lat="46.968480000" lon="-72.190060000">
<ele>0</ele>
<time>2026-09-04T06:42:51Z</time>
</trkpt>
<trkpt lat="46.968020000" lon="-72.190210000">
<ele>0</ele>
<time>2026-09-04T06:42:52Z</time>
</trkpt>
<trkpt lat="46.967800000" lon="-72.190220000">
<ele>0</ele>
<time>2026-09-04T06:42:53Z</time>
</trkpt>
<trkpt lat="46.967490000" lon="-72.190130000">
<ele>0</ele>
<time>2026-09-04T06:42:54Z</time>
</trkpt>
<trkpt lat="46.966970000" lon="-72.189860000">
<ele>0</ele>
<time>2026-09-04T06:42:55Z</time>
</trkpt>
<trkpt lat="46.966640000" lon="-72.189710000">
<ele>0</ele>
<time>2026-09-04T06:42:56Z</time>
</trkpt>
<trkpt lat="46.966460000" lon="-72.189660000">
<ele>0</ele>
<time>2026-09-04T06:42:57Z</time>
</trkpt>
<trkpt lat="46.966280000" lon="-72.189610000">
<ele>0</ele>
<time>2026-09-04T06:42:58Z</time>
</trkpt>
<trkpt lat="46.965740000" lon="-72.189510000">
<ele>0</ele>
<time>2026-09-04T06:42:59Z</time>
</trkpt>
<trkpt lat="46.965380000" lon="-72.189500000">
<ele>0</ele>
<time>2026-09-04T06:43:00Z</time>
</trkpt>
<trkpt lat="46.965020000" lon="-72.189540000">
<ele>0</ele>
<time>2026-09-04T06:43:01Z</time>
</trkpt>
<trkpt lat="46.964670000" lon="-72.189620000">
<ele>0</ele>
<time>2026-09-04T06:43:02Z</time>
</trkpt>
<trkpt lat="46.964480000" lon="-72.189690000">
<ele>0</ele>
<time>2026-09-04T06:43:03Z</time>
</trkpt>
<trkpt lat="46.964330000" lon="-72.189780000">
<ele>0</ele>
<time>2026-09-04T06:43:04Z</time>
</trkpt>
<trkpt lat="46.964090000" lon="-72.189920000">
<ele>0</ele>
<time>2026-09-04T06:43:05Z</time>
</trkpt>
<trkpt lat="46.963830000" lon="-72.190140000">
<ele>0</ele>
<time>2026-09-04T06:43:06Z</time>
</trkpt>
<trkpt lat="46.963530000" lon="-72.190530000">
<ele>0</ele>
<time>2026-09-04T06:43:07Z</time>
</trkpt>
<trkpt lat="46.963290000" lon="-72.190910000">
<ele>0</ele>
<time>2026-09-04T06:43:08Z</time>
</trkpt>
<trkpt lat="46.962960000" lon="-72.191490000">
<ele>0</ele>
<time>2026-09-04T06:43:09Z</time>
</trkpt>
<trkpt lat="46.962710000" lon="-72.191990000">
<ele>0</ele>
<time>2026-09-04T06:43:10Z</time>
</trkpt>
<trkpt lat="46.962490000" lon="-72.192420000">
<ele>0</ele>
<time>2026-09-04T06:43:11Z</time>
</trkpt>
<trkpt lat="46.962490000" lon="-72.192420000">
<ele>0</ele>
<time>2026-09-04T06:43:12Z</time>
</trkpt>
<trkpt lat="46.961870000" lon="-72.193550000">
<ele>0</ele>
<time>2026-09-04T06:43:13Z</time>
</trkpt>
<trkpt lat="46.961590000" lon="-72.194060000">
<ele>0</ele>
<time>2026-09-04T06:43:14Z</time>
</trkpt>
<trkpt lat="46.961340000" lon="-72.194650000">
<ele>0</ele>
<time>2026-09-04T06:43:15Z</time>
</trkpt>
<trkpt lat="46.961210000" lon="-72.195130000">
<ele>0</ele>
<time>2026-09-04T06:43:16Z</time>
</trkpt>
<trkpt lat="46.961140000" lon="-72.195650000">
<ele>0</ele>
<time>2026-09-04T06:43:17Z</time>
</trkpt>
<trkpt lat="46.961070000" lon="-72.196950000">
<ele>0</ele>
<time>2026-09-04T06:43:18Z</time>
</trkpt>
<trkpt lat="46.961090000" lon="-72.197520000">
<ele>0</ele>
<time>2026-09-04T06:43:19Z</time>
</trkpt>
<trkpt lat="46.961190000" lon="-72.198890000">
<ele>0</ele>
<time>2026-09-04T06:43:20Z</time>
</trkpt>
<trkpt lat="46.961290000" lon="-72.199620000">
<ele>0</ele>
<time>2026-09-04T06:43:21Z</time>
</trkpt>
<trkpt lat="46.961390000" lon="-72.200300000">
<ele>0</ele>
<time>2026-09-04T06:43:22Z</time>
</trkpt>
<trkpt lat="46.961460000" lon="-72.200820000">
<ele>0</ele>
<time>2026-09-04T06:43:23Z</time>
</trkpt>
<trkpt lat="46.961500000" lon="-72.201280000">
<ele>0</ele>
<time>2026-09-04T06:43:24Z</time>
</trkpt>
<trkpt lat="46.961500000" lon="-72.201480000">
<ele>0</ele>
<time>2026-09-04T06:43:25Z</time>
</trkpt>
<trkpt lat="46.961460000" lon="-72.201810000">
<ele>0</ele>
<time>2026-09-04T06:43:26Z</time>
</trkpt>
<trkpt lat="46.961380000" lon="-72.202110000">
<ele>0</ele>
<time>2026-09-04T06:43:27Z</time>
</trkpt>
<trkpt lat="46.961250000" lon="-72.202410000">
<ele>0</ele>
<time>2026-09-04T06:43:28Z</time>
</trkpt>
<trkpt lat="46.960980000" lon="-72.202910000">
<ele>0</ele>
<time>2026-09-04T06:43:29Z</time>
</trkpt>
<trkpt lat="46.960780000" lon="-72.203190000">
<ele>0</ele>
<time>2026-09-04T06:43:30Z</time>
</trkpt>
<trkpt lat="46.960630000" lon="-72.203350000">
<ele>0</ele>
<time>2026-09-04T06:43:31Z</time>
</trkpt>
<trkpt lat="46.960480000" lon="-72.203470000">
<ele>0</ele>
<time>2026-09-04T06:43:32Z</time>
</trkpt>
<trkpt lat="46.960310000" lon="-72.203580000">
<ele>0</ele>
<time>2026-09-04T06:43:33Z</time>
</trkpt>
<trkpt lat="46.960170000" lon="-72.203650000">
<ele>0</ele>
<time>2026-09-04T06:43:34Z</time>
</trkpt>
<trkpt lat="46.959630000" lon="-72.203890000">
<ele>0</ele>
<time>2026-09-04T06:43:35Z</time>
</trkpt>
<trkpt lat="46.958600000" lon="-72.204260000">
<ele>0</ele>
<time>2026-09-04T06:43:36Z</time>
</trkpt>
<trkpt lat="46.958370000" lon="-72.204360000">
<ele>0</ele>
<time>2026-09-04T06:43:37Z</time>
</trkpt>
<trkpt lat="46.958230000" lon="-72.204460000">
<ele>0</ele>
<time>2026-09-04T06:43:38Z</time>
</trkpt>
<trkpt lat="46.958050000" lon="-72.204630000">
<ele>0</ele>
<time>2026-09-04T06:43:39Z</time>
</trkpt>
<trkpt lat="46.957890000" lon="-72.204820000">
<ele>0</ele>
<time>2026-09-04T06:43:40Z</time>
</trkpt>
<trkpt lat="46.957640000" lon="-72.205240000">
<ele>0</ele>
<time>2026-09-04T06:43:41Z</time>
</trkpt>
<trkpt lat="46.957420000" lon="-72.205660000">
<ele>0</ele>
<time>2026-09-04T06:43:42Z</time>
</trkpt>
<trkpt lat="46.957060000" lon="-72.206320000">
<ele>0</ele>
<time>2026-09-04T06:43:43Z</time>
</trkpt>
<trkpt lat="46.956890000" lon="-72.206680000">
<ele>0</ele>
<time>2026-09-04T06:43:44Z</time>
</trkpt>
<trkpt lat="46.956600000" lon="-72.207240000">
<ele>0</ele>
<time>2026-09-04T06:43:45Z</time>
</trkpt>
<trkpt lat="46.956300000" lon="-72.207900000">
<ele>0</ele>
<time>2026-09-04T06:43:46Z</time>
</trkpt>
<trkpt lat="46.955990000" lon="-72.208500000">
<ele>0</ele>
<time>2026-09-04T06:43:47Z</time>
</trkpt>
<trkpt lat="46.955540000" lon="-72.209220000">
<ele>0</ele>
<time>2026-09-04T06:43:48Z</time>
</trkpt>
<trkpt lat="46.955390000" lon="-72.209580000">
<ele>0</ele>
<time>2026-09-04T06:43:49Z</time>
</trkpt>
<trkpt lat="46.955130000" lon="-72.210600000">
<ele>0</ele>
<time>2026-09-04T06:43:50Z</time>
</trkpt>
<trkpt lat="46.954920000" lon="-72.211480000">
<ele>0</ele>
<time>2026-09-04T06:43:51Z</time>
</trkpt>
<trkpt lat="46.954710000" lon="-72.212340000">
<ele>0</ele>
<time>2026-09-04T06:43:52Z</time>
</trkpt>
<trkpt lat="46.954570000" lon="-72.212880000">
<ele>0</ele>
<time>2026-09-04T06:43:53Z</time>
</trkpt>
<trkpt lat="46.954500000" lon="-72.213050000">
<ele>0</ele>
<time>2026-09-04T06:43:54Z</time>
</trkpt>
<trkpt lat="46.954220000" lon="-72.213650000">
<ele>0</ele>
<time>2026-09-04T06:43:55Z</time>
</trkpt>
<trkpt lat="46.953810000" lon="-72.214510000">
<ele>0</ele>
<time>2026-09-04T06:43:56Z</time>
</trkpt>
<trkpt lat="46.953250000" lon="-72.215660000">
<ele>0</ele>
<time>2026-09-04T06:43:57Z</time>
</trkpt>
<trkpt lat="46.953060000" lon="-72.216150000">
<ele>0</ele>
<time>2026-09-04T06:43:58Z</time>
</trkpt>
<trkpt lat="46.952980000" lon="-72.216530000">
<ele>0</ele>
<time>2026-09-04T06:43:59Z</time>
</trkpt>
<trkpt lat="46.952950000" lon="-72.216800000">
<ele>0</ele>
<time>2026-09-04T06:44:00Z</time>
</trkpt>
<trkpt lat="46.952920000" lon="-72.217670000">
<ele>0</ele>
<time>2026-09-04T06:44:01Z</time>
</trkpt>
<trkpt lat="46.952850000" lon="-72.218430000">
<ele>0</ele>
<time>2026-09-04T06:44:02Z</time>
</trkpt>
<trkpt lat="46.952830000" lon="-72.219080000">
<ele>0</ele>
<time>2026-09-04T06:44:03Z</time>
</trkpt>
<trkpt lat="46.952850000" lon="-72.219340000">
<ele>0</ele>
<time>2026-09-04T06:44:04Z</time>
</trkpt>
<trkpt lat="46.953010000" lon="-72.220730000">
<ele>0</ele>
<time>2026-09-04T06:44:05Z</time>
</trkpt>
<trkpt lat="46.953140000" lon="-72.221470000">
<ele>0</ele>
<time>2026-09-04T06:44:06Z</time>
</trkpt>
<trkpt lat="46.953250000" lon="-72.221980000">
<ele>0</ele>
<time>2026-09-04T06:44:07Z</time>
</trkpt>
<trkpt lat="46.953420000" lon="-72.222600000">
<ele>0</ele>
<time>2026-09-04T06:44:08Z</time>
</trkpt>
<trkpt lat="46.953590000" lon="-72.223050000">
<ele>0</ele>
<time>2026-09-04T06:44:09Z</time>
</trkpt>
<trkpt lat="46.953760000" lon="-72.223360000">
<ele>0</ele>
<time>2026-09-04T06:44:10Z</time>
</trkpt>
<trkpt lat="46.954070000" lon="-72.223810000">
<ele>0</ele>
<time>2026-09-04T06:44:11Z</time>
</trkpt>
<trkpt lat="46.954210000" lon="-72.223960000">
<ele>0</ele>
<time>2026-09-04T06:44:12Z</time>
</trkpt>
<trkpt lat="46.954730000" lon="-72.224420000">
<ele>0</ele>
<time>2026-09-04T06:44:13Z</time>
</trkpt>
<trkpt lat="46.955050000" lon="-72.224770000">
<ele>0</ele>
<time>2026-09-04T06:44:14Z</time>
</trkpt>
<trkpt lat="46.955600000" lon="-72.225460000">
<ele>0</ele>
<time>2026-09-04T06:44:15Z</time>
</trkpt>
<trkpt lat="46.956400000" lon="-72.226520000">
<ele>0</ele>
<time>2026-09-04T06:44:16Z</time>
</trkpt>
<trkpt lat="46.956660000" lon="-72.226880000">
<ele>0</ele>
<time>2026-09-04T06:44:17Z</time>
</trkpt>
<trkpt lat="46.957030000" lon="-72.227450000">
<ele>0</ele>
<time>2026-09-04T06:44:18Z</time>
</trkpt>
<trkpt lat="46.957140000" lon="-72.227660000">
<ele>0</ele>
<time>2026-09-04T06:44:19Z</time>
</trkpt>
<trkpt lat="46.957330000" lon="-72.228110000">
<ele>0</ele>
<time>2026-09-04T06:44:20Z</time>
</trkpt>
<trkpt lat="46.957500000" lon="-72.228580000">
<ele>0</ele>
<time>2026-09-04T06:44:21Z</time>
</trkpt>
<trkpt lat="46.957620000" lon="-72.229070000">
<ele>0</ele>
<time>2026-09-04T06:44:22Z</time>
</trkpt>
<trkpt lat="46.957830000" lon="-72.230030000">
<ele>0</ele>
<time>2026-09-04T06:44:23Z</time>
</trkpt>
<trkpt lat="46.957970000" lon="-72.230570000">
<ele>0</ele>
<time>2026-09-04T06:44:24Z</time>
</trkpt>
<trkpt lat="46.958440000" lon="-72.231990000">
<ele>0</ele>
<time>2026-09-04T06:44:25Z</time>
</trkpt>
<trkpt lat="46.958630000" lon="-72.232620000">
<ele>0</ele>
<time>2026-09-04T06:44:26Z</time>
</trkpt>
<trkpt lat="46.958690000" lon="-72.232950000">
<ele>0</ele>
<time>2026-09-04T06:44:27Z</time>
</trkpt>
<trkpt lat="46.958720000" lon="-72.233480000">
<ele>0</ele>
<time>2026-09-04T06:44:28Z</time>
</trkpt>
<trkpt lat="46.958780000" lon="-72.235040000">
<ele>0</ele>
<time>2026-09-04T06:44:29Z</time>
</trkpt>
<trkpt lat="46.958800000" lon="-72.235600000">
<ele>0</ele>
<time>2026-09-04T06:44:30Z</time>
</trkpt>
<trkpt lat="46.958810000" lon="-72.235860000">
<ele>0</ele>
<time>2026-09-04T06:44:31Z</time>
</trkpt>
<trkpt lat="46.958790000" lon="-72.236120000">
<ele>0</ele>
<time>2026-09-04T06:44:32Z</time>
</trkpt>
<trkpt lat="46.958720000" lon="-72.236570000">
<ele>0</ele>
<time>2026-09-04T06:44:33Z</time>
</trkpt>
<trkpt lat="46.958550000" lon="-72.237110000">
<ele>0</ele>
<time>2026-09-04T06:44:34Z</time>
</trkpt>
<trkpt lat="46.958380000" lon="-72.237580000">
<ele>0</ele>
<time>2026-09-04T06:44:35Z</time>
</trkpt>
<trkpt lat="46.958190000" lon="-72.238320000">
<ele>0</ele>
<time>2026-09-04T06:44:36Z</time>
</trkpt>
<trkpt lat="46.958090000" lon="-72.238820000">
<ele>0</ele>
<time>2026-09-04T06:44:37Z</time>
</trkpt>
<trkpt lat="46.957850000" lon="-72.239810000">
<ele>0</ele>
<time>2026-09-04T06:44:38Z</time>
</trkpt>
<trkpt lat="46.957680000" lon="-72.240560000">
<ele>0</ele>
<time>2026-09-04T06:44:39Z</time>
</trkpt>
<trkpt lat="46.957480000" lon="-72.241210000">
<ele>0</ele>
<time>2026-09-04T06:44:40Z</time>
</trkpt>
<trkpt lat="46.957270000" lon="-72.241740000">
<ele>0</ele>
<time>2026-09-04T06:44:41Z</time>
</trkpt>
<trkpt lat="46.957070000" lon="-72.242170000">
<ele>0</ele>
<time>2026-09-04T06:44:42Z</time>
</trkpt>
<trkpt lat="46.956610000" lon="-72.242980000">
<ele>0</ele>
<time>2026-09-04T06:44:43Z</time>
</trkpt>
<trkpt lat="46.956270000" lon="-72.243530000">
<ele>0</ele>
<time>2026-09-04T06:44:44Z</time>
</trkpt>
<trkpt lat="46.955980000" lon="-72.243960000">
<ele>0</ele>
<time>2026-09-04T06:44:45Z</time>
</trkpt>
<trkpt lat="46.955650000" lon="-72.244310000">
<ele>0</ele>
<time>2026-09-04T06:44:46Z</time>
</trkpt>
<trkpt lat="46.955230000" lon="-72.244640000">
<ele>0</ele>
<time>2026-09-04T06:44:47Z</time>
</trkpt>
<trkpt lat="46.954730000" lon="-72.244930000">
<ele>0</ele>
<time>2026-09-04T06:44:48Z</time>
</trkpt>
<trkpt lat="46.954340000" lon="-72.245060000">
<ele>0</ele>
<time>2026-09-04T06:44:49Z</time>
</trkpt>
<trkpt lat="46.953950000" lon="-72.245170000">
<ele>0</ele>
<time>2026-09-04T06:44:50Z</time>
</trkpt>
<trkpt lat="46.953800000" lon="-72.245220000">
<ele>0</ele>
<time>2026-09-04T06:44:51Z</time>
</trkpt>
<trkpt lat="46.953610000" lon="-72.245320000">
<ele>0</ele>
<time>2026-09-04T06:44:52Z</time>
</trkpt>
<trkpt lat="46.953350000" lon="-72.245500000">
<ele>0</ele>
<time>2026-09-04T06:44:53Z</time>
</trkpt>
<trkpt lat="46.952870000" lon="-72.245830000">
<ele>0</ele>
<time>2026-09-04T06:44:54Z</time>
</trkpt>
<trkpt lat="46.952400000" lon="-72.246090000">
<ele>0</ele>
<time>2026-09-04T06:44:55Z</time>
</trkpt>
<trkpt lat="46.951500000" lon="-72.246630000">
<ele>0</ele>
<time>2026-09-04T06:44:56Z</time>
</trkpt>
<trkpt lat="46.951000000" lon="-72.246870000">
<ele>0</ele>
<time>2026-09-04T06:44:57Z</time>
</trkpt>
<trkpt lat="46.950310000" lon="-72.247080000">
<ele>0</ele>
<time>2026-09-04T06:44:58Z</time>
</trkpt>
<trkpt lat="46.949940000" lon="-72.247200000">
<ele>0</ele>
<time>2026-09-04T06:44:59Z</time>
</trkpt>
<trkpt lat="46.949760000" lon="-72.247290000">
<ele>0</ele>
<time>2026-09-04T06:45:00Z</time>
</trkpt>
<trkpt lat="46.949540000" lon="-72.247420000">
<ele>0</ele>
<time>2026-09-04T06:45:01Z</time>
</trkpt>
<trkpt lat="46.949300000" lon="-72.247620000">
<ele>0</ele>
<time>2026-09-04T06:45:02Z</time>
</trkpt>
<trkpt lat="46.949010000" lon="-72.247940000">
<ele>0</ele>
<time>2026-09-04T06:45:03Z</time>
</trkpt>
<trkpt lat="46.948820000" lon="-72.248200000">
<ele>0</ele>
<time>2026-09-04T06:45:04Z</time>
</trkpt>
<trkpt lat="46.948670000" lon="-72.248460000">
<ele>0</ele>
<time>2026-09-04T06:45:05Z</time>
</trkpt>
<trkpt lat="46.948570000" lon="-72.248680000">
<ele>0</ele>
<time>2026-09-04T06:45:06Z</time>
</trkpt>
<trkpt lat="46.948460000" lon="-72.249010000">
<ele>0</ele>
<time>2026-09-04T06:45:07Z</time>
</trkpt>
<trkpt lat="46.948360000" lon="-72.249460000">
<ele>0</ele>
<time>2026-09-04T06:45:08Z</time>
</trkpt>
<trkpt lat="46.948300000" lon="-72.249980000">
<ele>0</ele>
<time>2026-09-04T06:45:09Z</time>
</trkpt>
<trkpt lat="46.948300000" lon="-72.250510000">
<ele>0</ele>
<time>2026-09-04T06:45:10Z</time>
</trkpt>
<trkpt lat="46.948280000" lon="-72.251030000">
<ele>0</ele>
<time>2026-09-04T06:45:11Z</time>
</trkpt>
<trkpt lat="46.948180000" lon="-72.251540000">
<ele>0</ele>
<time>2026-09-04T06:45:12Z</time>
</trkpt>
<trkpt lat="46.948050000" lon="-72.252030000">
<ele>0</ele>
<time>2026-09-04T06:45:13Z</time>
</trkpt>
<trkpt lat="46.947950000" lon="-72.252320000">
<ele>0</ele>
<time>2026-09-04T06:45:14Z</time>
</trkpt>
<trkpt lat="46.947750000" lon="-72.252750000">
<ele>0</ele>
<time>2026-09-04T06:45:15Z</time>
</trkpt>
<trkpt lat="46.947440000" lon="-72.253140000">
<ele>0</ele>
<time>2026-09-04T06:45:16Z</time>
</trkpt>
<trkpt lat="46.947200000" lon="-72.253370000">
<ele>0</ele>
<time>2026-09-04T06:45:17Z</time>
</trkpt>
<trkpt lat="46.946660000" lon="-72.253700000">
<ele>0</ele>
<time>2026-09-04T06:45:18Z</time>
</trkpt>
<trkpt lat="46.946360000" lon="-72.253900000">
<ele>0</ele>
<time>2026-09-04T06:45:19Z</time>
</trkpt>
<trkpt lat="46.946230000" lon="-72.254010000">
<ele>0</ele>
<time>2026-09-04T06:45:20Z</time>
</trkpt>
<trkpt lat="46.946090000" lon="-72.254170000">
<ele>0</ele>
<time>2026-09-04T06:45:21Z</time>
</trkpt>
<trkpt lat="46.945870000" lon="-72.254490000">
<ele>0</ele>
<time>2026-09-04T06:45:22Z</time>
</trkpt>
<trkpt lat="46.945570000" lon="-72.254890000">
<ele>0</ele>
<time>2026-09-04T06:45:23Z</time>
</trkpt>
<trkpt lat="46.944990000" lon="-72.255530000">
<ele>0</ele>
<time>2026-09-04T06:45:24Z</time>
</trkpt>
<trkpt lat="46.944640000" lon="-72.255960000">
<ele>0</ele>
<time>2026-09-04T06:45:25Z</time>
</trkpt>
<trkpt lat="46.944120000" lon="-72.256560000">
<ele>0</ele>
<time>2026-09-04T06:45:26Z</time>
</trkpt>
<trkpt lat="46.943900000" lon="-72.256770000">
<ele>0</ele>
<time>2026-09-04T06:45:27Z</time>
</trkpt>
<trkpt lat="46.943720000" lon="-72.256890000">
<ele>0</ele>
<time>2026-09-04T06:45:28Z</time>
</trkpt>
<trkpt lat="46.943520000" lon="-72.257000000">
<ele>0</ele>
<time>2026-09-04T06:45:29Z</time>
</trkpt>
<trkpt lat="46.943340000" lon="-72.257080000">
<ele>0</ele>
<time>2026-09-04T06:45:30Z</time>
</trkpt>
<trkpt lat="46.942900000" lon="-72.257230000">
<ele>0</ele>
<time>2026-09-04T06:45:31Z</time>
</trkpt>
<trkpt lat="46.942460000" lon="-72.257310000">
<ele>0</ele>
<time>2026-09-04T06:45:32Z</time>
</trkpt>
<trkpt lat="46.942000000" lon="-72.257420000">
<ele>0</ele>
<time>2026-09-04T06:45:33Z</time>
</trkpt>
<trkpt lat="46.941580000" lon="-72.257590000">
<ele>0</ele>
<time>2026-09-04T06:45:34Z</time>
</trkpt>
<trkpt lat="46.941320000" lon="-72.257710000">
<ele>0</ele>
<time>2026-09-04T06:45:35Z</time>
</trkpt>
<trkpt lat="46.940900000" lon="-72.257940000">
<ele>0</ele>
<time>2026-09-04T06:45:36Z</time>
</trkpt>
<trkpt lat="46.940420000" lon="-72.258280000">
<ele>0</ele>
<time>2026-09-04T06:45:37Z</time>
</trkpt>
<trkpt lat="46.940120000" lon="-72.258560000">
<ele>0</ele>
<time>2026-09-04T06:45:38Z</time>
</trkpt>
<trkpt lat="46.939780000" lon="-72.258980000">
<ele>0</ele>
<time>2026-09-04T06:45:39Z</time>
</trkpt>
<trkpt lat="46.939460000" lon="-72.259470000">
<ele>0</ele>
<time>2026-09-04T06:45:40Z</time>
</trkpt>
<trkpt lat="46.939170000" lon="-72.259960000">
<ele>0</ele>
<time>2026-09-04T06:45:41Z</time>
</trkpt>
<trkpt lat="46.939010000" lon="-72.260290000">
<ele>0</ele>
<time>2026-09-04T06:45:42Z</time>
</trkpt>
<trkpt lat="46.938850000" lon="-72.260690000">
<ele>0</ele>
<time>2026-09-04T06:45:43Z</time>
</trkpt>
<trkpt lat="46.938800000" lon="-72.260860000">
<ele>0</ele>
<time>2026-09-04T06:45:44Z</time>
</trkpt>
<trkpt lat="46.938710000" lon="-72.261240000">
<ele>0</ele>
<time>2026-09-04T06:45:45Z</time>
</trkpt>
<trkpt lat="46.938520000" lon="-72.262520000">
<ele>0</ele>
<time>2026-09-04T06:45:46Z</time>
</trkpt>
<trkpt lat="46.938360000" lon="-72.263380000">
<ele>0</ele>
<time>2026-09-04T06:45:47Z</time>
</trkpt>
<trkpt lat="46.938150000" lon="-72.264180000">
<ele>0</ele>
<time>2026-09-04T06:45:48Z</time>
</trkpt>
<trkpt lat="46.937770000" lon="-72.265240000">
<ele>0</ele>
<time>2026-09-04T06:45:49Z</time>
</trkpt>
<trkpt lat="46.937320000" lon="-72.266380000">
<ele>0</ele>
<time>2026-09-04T06:45:50Z</time>
</trkpt>
<trkpt lat="46.936670000" lon="-72.267880000">
<ele>0</ele>
<time>2026-09-04T06:45:51Z</time>
</trkpt>
<trkpt lat="46.936500000" lon="-72.268410000">
<ele>0</ele>
<time>2026-09-04T06:45:52Z</time>
</trkpt>
<trkpt lat="46.936390000" lon="-72.268910000">
<ele>0</ele>
<time>2026-09-04T06:45:53Z</time>
</trkpt>
<trkpt lat="46.936350000" lon="-72.269170000">
<ele>0</ele>
<time>2026-09-04T06:45:54Z</time>
</trkpt>
<trkpt lat="46.936310000" lon="-72.269430000">
<ele>0</ele>
<time>2026-09-04T06:45:55Z</time>
</trkpt>
<trkpt lat="46.936290000" lon="-72.269950000">
<ele>0</ele>
<time>2026-09-04T06:45:56Z</time>
</trkpt>
<trkpt lat="46.936280000" lon="-72.270750000">
<ele>0</ele>
<time>2026-09-04T06:45:57Z</time>
</trkpt>
<trkpt lat="46.936270000" lon="-72.272060000">
<ele>0</ele>
<time>2026-09-04T06:45:58Z</time>
</trkpt>
<trkpt lat="46.936280000" lon="-72.272590000">
<ele>0</ele>
<time>2026-09-04T06:45:59Z</time>
</trkpt>
<trkpt lat="46.936310000" lon="-72.272850000">
<ele>0</ele>
<time>2026-09-04T06:46:00Z</time>
</trkpt>
<trkpt lat="46.936340000" lon="-72.273110000">
<ele>0</ele>
<time>2026-09-04T06:46:01Z</time>
</trkpt>
<trkpt lat="46.936410000" lon="-72.273470000">
<ele>0</ele>
<time>2026-09-04T06:46:02Z</time>
</trkpt>
<trkpt lat="46.936570000" lon="-72.274070000">
<ele>0</ele>
<time>2026-09-04T06:46:03Z</time>
</trkpt>
<trkpt lat="46.936620000" lon="-72.274360000">
<ele>0</ele>
<time>2026-09-04T06:46:04Z</time>
</trkpt>
<trkpt lat="46.936640000" lon="-72.274680000">
<ele>0</ele>
<time>2026-09-04T06:46:05Z</time>
</trkpt>
<trkpt lat="46.936570000" lon="-72.275360000">
<ele>0</ele>
<time>2026-09-04T06:46:06Z</time>
</trkpt>
<trkpt lat="46.936510000" lon="-72.275820000">
<ele>0</ele>
<time>2026-09-04T06:46:07Z</time>
</trkpt>
<trkpt lat="46.936420000" lon="-72.276290000">
<ele>0</ele>
<time>2026-09-04T06:46:08Z</time>
</trkpt>
<trkpt lat="46.936280000" lon="-72.276780000">
<ele>0</ele>
<time>2026-09-04T06:46:09Z</time>
</trkpt>
<trkpt lat="46.935630000" lon="-72.278520000">
<ele>0</ele>
<time>2026-09-04T06:46:10Z</time>
</trkpt>
<trkpt lat="46.935110000" lon="-72.279900000">
<ele>0</ele>
<time>2026-09-04T06:46:11Z</time>
</trkpt>
<trkpt lat="46.934760000" lon="-72.280810000">
<ele>0</ele>
<time>2026-09-04T06:46:12Z</time>
</trkpt>
<trkpt lat="46.934690000" lon="-72.281150000">
<ele>0</ele>
<time>2026-09-04T06:46:13Z</time>
</trkpt>
<trkpt lat="46.934620000" lon="-72.281800000">
<ele>0</ele>
<time>2026-09-04T06:46:14Z</time>
</trkpt>
<trkpt lat="46.934560000" lon="-72.282890000">
<ele>0</ele>
<time>2026-09-04T06:46:15Z</time>
</trkpt>
<trkpt lat="46.934520000" lon="-72.283390000">
<ele>0</ele>
<time>2026-09-04T06:46:16Z</time>
</trkpt>
<trkpt lat="46.934450000" lon="-72.283880000">
<ele>0</ele>
<time>2026-09-04T06:46:17Z</time>
</trkpt>
<trkpt lat="46.934270000" lon="-72.284660000">
<ele>0</ele>
<time>2026-09-04T06:46:18Z</time>
</trkpt>
<trkpt lat="46.933950000" lon="-72.285700000">
<ele>0</ele>
<time>2026-09-04T06:46:19Z</time>
</trkpt>
<trkpt lat="46.933910000" lon="-72.285960000">
<ele>0</ele>
<time>2026-09-04T06:46:20Z</time>
</trkpt>
<trkpt lat="46.933940000" lon="-72.286260000">
<ele>0</ele>
<time>2026-09-04T06:46:21Z</time>
</trkpt>
<trkpt lat="46.933970000" lon="-72.286490000">
<ele>0</ele>
<time>2026-09-04T06:46:22Z</time>
</trkpt>
<trkpt lat="46.933940000" lon="-72.286720000">
<ele>0</ele>
<time>2026-09-04T06:46:23Z</time>
</trkpt>
<trkpt lat="46.933610000" lon="-72.288020000">
<ele>0</ele>
<time>2026-09-04T06:46:24Z</time>
</trkpt>
<trkpt lat="46.933130000" lon="-72.290000000">
<ele>0</ele>
<time>2026-09-04T06:46:25Z</time>
</trkpt>
<trkpt lat="46.932920000" lon="-72.290730000">
<ele>0</ele>
<time>2026-09-04T06:46:26Z</time>
</trkpt>
<trkpt lat="46.932690000" lon="-72.291450000">
<ele>0</ele>
<time>2026-09-04T06:46:27Z</time>
</trkpt>
<trkpt lat="46.932550000" lon="-72.291810000">
<ele>0</ele>
<time>2026-09-04T06:46:28Z</time>
</trkpt>
<trkpt lat="46.932320000" lon="-72.292350000">
<ele>0</ele>
<time>2026-09-04T06:46:29Z</time>
</trkpt>
<trkpt lat="46.932190000" lon="-72.292590000">
<ele>0</ele>
<time>2026-09-04T06:46:30Z</time>
</trkpt>
<trkpt lat="46.931850000" lon="-72.293150000">
<ele>0</ele>
<time>2026-09-04T06:46:31Z</time>
</trkpt>
<trkpt lat="46.931660000" lon="-72.293430000">
<ele>0</ele>
<time>2026-09-04T06:46:32Z</time>
</trkpt>
<trkpt lat="46.931440000" lon="-72.293680000">
<ele>0</ele>
<time>2026-09-04T06:46:33Z</time>
</trkpt>
<trkpt lat="46.931250000" lon="-72.293840000">
<ele>0</ele>
<time>2026-09-04T06:46:34Z</time>
</trkpt>
<trkpt lat="46.930990000" lon="-72.294020000">
<ele>0</ele>
<time>2026-09-04T06:46:35Z</time>
</trkpt>
<trkpt lat="46.930690000" lon="-72.294130000">
<ele>0</ele>
<time>2026-09-04T06:46:36Z</time>
</trkpt>
<trkpt lat="46.930510000" lon="-72.294180000">
<ele>0</ele>
<time>2026-09-04T06:46:37Z</time>
</trkpt>
<trkpt lat="46.929520000" lon="-72.294410000">
<ele>0</ele>
<time>2026-09-04T06:46:38Z</time>
</trkpt>
<trkpt lat="46.927310000" lon="-72.294940000">
<ele>0</ele>
<time>2026-09-04T06:46:39Z</time>
</trkpt>
<trkpt lat="46.926780000" lon="-72.295080000">
<ele>0</ele>
<time>2026-09-04T06:46:40Z</time>
</trkpt>
<trkpt lat="46.926080000" lon="-72.295310000">
<ele>0</ele>
<time>2026-09-04T06:46:41Z</time>
</trkpt>
<trkpt lat="46.925030000" lon="-72.295680000">
<ele>0</ele>
<time>2026-09-04T06:46:42Z</time>
</trkpt>
<trkpt lat="46.924500000" lon="-72.295840000">
<ele>0</ele>
<time>2026-09-04T06:46:43Z</time>
</trkpt>
<trkpt lat="46.924320000" lon="-72.295890000">
<ele>0</ele>
<time>2026-09-04T06:46:44Z</time>
</trkpt>
<trkpt lat="46.924120000" lon="-72.295910000">
<ele>0</ele>
<time>2026-09-04T06:46:45Z</time>
</trkpt>
<trkpt lat="46.923900000" lon="-72.295900000">
<ele>0</ele>
<time>2026-09-04T06:46:46Z</time>
</trkpt>
<trkpt lat="46.923590000" lon="-72.295770000">
<ele>0</ele>
<time>2026-09-04T06:46:47Z</time>
</trkpt>
<trkpt lat="46.922960000" lon="-72.295360000">
<ele>0</ele>
<time>2026-09-04T06:46:48Z</time>
</trkpt>
<trkpt lat="46.921990000" lon="-72.294720000">
<ele>0</ele>
<time>2026-09-04T06:46:49Z</time>
</trkpt>
<trkpt lat="46.920760000" lon="-72.294010000">
<ele>0</ele>
<time>2026-09-04T06:46:50Z</time>
</trkpt>
<trkpt lat="46.920100000" lon="-72.293630000">
<ele>0</ele>
<time>2026-09-04T06:46:51Z</time>
</trkpt>
<trkpt lat="46.919820000" lon="-72.293550000">
<ele>0</ele>
<time>2026-09-04T06:46:52Z</time>
</trkpt>
<trkpt lat="46.919680000" lon="-72.293540000">
<ele>0</ele>
<time>2026-09-04T06:46:53Z</time>
</trkpt>
<trkpt lat="46.919500000" lon="-72.293570000">
<ele>0</ele>
<time>2026-09-04T06:46:54Z</time>
</trkpt>
<trkpt lat="46.918860000" lon="-72.293790000">
<ele>0</ele>
<time>2026-09-04T06:46:55Z</time>
</trkpt>
<trkpt lat="46.918500000" lon="-72.293890000">
<ele>0</ele>
<time>2026-09-04T06:46:56Z</time>
</trkpt>
<trkpt lat="46.918150000" lon="-72.293950000">
<ele>0</ele>
<time>2026-09-04T06:46:57Z</time>
</trkpt>
<trkpt lat="46.917790000" lon="-72.293950000">
<ele>0</ele>
<time>2026-09-04T06:46:58Z</time>
</trkpt>
<trkpt lat="46.917600000" lon="-72.293930000">
<ele>0</ele>
<time>2026-09-04T06:46:59Z</time>
</trkpt>
<trkpt lat="46.917240000" lon="-72.293820000">
<ele>0</ele>
<time>2026-09-04T06:47:00Z</time>
</trkpt>
<trkpt lat="46.915380000" lon="-72.293030000">
<ele>0</ele>
<time>2026-09-04T06:47:01Z</time>
</trkpt>
<trkpt lat="46.913970000" lon="-72.292340000">
<ele>0</ele>
<time>2026-09-04T06:47:02Z</time>
</trkpt>
<trkpt lat="46.913340000" lon="-72.292010000">
<ele>0</ele>
<time>2026-09-04T06:47:03Z</time>
</trkpt>
<trkpt lat="46.913080000" lon="-72.291780000">
<ele>0</ele>
<time>2026-09-04T06:47:04Z</time>
</trkpt>
<trkpt lat="46.912940000" lon="-72.291620000">
<ele>0</ele>
<time>2026-09-04T06:47:05Z</time>
</trkpt>
<trkpt lat="46.912600000" lon="-72.291210000">
<ele>0</ele>
<time>2026-09-04T06:47:06Z</time>
</trkpt>
<trkpt lat="46.912090000" lon="-72.290410000">
<ele>0</ele>
<time>2026-09-04T06:47:07Z</time>
</trkpt>
<trkpt lat="46.911650000" lon="-72.289700000">
<ele>0</ele>
<time>2026-09-04T06:47:08Z</time>
</trkpt>
<trkpt lat="46.911250000" lon="-72.289220000">
<ele>0</ele>
<time>2026-09-04T06:47:09Z</time>
</trkpt>
<trkpt lat="46.911020000" lon="-72.288950000">
<ele>0</ele>
<time>2026-09-04T06:47:10Z</time>
</trkpt>
<trkpt lat="46.910250000" lon="-72.288170000">
<ele>0</ele>
<time>2026-09-04T06:47:11Z</time>
</trkpt>
<trkpt lat="46.909680000" lon="-72.287620000">
<ele>0</ele>
<time>2026-09-04T06:47:12Z</time>
</trkpt>
<trkpt lat="46.908730000" lon="-72.286750000">
<ele>0</ele>
<time>2026-09-04T06:47:13Z</time>
</trkpt>
<trkpt lat="46.908280000" lon="-72.286400000">
<ele>0</ele>
<time>2026-09-04T06:47:14Z</time>
</trkpt>
<trkpt lat="46.907980000" lon="-72.286230000">
<ele>0</ele>
<time>2026-09-04T06:47:15Z</time>
</trkpt>
<trkpt lat="46.907570000" lon="-72.286050000">
<ele>0</ele>
<time>2026-09-04T06:47:16Z</time>
</trkpt>
<trkpt lat="46.907230000" lon="-72.285900000">
<ele>0</ele>
<time>2026-09-04T06:47:17Z</time>
</trkpt>
<trkpt lat="46.906540000" lon="-72.285580000">
<ele>0</ele>
<time>2026-09-04T06:47:18Z</time>
</trkpt>
<trkpt lat="46.906150000" lon="-72.285380000">
<ele>0</ele>
<time>2026-09-04T06:47:19Z</time>
</trkpt>
<trkpt lat="46.905690000" lon="-72.285180000">
<ele>0</ele>
<time>2026-09-04T06:47:20Z</time>
</trkpt>
<trkpt lat="46.905150000" lon="-72.285070000">
<ele>0</ele>
<time>2026-09-04T06:47:21Z</time>
</trkpt>
<trkpt lat="46.904660000" lon="-72.285010000">
<ele>0</ele>
<time>2026-09-04T06:47:22Z</time>
</trkpt>
<trkpt lat="46.904420000" lon="-72.285000000">
<ele>0</ele>
<time>2026-09-04T06:47:23Z</time>
</trkpt>
<trkpt lat="46.904260000" lon="-72.285020000">
<ele>0</ele>
<time>2026-09-04T06:47:24Z</time>
</trkpt>
<trkpt lat="46.903730000" lon="-72.285180000">
<ele>0</ele>
<time>2026-09-04T06:47:25Z</time>
</trkpt>
<trkpt lat="46.903280000" lon="-72.285310000">
<ele>0</ele>
<time>2026-09-04T06:47:26Z</time>
</trkpt>
<trkpt lat="46.903080000" lon="-72.285320000">
<ele>0</ele>
<time>2026-09-04T06:47:27Z</time>
</trkpt>
<trkpt lat="46.902840000" lon="-72.285280000">
<ele>0</ele>
<time>2026-09-04T06:47:28Z</time>
</trkpt>
<trkpt lat="46.902660000" lon="-72.285220000">
<ele>0</ele>
<time>2026-09-04T06:47:29Z</time>
</trkpt>
<trkpt lat="46.902490000" lon="-72.285130000">
<ele>0</ele>
<time>2026-09-04T06:47:30Z</time>
</trkpt>
<trkpt lat="46.902330000" lon="-72.285030000">
<ele>0</ele>
<time>2026-09-04T06:47:31Z</time>
</trkpt>
<trkpt lat="46.902180000" lon="-72.284890000">
<ele>0</ele>
<time>2026-09-04T06:47:32Z</time>
</trkpt>
<trkpt lat="46.901480000" lon="-72.284180000">
<ele>0</ele>
<time>2026-09-04T06:47:33Z</time>
</trkpt>
<trkpt lat="46.901180000" lon="-72.283860000">
<ele>0</ele>
<time>2026-09-04T06:47:34Z</time>
</trkpt>
<trkpt lat="46.900810000" lon="-72.283510000">
<ele>0</ele>
<time>2026-09-04T06:47:35Z</time>
</trkpt>
<trkpt lat="46.900640000" lon="-72.283390000">
<ele>0</ele>
<time>2026-09-04T06:47:36Z</time>
</trkpt>
<trkpt lat="46.900470000" lon="-72.283310000">
<ele>0</ele>
<time>2026-09-04T06:47:37Z</time>
</trkpt>
<trkpt lat="46.900130000" lon="-72.283180000">
<ele>0</ele>
<time>2026-09-04T06:47:38Z</time>
</trkpt>
<trkpt lat="46.899590000" lon="-72.283050000">
<ele>0</ele>
<time>2026-09-04T06:47:39Z</time>
</trkpt>
<trkpt lat="46.899320000" lon="-72.282990000">
<ele>0</ele>
<time>2026-09-04T06:47:40Z</time>
</trkpt>
<trkpt lat="46.899060000" lon="-72.282960000">
<ele>0</ele>
<time>2026-09-04T06:47:41Z</time>
</trkpt>
<trkpt lat="46.898150000" lon="-72.283050000">
<ele>0</ele>
<time>2026-09-04T06:47:42Z</time>
</trkpt>
<trkpt lat="46.897760000" lon="-72.283120000">
<ele>0</ele>
<time>2026-09-04T06:47:43Z</time>
</trkpt>
<trkpt lat="46.897290000" lon="-72.283310000">
<ele>0</ele>
<time>2026-09-04T06:47:44Z</time>
</trkpt>
<trkpt lat="46.896680000" lon="-72.283560000">
<ele>0</ele>
<time>2026-09-04T06:47:45Z</time>
</trkpt>
<trkpt lat="46.896570000" lon="-72.283590000">
<ele>0</ele>
<time>2026-09-04T06:47:46Z</time>
</trkpt>
<trkpt lat="46.896240000" lon="-72.283610000">
<ele>0</ele>
<time>2026-09-04T06:47:47Z</time>
</trkpt>
<trkpt lat="46.895570000" lon="-72.283600000">
<ele>0</ele>
<time>2026-09-04T06:47:48Z</time>
</trkpt>
<trkpt lat="46.894990000" lon="-72.283670000">
<ele>0</ele>
<time>2026-09-04T06:47:49Z</time>
</trkpt>
<trkpt lat="46.894380000" lon="-72.283750000">
<ele>0</ele>
<time>2026-09-04T06:47:50Z</time>
</trkpt>
<trkpt lat="46.893930000" lon="-72.283860000">
<ele>0</ele>
<time>2026-09-04T06:47:51Z</time>
</trkpt>
<trkpt lat="46.893640000" lon="-72.283990000">
<ele>0</ele>
<time>2026-09-04T06:47:52Z</time>
</trkpt>
<trkpt lat="46.893470000" lon="-72.284120000">
<ele>0</ele>
<time>2026-09-04T06:47:53Z</time>
</trkpt>
<trkpt lat="46.893260000" lon="-72.284340000">
<ele>0</ele>
<time>2026-09-04T06:47:54Z</time>
</trkpt>
<trkpt lat="46.893100000" lon="-72.284520000">
<ele>0</ele>
<time>2026-09-04T06:47:55Z</time>
</trkpt>
<trkpt lat="46.892490000" lon="-72.285200000">
<ele>0</ele>
<time>2026-09-04T06:47:56Z</time>
</trkpt>
<trkpt lat="46.892280000" lon="-72.285470000">
<ele>0</ele>
<time>2026-09-04T06:47:57Z</time>
</trkpt>
<trkpt lat="46.892090000" lon="-72.285810000">
<ele>0</ele>
<time>2026-09-04T06:47:58Z</time>
</trkpt>
<trkpt lat="46.891980000" lon="-72.286060000">
<ele>0</ele>
<time>2026-09-04T06:47:59Z</time>
</trkpt>
<trkpt lat="46.891900000" lon="-72.286380000">
<ele>0</ele>
<time>2026-09-04T06:48:00Z</time>
</trkpt>
<trkpt lat="46.891870000" lon="-72.286530000">
<ele>0</ele>
<time>2026-09-04T06:48:01Z</time>
</trkpt>
<trkpt lat="46.891800000" lon="-72.286890000">
<ele>0</ele>
<time>2026-09-04T06:48:02Z</time>
</trkpt>
<trkpt lat="46.891770000" lon="-72.287240000">
<ele>0</ele>
<time>2026-09-04T06:48:03Z</time>
</trkpt>
<trkpt lat="46.891780000" lon="-72.287560000">
<ele>0</ele>
<time>2026-09-04T06:48:04Z</time>
</trkpt>
<trkpt lat="46.891850000" lon="-72.288350000">
<ele>0</ele>
<time>2026-09-04T06:48:05Z</time>
</trkpt>
<trkpt lat="46.891900000" lon="-72.289000000">
<ele>0</ele>
<time>2026-09-04T06:48:06Z</time>
</trkpt>
<trkpt lat="46.891870000" lon="-72.289600000">
<ele>0</ele>
<time>2026-09-04T06:48:07Z</time>
</trkpt>
<trkpt lat="46.891770000" lon="-72.290130000">
<ele>0</ele>
<time>2026-09-04T06:48:08Z</time>
</trkpt>
<trkpt lat="46.891530000" lon="-72.290880000">
<ele>0</ele>
<time>2026-09-04T06:48:09Z</time>
</trkpt>
<trkpt lat="46.891280000" lon="-72.291570000">
<ele>0</ele>
<time>2026-09-04T06:48:10Z</time>
</trkpt>
<trkpt lat="46.890990000" lon="-72.292240000">
<ele>0</ele>
<time>2026-09-04T06:48:11Z</time>
</trkpt>
<trkpt lat="46.890340000" lon="-72.293500000">
<ele>0</ele>
<time>2026-09-04T06:48:12Z</time>
</trkpt>
<trkpt lat="46.889300000" lon="-72.295480000">
<ele>0</ele>
<time>2026-09-04T06:48:13Z</time>
</trkpt>
<trkpt lat="46.889010000" lon="-72.295980000">
<ele>0</ele>
<time>2026-09-04T06:48:14Z</time>
</trkpt>
<trkpt lat="46.888880000" lon="-72.296170000">
<ele>0</ele>
<time>2026-09-04T06:48:15Z</time>
</trkpt>
<trkpt lat="46.888760000" lon="-72.296310000">
<ele>0</ele>
<time>2026-09-04T06:48:16Z</time>
</trkpt>
<trkpt lat="46.888600000" lon="-72.296440000">
<ele>0</ele>
<time>2026-09-04T06:48:17Z</time>
</trkpt>
<trkpt lat="46.888420000" lon="-72.296550000">
<ele>0</ele>
<time>2026-09-04T06:48:18Z</time>
</trkpt>
<trkpt lat="46.888230000" lon="-72.296590000">
<ele>0</ele>
<time>2026-09-04T06:48:19Z</time>
</trkpt>
<trkpt lat="46.888080000" lon="-72.296610000">
<ele>0</ele>
<time>2026-09-04T06:48:20Z</time>
</trkpt>
<trkpt lat="46.887370000" lon="-72.296650000">
<ele>0</ele>
<time>2026-09-04T06:48:21Z</time>
</trkpt>
<trkpt lat="46.886300000" lon="-72.296760000">
<ele>0</ele>
<time>2026-09-04T06:48:22Z</time>
</trkpt>
<trkpt lat="46.885940000" lon="-72.296830000">
<ele>0</ele>
<time>2026-09-04T06:48:23Z</time>
</trkpt>
<trkpt lat="46.885540000" lon="-72.296960000">
<ele>0</ele>
<time>2026-09-04T06:48:24Z</time>
</trkpt>
<trkpt lat="46.885240000" lon="-72.297100000">
<ele>0</ele>
<time>2026-09-04T06:48:25Z</time>
</trkpt>
<trkpt lat="46.885010000" lon="-72.297200000">
<ele>0</ele>
<time>2026-09-04T06:48:26Z</time>
</trkpt>
<trkpt lat="46.884810000" lon="-72.297330000">
<ele>0</ele>
<time>2026-09-04T06:48:27Z</time>
</trkpt>
<trkpt lat="46.884400000" lon="-72.297760000">
<ele>0</ele>
<time>2026-09-04T06:48:28Z</time>
</trkpt>
<trkpt lat="46.883870000" lon="-72.298450000">
<ele>0</ele>
<time>2026-09-04T06:48:29Z</time>
</trkpt>
<trkpt lat="46.883620000" lon="-72.298830000">
<ele>0</ele>
<time>2026-09-04T06:48:30Z</time>
</trkpt>
<trkpt lat="46.883510000" lon="-72.299040000">
<ele>0</ele>
<time>2026-09-04T06:48:31Z</time>
</trkpt>
<trkpt lat="46.883120000" lon="-72.299930000">
<ele>0</ele>
<time>2026-09-04T06:48:32Z</time>
</trkpt>
<trkpt lat="46.882830000" lon="-72.300670000">
<ele>0</ele>
<time>2026-09-04T06:48:33Z</time>
</trkpt>
<trkpt lat="46.882660000" lon="-72.301150000">
<ele>0</ele>
<time>2026-09-04T06:48:34Z</time>
</trkpt>
<trkpt lat="46.882340000" lon="-72.301680000">
<ele>0</ele>
<time>2026-09-04T06:48:35Z</time>
</trkpt>
<trkpt lat="46.881980000" lon="-72.302270000">
<ele>0</ele>
<time>2026-09-04T06:48:36Z</time>
</trkpt>
<trkpt lat="46.881740000" lon="-72.302660000">
<ele>0</ele>
<time>2026-09-04T06:48:37Z</time>
</trkpt>
<trkpt lat="46.881520000" lon="-72.303080000">
<ele>0</ele>
<time>2026-09-04T06:48:38Z</time>
</trkpt>
<trkpt lat="46.881330000" lon="-72.303510000">
<ele>0</ele>
<time>2026-09-04T06:48:39Z</time>
</trkpt>
<trkpt lat="46.881200000" lon="-72.303920000">
<ele>0</ele>
<time>2026-09-04T06:48:40Z</time>
</trkpt>
<trkpt lat="46.881090000" lon="-72.304410000">
<ele>0</ele>
<time>2026-09-04T06:48:41Z</time>
</trkpt>
<trkpt lat="46.881090000" lon="-72.304410000">
<ele>0</ele>
<time>2026-09-04T06:48:42Z</time>
</trkpt>
<trkpt lat="46.881060000" lon="-72.304560000">
<ele>0</ele>
<time>2026-09-04T06:48:43Z</time>
</trkpt>
<trkpt lat="46.881010000" lon="-72.305290000">
<ele>0</ele>
<time>2026-09-04T06:48:44Z</time>
</trkpt>
<trkpt lat="46.880970000" lon="-72.305540000">
<ele>0</ele>
<time>2026-09-04T06:48:45Z</time>
</trkpt>
<trkpt lat="46.880970000" lon="-72.305540000">
<ele>0</ele>
<time>2026-09-04T06:48:46Z</time>
</trkpt>
<trkpt lat="46.880890000" lon="-72.305790000">
<ele>0</ele>
<time>2026-09-04T06:48:47Z</time>
</trkpt>
<trkpt lat="46.880760000" lon="-72.306000000">
<ele>0</ele>
<time>2026-09-04T06:48:48Z</time>
</trkpt>
<trkpt lat="46.880610000" lon="-72.306090000">
<ele>0</ele>
<time>2026-09-04T06:48:49Z</time>
</trkpt>
<trkpt lat="46.880450000" lon="-72.306190000">
<ele>0</ele>
<time>2026-09-04T06:48:50Z</time>
</trkpt>
<trkpt lat="46.880100000" lon="-72.306360000">
<ele>0</ele>
<time>2026-09-04T06:48:51Z</time>
</trkpt>
<trkpt lat="46.879690000" lon="-72.306560000">
<ele>0</ele>
<time>2026-09-04T06:48:52Z</time>
</trkpt>
<trkpt lat="46.879600000" lon="-72.306630000">
<ele>0</ele>
<time>2026-09-04T06:48:53Z</time>
</trkpt>
<trkpt lat="46.879380000" lon="-72.306830000">
<ele>0</ele>
<time>2026-09-04T06:48:54Z</time>
</trkpt>
<trkpt lat="46.878900000" lon="-72.307660000">
<ele>0</ele>
<time>2026-09-04T06:48:55Z</time>
</trkpt>
<trkpt lat="46.877100000" lon="-72.309260000">
<ele>0</ele>
<time>2026-09-04T06:48:56Z</time>
</trkpt>
<trkpt lat="46.876520000" lon="-72.309700000">
<ele>0</ele>
<time>2026-09-04T06:48:57Z</time>
</trkpt>
<trkpt lat="46.876390000" lon="-72.309830000">
<ele>0</ele>
<time>2026-09-04T06:48:58Z</time>
</trkpt>
<trkpt lat="46.875900000" lon="-72.310190000">
<ele>0</ele>
<time>2026-09-04T06:48:59Z</time>
</trkpt>
<trkpt lat="46.875320000" lon="-72.310660000">
<ele>0</ele>
<time>2026-09-04T06:49:00Z</time>
</trkpt>
<trkpt lat="46.874760000" lon="-72.311150000">
<ele>0</ele>
<time>2026-09-04T06:49:01Z</time>
</trkpt>
<trkpt lat="46.873270000" lon="-72.312410000">
<ele>0</ele>
<time>2026-09-04T06:49:02Z</time>
</trkpt>
<trkpt lat="46.872500000" lon="-72.313060000">
<ele>0</ele>
<time>2026-09-04T06:49:03Z</time>
</trkpt>
<trkpt lat="46.871630000" lon="-72.313800000">
<ele>0</ele>
<time>2026-09-04T06:49:04Z</time>
</trkpt>
<trkpt lat="46.870700000" lon="-72.314610000">
<ele>0</ele>
<time>2026-09-04T06:49:05Z</time>
</trkpt>
<trkpt lat="46.870410000" lon="-72.314910000">
<ele>0</ele>
<time>2026-09-04T06:49:06Z</time>
</trkpt>
<trkpt lat="46.870270000" lon="-72.315080000">
<ele>0</ele>
<time>2026-09-04T06:49:07Z</time>
</trkpt>
<trkpt lat="46.870140000" lon="-72.315270000">
<ele>0</ele>
<time>2026-09-04T06:49:08Z</time>
</trkpt>
<trkpt lat="46.870030000" lon="-72.315460000">
<ele>0</ele>
<time>2026-09-04T06:49:09Z</time>
</trkpt>
<trkpt lat="46.869650000" lon="-72.316280000">
<ele>0</ele>
<time>2026-09-04T06:49:10Z</time>
</trkpt>
<trkpt lat="46.868320000" lon="-72.318550000">
<ele>0</ele>
<time>2026-09-04T06:49:11Z</time>
</trkpt>
<trkpt lat="46.867990000" lon="-72.319180000">
<ele>0</ele>
<time>2026-09-04T06:49:12Z</time>
</trkpt>
<trkpt lat="46.867790000" lon="-72.319610000">
<ele>0</ele>
<time>2026-09-04T06:49:13Z</time>
</trkpt>
<trkpt lat="46.867410000" lon="-72.320510000">
<ele>0</ele>
<time>2026-09-04T06:49:14Z</time>
</trkpt>
<trkpt lat="46.866910000" lon="-72.321770000">
<ele>0</ele>
<time>2026-09-04T06:49:15Z</time>
</trkpt>
<trkpt lat="46.866040000" lon="-72.323080000">
<ele>0</ele>
<time>2026-09-04T06:49:16Z</time>
</trkpt>
<trkpt lat="46.865220000" lon="-72.323770000">
<ele>0</ele>
<time>2026-09-04T06:49:17Z</time>
</trkpt>
<trkpt lat="46.865020000" lon="-72.323920000">
<ele>0</ele>
<time>2026-09-04T06:49:18Z</time>
</trkpt>
<trkpt lat="46.864750000" lon="-72.324110000">
<ele>0</ele>
<time>2026-09-04T06:49:19Z</time>
</trkpt>
<trkpt lat="46.863760000" lon="-72.324610000">
<ele>0</ele>
<time>2026-09-04T06:49:20Z</time>
</trkpt>
<trkpt lat="46.863150000" lon="-72.324870000">
<ele>0</ele>
<time>2026-09-04T06:49:21Z</time>
</trkpt>
<trkpt lat="46.862800000" lon="-72.324990000">
<ele>0</ele>
<time>2026-09-04T06:49:22Z</time>
</trkpt>
<trkpt lat="46.862620000" lon="-72.325000000">
<ele>0</ele>
<time>2026-09-04T06:49:23Z</time>
</trkpt>
<trkpt lat="46.862430000" lon="-72.325000000">
<ele>0</ele>
<time>2026-09-04T06:49:24Z</time>
</trkpt>
<trkpt lat="46.861730000" lon="-72.324900000">
<ele>0</ele>
<time>2026-09-04T06:49:25Z</time>
</trkpt>
<trkpt lat="46.861190000" lon="-72.324820000">
<ele>0</ele>
<time>2026-09-04T06:49:26Z</time>
</trkpt>
<trkpt lat="46.859940000" lon="-72.324630000">
<ele>0</ele>
<time>2026-09-04T06:49:27Z</time>
</trkpt>
<trkpt lat="46.859040000" lon="-72.324510000">
<ele>0</ele>
<time>2026-09-04T06:49:28Z</time>
</trkpt>
<trkpt lat="46.858570000" lon="-72.324470000">
<ele>0</ele>
<time>2026-09-04T06:49:29Z</time>
</trkpt>
<trkpt lat="46.857390000" lon="-72.324600000">
<ele>0</ele>
<time>2026-09-04T06:49:30Z</time>
</trkpt>
<trkpt lat="46.856180000" lon="-72.324860000">
<ele>0</ele>
<time>2026-09-04T06:49:31Z</time>
</trkpt>
<trkpt lat="46.855600000" lon="-72.325010000">
<ele>0</ele>
<time>2026-09-04T06:49:32Z</time>
</trkpt>
<trkpt lat="46.854870000" lon="-72.325310000">
<ele>0</ele>
<time>2026-09-04T06:49:33Z</time>
</trkpt>
<trkpt lat="46.854110000" lon="-72.325720000">
<ele>0</ele>
<time>2026-09-04T06:49:34Z</time>
</trkpt>
<trkpt lat="46.853270000" lon="-72.326180000">
<ele>0</ele>
<time>2026-09-04T06:49:35Z</time>
</trkpt>
<trkpt lat="46.850360000" lon="-72.327770000">
<ele>0</ele>
<time>2026-09-04T06:49:36Z</time>
</trkpt>
<trkpt lat="46.850050000" lon="-72.327930000">
<ele>0</ele>
<time>2026-09-04T06:49:37Z</time>
</trkpt>
<trkpt lat="46.849580000" lon="-72.328010000">
<ele>0</ele>
<time>2026-09-04T06:49:38Z</time>
</trkpt>
<trkpt lat="46.849050000" lon="-72.328050000">
<ele>0</ele>
<time>2026-09-04T06:49:39Z</time>
</trkpt>
<trkpt lat="46.848750000" lon="-72.327980000">
<ele>0</ele>
<time>2026-09-04T06:49:40Z</time>
</trkpt>
<trkpt lat="46.848300000" lon="-72.327880000">
<ele>0</ele>
<time>2026-09-04T06:49:41Z</time>
</trkpt>
<trkpt lat="46.848110000" lon="-72.327800000">
<ele>0</ele>
<time>2026-09-04T06:49:42Z</time>
</trkpt>
<trkpt lat="46.847770000" lon="-72.327620000">
<ele>0</ele>
<time>2026-09-04T06:49:43Z</time>
</trkpt>
<trkpt lat="46.846940000" lon="-72.327120000">
<ele>0</ele>
<time>2026-09-04T06:49:44Z</time>
</trkpt>
<trkpt lat="46.846750000" lon="-72.327000000">
<ele>0</ele>
<time>2026-09-04T06:49:45Z</time>
</trkpt>
<trkpt lat="46.846750000" lon="-72.327000000">
<ele>0</ele>
<time>2026-09-04T06:49:46Z</time>
</trkpt>
<trkpt lat="46.846240000" lon="-72.326690000">
<ele>0</ele>
<time>2026-09-04T06:49:47Z</time>
</trkpt>
<trkpt lat="46.845280000" lon="-72.326380000">
<ele>0</ele>
<time>2026-09-04T06:49:48Z</time>
</trkpt>
<trkpt lat="46.844510000" lon="-72.326270000">
<ele>0</ele>
<time>2026-09-04T06:49:49Z</time>
</trkpt>
<trkpt lat="46.844150000" lon="-72.326240000">
<ele>0</ele>
<time>2026-09-04T06:49:50Z</time>
</trkpt>
<trkpt lat="46.842720000" lon="-72.326400000">
<ele>0</ele>
<time>2026-09-04T06:49:51Z</time>
</trkpt>
<trkpt lat="46.841220000" lon="-72.326760000">
<ele>0</ele>
<time>2026-09-04T06:49:52Z</time>
</trkpt>
<trkpt lat="46.839150000" lon="-72.327540000">
<ele>0</ele>
<time>2026-09-04T06:49:53Z</time>
</trkpt>
<trkpt lat="46.834570000" lon="-72.329260000">
<ele>0</ele>
<time>2026-09-04T06:49:54Z</time>
</trkpt>
<trkpt lat="46.833950000" lon="-72.329630000">
<ele>0</ele>
<time>2026-09-04T06:49:55Z</time>
</trkpt>
<trkpt lat="46.833570000" lon="-72.330060000">
<ele>0</ele>
<time>2026-09-04T06:49:56Z</time>
</trkpt>
<trkpt lat="46.833130000" lon="-72.330660000">
<ele>0</ele>
<time>2026-09-04T06:49:57Z</time>
</trkpt>
<trkpt lat="46.832160000" lon="-72.332000000">
<ele>0</ele>
<time>2026-09-04T06:49:58Z</time>
</trkpt>
<trkpt lat="46.831970000" lon="-72.332330000">
<ele>0</ele>
<time>2026-09-04T06:49:59Z</time>
</trkpt>
<trkpt lat="46.831910000" lon="-72.332560000">
<ele>0</ele>
<time>2026-09-04T06:50:00Z</time>
</trkpt>
<trkpt lat="46.831860000" lon="-72.333340000">
<ele>0</ele>
<time>2026-09-04T06:50:01Z</time>
</trkpt>
<trkpt lat="46.831810000" lon="-72.334000000">
<ele>0</ele>
<time>2026-09-04T06:50:02Z</time>
</trkpt>
<trkpt lat="46.831750000" lon="-72.334250000">
<ele>0</ele>
<time>2026-09-04T06:50:03Z</time>
</trkpt>
<trkpt lat="46.831600000" lon="-72.334680000">
<ele>0</ele>
<time>2026-09-04T06:50:04Z</time>
</trkpt>
<trkpt lat="46.831330000" lon="-72.335170000">
<ele>0</ele>
<time>2026-09-04T06:50:05Z</time>
</trkpt>
<trkpt lat="46.830960000" lon="-72.335670000">
<ele>0</ele>
<time>2026-09-04T06:50:06Z</time>
</trkpt>
<trkpt lat="46.830900000" lon="-72.335760000">
<ele>0</ele>
<time>2026-09-04T06:50:07Z</time>
</trkpt>
<trkpt lat="46.829800000" lon="-72.337290000">
<ele>0</ele>
<time>2026-09-04T06:50:08Z</time>
</trkpt>
<trkpt lat="46.829020000" lon="-72.338500000">
<ele>0</ele>
<time>2026-09-04T06:50:09Z</time>
</trkpt>
<trkpt lat="46.827570000" lon="-72.341090000">
<ele>0</ele>
<time>2026-09-04T06:50:10Z</time>
</trkpt>
<trkpt lat="46.826810000" lon="-72.342430000">
<ele>0</ele>
<time>2026-09-04T06:50:11Z</time>
</trkpt>
<trkpt lat="46.826540000" lon="-72.342920000">
<ele>0</ele>
<time>2026-09-04T06:50:12Z</time>
</trkpt>
<trkpt lat="46.826380000" lon="-72.343300000">
<ele>0</ele>
<time>2026-09-04T06:50:13Z</time>
</trkpt>
<trkpt lat="46.826220000" lon="-72.343820000">
<ele>0</ele>
<time>2026-09-04T06:50:14Z</time>
</trkpt>
<trkpt lat="46.825930000" lon="-72.344810000">
<ele>0</ele>
<time>2026-09-04T06:50:15Z</time>
</trkpt>
<trkpt lat="46.825660000" lon="-72.346620000">
<ele>0</ele>
<time>2026-09-04T06:50:16Z</time>
</trkpt>
<trkpt lat="46.825510000" lon="-72.347890000">
<ele>0</ele>
<time>2026-09-04T06:50:17Z</time>
</trkpt>
<trkpt lat="46.825420000" lon="-72.348420000">
<ele>0</ele>
<time>2026-09-04T06:50:18Z</time>
</trkpt>
<trkpt lat="46.825220000" lon="-72.349070000">
<ele>0</ele>
<time>2026-09-04T06:50:19Z</time>
</trkpt>
<trkpt lat="46.825130000" lon="-72.349300000">
<ele>0</ele>
<time>2026-09-04T06:50:20Z</time>
</trkpt>
<trkpt lat="46.824950000" lon="-72.349700000">
<ele>0</ele>
<time>2026-09-04T06:50:21Z</time>
</trkpt>
<trkpt lat="46.824790000" lon="-72.349970000">
<ele>0</ele>
<time>2026-09-04T06:50:22Z</time>
</trkpt>
<trkpt lat="46.824450000" lon="-72.350470000">
<ele>0</ele>
<time>2026-09-04T06:50:23Z</time>
</trkpt>
<trkpt lat="46.824270000" lon="-72.350690000">
<ele>0</ele>
<time>2026-09-04T06:50:24Z</time>
</trkpt>
<trkpt lat="46.823850000" lon="-72.351060000">
<ele>0</ele>
<time>2026-09-04T06:50:25Z</time>
</trkpt>
<trkpt lat="46.823560000" lon="-72.351230000">
<ele>0</ele>
<time>2026-09-04T06:50:26Z</time>
</trkpt>
<trkpt lat="46.823160000" lon="-72.351410000">
<ele>0</ele>
<time>2026-09-04T06:50:27Z</time>
</trkpt>
<trkpt lat="46.822860000" lon="-72.351480000">
<ele>0</ele>
<time>2026-09-04T06:50:28Z</time>
</trkpt>
<trkpt lat="46.822230000" lon="-72.351550000">
<ele>0</ele>
<time>2026-09-04T06:50:29Z</time>
</trkpt>
<trkpt lat="46.821170000" lon="-72.351650000">
<ele>0</ele>
<time>2026-09-04T06:50:30Z</time>
</trkpt>
<trkpt lat="46.820250000" lon="-72.351730000">
<ele>0</ele>
<time>2026-09-04T06:50:31Z</time>
</trkpt>
<trkpt lat="46.819120000" lon="-72.351840000">
<ele>0</ele>
<time>2026-09-04T06:50:32Z</time>
</trkpt>
<trkpt lat="46.818830000" lon="-72.351880000">
<ele>0</ele>
<time>2026-09-04T06:50:33Z</time>
</trkpt>
<trkpt lat="46.818550000" lon="-72.351950000">
<ele>0</ele>
<time>2026-09-04T06:50:34Z</time>
</trkpt>
<trkpt lat="46.818290000" lon="-72.352050000">
<ele>0</ele>
<time>2026-09-04T06:50:35Z</time>
</trkpt>
<trkpt lat="46.818060000" lon="-72.352170000">
<ele>0</ele>
<time>2026-09-04T06:50:36Z</time>
</trkpt>
<trkpt lat="46.817660000" lon="-72.352450000">
<ele>0</ele>
<time>2026-09-04T06:50:37Z</time>
</trkpt>
<trkpt lat="46.817480000" lon="-72.352610000">
<ele>0</ele>
<time>2026-09-04T06:50:38Z</time>
</trkpt>
<trkpt lat="46.817260000" lon="-72.352850000">
<ele>0</ele>
<time>2026-09-04T06:50:39Z</time>
</trkpt>
<trkpt lat="46.816930000" lon="-72.353280000">
<ele>0</ele>
<time>2026-09-04T06:50:40Z</time>
</trkpt>
<trkpt lat="46.816560000" lon="-72.353810000">
<ele>0</ele>
<time>2026-09-04T06:50:41Z</time>
</trkpt>
<trkpt lat="46.816150000" lon="-72.354380000">
<ele>0</ele>
<time>2026-09-04T06:50:42Z</time>
</trkpt>
<trkpt lat="46.816010000" lon="-72.354540000">
<ele>0</ele>
<time>2026-09-04T06:50:43Z</time>
</trkpt>
<trkpt lat="46.815850000" lon="-72.354730000">
<ele>0</ele>
<time>2026-09-04T06:50:44Z</time>
</trkpt>
<trkpt lat="46.815570000" lon="-72.354980000">
<ele>0</ele>
<time>2026-09-04T06:50:45Z</time>
</trkpt>
<trkpt lat="46.815240000" lon="-72.355190000">
<ele>0</ele>
<time>2026-09-04T06:50:46Z</time>
</trkpt>
<trkpt lat="46.815090000" lon="-72.354720000">
<ele>0</ele>
<time>2026-09-04T06:50:47Z</time>
</trkpt>
<trkpt lat="46.814980000" lon="-72.354420000">
<ele>0</ele>
<time>2026-09-04T06:50:48Z</time>
</trkpt>
<trkpt lat="46.814710000" lon="-72.353820000">
<ele>0</ele>
<time>2026-09-04T06:50:49Z</time>
</trkpt>
<trkpt lat="46.814620000" lon="-72.353660000">
<ele>0</ele>
<time>2026-09-04T06:50:50Z</time>
</trkpt>
<trkpt lat="46.814620000" lon="-72.353660000">
<ele>0</ele>
<time>2026-09-04T06:50:51Z</time>
</trkpt>
<trkpt lat="46.814350000" lon="-72.353240000">
<ele>0</ele>
<time>2026-09-04T06:50:52Z</time>
</trkpt>
<trkpt lat="46.814070000" lon="-72.352880000">
<ele>0</ele>
<time>2026-09-04T06:50:53Z</time>
</trkpt>
<trkpt lat="46.813720000" lon="-72.352530000">
<ele>0</ele>
<time>2026-09-04T06:50:54Z</time>
</trkpt>
<trkpt lat="46.813470000" lon="-72.352350000">
<ele>0</ele>
<time>2026-09-04T06:50:55Z</time>
</trkpt>
<trkpt lat="46.813150000" lon="-72.352160000">
<ele>0</ele>
<time>2026-09-04T06:50:56Z</time>
</trkpt>
<trkpt lat="46.813000000" lon="-72.352080000">
<ele>0</ele>
<time>2026-09-04T06:50:57Z</time>
</trkpt>
<trkpt lat="46.812610000" lon="-72.351950000">
<ele>0</ele>
<time>2026-09-04T06:50:58Z</time>
</trkpt>
<trkpt lat="46.811900000" lon="-72.351770000">
<ele>0</ele>
<time>2026-09-04T06:50:59Z</time>
</trkpt>
<trkpt lat="46.810490000" lon="-72.351420000">
<ele>0</ele>
<time>2026-09-04T06:51:00Z</time>
</trkpt>
<trkpt lat="46.808360000" lon="-72.350900000">
<ele>0</ele>
<time>2026-09-04T06:51:01Z</time>
</trkpt>
<trkpt lat="46.805650000" lon="-72.350220000">
<ele>0</ele>
<time>2026-09-04T06:51:02Z</time>
</trkpt>
<trkpt lat="46.804760000" lon="-72.350010000">
<ele>0</ele>
<time>2026-09-04T06:51:03Z</time>
</trkpt>
<trkpt lat="46.804480000" lon="-72.349920000">
<ele>0</ele>
<time>2026-09-04T06:51:04Z</time>
</trkpt>
<trkpt lat="46.804070000" lon="-72.349730000">
<ele>0</ele>
<time>2026-09-04T06:51:05Z</time>
</trkpt>
<trkpt lat="46.803870000" lon="-72.349600000">
<ele>0</ele>
<time>2026-09-04T06:51:06Z</time>
</trkpt>
<trkpt lat="46.803420000" lon="-72.349200000">
<ele>0</ele>
<time>2026-09-04T06:51:07Z</time>
</trkpt>
<trkpt lat="46.802540000" lon="-72.348350000">
<ele>0</ele>
<time>2026-09-04T06:51:08Z</time>
</trkpt>
<trkpt lat="46.800890000" lon="-72.346750000">
<ele>0</ele>
<time>2026-09-04T06:51:09Z</time>
</trkpt>
<trkpt lat="46.799390000" lon="-72.345300000">
<ele>0</ele>
<time>2026-09-04T06:51:10Z</time>
</trkpt>
<trkpt lat="46.798580000" lon="-72.344490000">
<ele>0</ele>
<time>2026-09-04T06:51:11Z</time>
</trkpt>
<trkpt lat="46.798070000" lon="-72.343940000">
<ele>0</ele>
<time>2026-09-04T06:51:12Z</time>
</trkpt>
<trkpt lat="46.797510000" lon="-72.343270000">
<ele>0</ele>
<time>2026-09-04T06:51:13Z</time>
</trkpt>
<trkpt lat="46.796470000" lon="-72.341830000">
<ele>0</ele>
<time>2026-09-04T06:51:14Z</time>
</trkpt>
<trkpt lat="46.794570000" lon="-72.339150000">
<ele>0</ele>
<time>2026-09-04T06:51:15Z</time>
</trkpt>
<trkpt lat="46.792680000" lon="-72.336460000">
<ele>0</ele>
<time>2026-09-04T06:51:16Z</time>
</trkpt>
<trkpt lat="46.788740000" lon="-72.330610000">
<ele>0</ele>
<time>2026-09-04T06:51:17Z</time>
</trkpt>
<trkpt lat="46.786440000" lon="-72.327210000">
<ele>0</ele>
<time>2026-09-04T06:51:18Z</time>
</trkpt>
<trkpt lat="46.783790000" lon="-72.323270000">
<ele>0</ele>
<time>2026-09-04T06:51:19Z</time>
</trkpt>
<trkpt lat="46.780940000" lon="-72.319080000">
<ele>0</ele>
<time>2026-09-04T06:51:20Z</time>
</trkpt>
<trkpt lat="46.777490000" lon="-72.314110000">
<ele>0</ele>
<time>2026-09-04T06:51:21Z</time>
</trkpt>
<trkpt lat="46.776500000" lon="-72.312590000">
<ele>0</ele>
<time>2026-09-04T06:51:22Z</time>
</trkpt>
<trkpt lat="46.776040000" lon="-72.311810000">
<ele>0</ele>
<time>2026-09-04T06:51:23Z</time>
</trkpt>
<trkpt lat="46.775560000" lon="-72.311020000">
<ele>0</ele>
<time>2026-09-04T06:51:24Z</time>
</trkpt>
<trkpt lat="46.774930000" lon="-72.310040000">
<ele>0</ele>
<time>2026-09-04T06:51:25Z</time>
</trkpt>
<trkpt lat="46.774550000" lon="-72.309530000">
<ele>0</ele>
<time>2026-09-04T06:51:26Z</time>
</trkpt>
<trkpt lat="46.774260000" lon="-72.309170000">
<ele>0</ele>
<time>2026-09-04T06:51:27Z</time>
</trkpt>
<trkpt lat="46.772170000" lon="-72.306720000">
<ele>0</ele>
<time>2026-09-04T06:51:28Z</time>
</trkpt>
<trkpt lat="46.769380000" lon="-72.303460000">
<ele>0</ele>
<time>2026-09-04T06:51:29Z</time>
</trkpt>
<trkpt lat="46.767990000" lon="-72.301750000">
<ele>0</ele>
<time>2026-09-04T06:51:30Z</time>
</trkpt>
<trkpt lat="46.764580000" lon="-72.297460000">
<ele>0</ele>
<time>2026-09-04T06:51:31Z</time>
</trkpt>
<trkpt lat="46.763080000" lon="-72.295580000">
<ele>0</ele>
<time>2026-09-04T06:51:32Z</time>
</trkpt>
<trkpt lat="46.762330000" lon="-72.294740000">
<ele>0</ele>
<time>2026-09-04T06:51:33Z</time>
</trkpt>
<trkpt lat="46.762080000" lon="-72.294480000">
<ele>0</ele>
<time>2026-09-04T06:51:34Z</time>
</trkpt>
<trkpt lat="46.761490000" lon="-72.293880000">
<ele>0</ele>
<time>2026-09-04T06:51:35Z</time>
</trkpt>
<trkpt lat="46.759530000" lon="-72.291950000">
<ele>0</ele>
<time>2026-09-04T06:51:36Z</time>
</trkpt>
<trkpt lat="46.759210000" lon="-72.291660000">
<ele>0</ele>
<time>2026-09-04T06:51:37Z</time>
</trkpt>
<trkpt lat="46.758540000" lon="-72.290990000">
<ele>0</ele>
<time>2026-09-04T06:51:38Z</time>
</trkpt>
<trkpt lat="46.758060000" lon="-72.290460000">
<ele>0</ele>
<time>2026-09-04T06:51:39Z</time>
</trkpt>
<trkpt lat="46.757690000" lon="-72.289920000">
<ele>0</ele>
<time>2026-09-04T06:51:40Z</time>
</trkpt>
<trkpt lat="46.757570000" lon="-72.289710000">
<ele>0</ele>
<time>2026-09-04T06:51:41Z</time>
</trkpt>
<trkpt lat="46.757280000" lon="-72.289210000">
<ele>0</ele>
<time>2026-09-04T06:51:42Z</time>
</trkpt>
<trkpt lat="46.756950000" lon="-72.288560000">
<ele>0</ele>
<time>2026-09-04T06:51:43Z</time>
</trkpt>
<trkpt lat="46.756550000" lon="-72.287510000">
<ele>0</ele>
<time>2026-09-04T06:51:44Z</time>
</trkpt>
<trkpt lat="46.756020000" lon="-72.285780000">
<ele>0</ele>
<time>2026-09-04T06:51:45Z</time>
</trkpt>
<trkpt lat="46.755640000" lon="-72.284480000">
<ele>0</ele>
<time>2026-09-04T06:51:46Z</time>
</trkpt>
<trkpt lat="46.755640000" lon="-72.284480000">
<ele>0</ele>
<time>2026-09-04T06:51:47Z</time>
</trkpt>
<trkpt lat="46.754920000" lon="-72.282040000">
<ele>0</ele>
<time>2026-09-04T06:51:48Z</time>
</trkpt>
<trkpt lat="46.754570000" lon="-72.280820000">
<ele>0</ele>
<time>2026-09-04T06:51:49Z</time>
</trkpt>
<trkpt lat="46.754440000" lon="-72.280340000">
<ele>0</ele>
<time>2026-09-04T06:51:50Z</time>
</trkpt>
<trkpt lat="46.754350000" lon="-72.279890000">
<ele>0</ele>
<time>2026-09-04T06:51:51Z</time>
</trkpt>
<trkpt lat="46.754310000" lon="-72.279560000">
<ele>0</ele>
<time>2026-09-04T06:51:52Z</time>
</trkpt>
<trkpt lat="46.754290000" lon="-72.278760000">
<ele>0</ele>
<time>2026-09-04T06:51:53Z</time>
</trkpt>
<trkpt lat="46.754330000" lon="-72.278260000">
<ele>0</ele>
<time>2026-09-04T06:51:54Z</time>
</trkpt>
<trkpt lat="46.754420000" lon="-72.277830000">
<ele>0</ele>
<time>2026-09-04T06:51:55Z</time>
</trkpt>
<trkpt lat="46.754560000" lon="-72.277440000">
<ele>0</ele>
<time>2026-09-04T06:51:56Z</time>
</trkpt>
<trkpt lat="46.754750000" lon="-72.276980000">
<ele>0</ele>
<time>2026-09-04T06:51:57Z</time>
</trkpt>
<trkpt lat="46.754930000" lon="-72.276660000">
<ele>0</ele>
<time>2026-09-04T06:51:58Z</time>
</trkpt>
<trkpt lat="46.755210000" lon="-72.276240000">
<ele>0</ele>
<time>2026-09-04T06:51:59Z</time>
</trkpt>
<trkpt lat="46.755660000" lon="-72.275630000">
<ele>0</ele>
<time>2026-09-04T06:52:00Z</time>
</trkpt>
<trkpt lat="46.755980000" lon="-72.275160000">
<ele>0</ele>
<time>2026-09-04T06:52:01Z</time>
</trkpt>
<trkpt lat="46.756370000" lon="-72.274590000">
<ele>0</ele>
<time>2026-09-04T06:52:02Z</time>
</trkpt>
<trkpt lat="46.756460000" lon="-72.274390000">
<ele>0</ele>
<time>2026-09-04T06:52:03Z</time>
</trkpt>
<trkpt lat="46.756510000" lon="-72.274230000">
<ele>0</ele>
<time>2026-09-04T06:52:04Z</time>
</trkpt>
<trkpt lat="46.756550000" lon="-72.274020000">
<ele>0</ele>
<time>2026-09-04T06:52:05Z</time>
</trkpt>
<trkpt lat="46.756520000" lon="-72.273710000">
<ele>0</ele>
<time>2026-09-04T06:52:06Z</time>
</trkpt>
<trkpt lat="46.756430000" lon="-72.273260000">
<ele>0</ele>
<time>2026-09-04T06:52:07Z</time>
</trkpt>
<trkpt lat="46.756020000" lon="-72.271560000">
<ele>0</ele>
<time>2026-09-04T06:52:08Z</time>
</trkpt>
<trkpt lat="46.755870000" lon="-72.271010000">
<ele>0</ele>
<time>2026-09-04T06:52:09Z</time>
</trkpt>
<trkpt lat="46.755690000" lon="-72.270450000">
<ele>0</ele>
<time>2026-09-04T06:52:10Z</time>
</trkpt>
<trkpt lat="46.755350000" lon="-72.269540000">
<ele>0</ele>
<time>2026-09-04T06:52:11Z</time>
</trkpt>
<trkpt lat="46.754920000" lon="-72.268690000">
<ele>0</ele>
<time>2026-09-04T06:52:12Z</time>
</trkpt>
<trkpt lat="46.754520000" lon="-72.267870000">
<ele>0</ele>
<time>2026-09-04T06:52:13Z</time>
</trkpt>
<trkpt lat="46.754570000" lon="-72.267810000">
<ele>0</ele>
<time>2026-09-04T06:52:14Z</time>
</trkpt>
<trkpt lat="46.754590000" lon="-72.267770000">
<ele>0</ele>
<time>2026-09-04T06:52:15Z</time>
</trkpt>
<trkpt lat="46.754590000" lon="-72.267770000">
<ele>0</ele>
<time>2026-09-04T06:52:16Z</time>
</trkpt>
<trkpt lat="46.755200000" lon="-72.266880000">
<ele>0</ele>
<time>2026-09-04T06:52:17Z</time>
</trkpt>
<trkpt lat="46.755610000" lon="-72.266210000">
<ele>0</ele>
<time>2026-09-04T06:52:18Z</time>
</trkpt>
<trkpt lat="46.755700000" lon="-72.266290000">
<ele>0</ele>
<time>2026-09-04T06:52:19Z</time>
</trkpt>
<trkpt lat="46.755740000" lon="-72.266390000">
<ele>0</ele>
<time>2026-09-04T06:52:20Z</time>
</trkpt>
<trkpt lat="46.755740000" lon="-72.266390000">
<ele>0</ele>
<time>2026-09-04T06:52:21Z</time>
</trkpt>
<trkpt lat="46.756080000" lon="-72.267450000">
<ele>0</ele>
<time>2026-09-04T06:52:22Z</time>
</trkpt>
<trkpt lat="46.756460000" lon="-72.268270000">
<ele>0</ele>
<time>2026-09-04T06:52:23Z</time>
</trkpt>
<trkpt lat="46.756470000" lon="-72.268790000">
<ele>0</ele>
<time>2026-09-04T06:52:24Z</time>
</trkpt>
<trkpt lat="46.756470000" lon="-72.268790000">
<ele>0</ele>
<time>2026-09-04T06:52:25Z</time>
</trkpt>
<trkpt lat="46.756730000" lon="-72.269720000">
<ele>0</ele>
<time>2026-09-04T06:52:26Z</time>
</trkpt>
<trkpt lat="46.756840000" lon="-72.270330000">
<ele>0</ele>
<time>2026-09-04T06:52:27Z</time>
</trkpt>
<trkpt lat="46.756980000" lon="-72.271480000">
<ele>0</ele>
<time>2026-09-04T06:52:28Z</time>
</trkpt>
<trkpt lat="46.756990000" lon="-72.271580000">
<ele>0</ele>
<time>2026-09-04T06:52:29Z</time>
</trkpt>
<trkpt lat="46.756990000" lon="-72.271580000">
<ele>0</ele>
<time>2026-09-04T06:52:30Z</time>
</trkpt>
<trkpt lat="46.757020000" lon="-72.271730000">
<ele>0</ele>
<time>2026-09-04T06:52:31Z</time>
</trkpt>
<trkpt lat="46.757130000" lon="-72.272030000">
<ele>0</ele>
<time>2026-09-04T06:52:32Z</time>
</trkpt>
<trkpt lat="46.757600000" lon="-72.272960000">
<ele>0</ele>
<time>2026-09-04T06:52:33Z</time>
</trkpt>
<trkpt lat="46.757460000" lon="-72.273170000">
<ele>0</ele>
<time>2026-09-04T06:52:34Z</time>
</trkpt>
<trkpt lat="46.757460000" lon="-72.273170000">
<ele>0</ele>
<time>2026-09-04T06:52:35Z</time>
</trkpt>
<trkpt lat="46.757040000" lon="-72.273810000">
<ele>0</ele>
<time>2026-09-04T06:52:36Z</time>
</trkpt>
<trkpt lat="46.756950000" lon="-72.273930000">
<ele>0</ele>
<time>2026-09-04T06:52:37Z</time>
</trkpt>
<trkpt lat="46.756820000" lon="-72.274010000">
<ele>0</ele>
<time>2026-09-04T06:52:38Z</time>
</trkpt>
<trkpt lat="46.756660000" lon="-72.274060000">
<ele>0</ele>
<time>2026-09-04T06:52:39Z</time>
</trkpt>
<trkpt lat="46.756550000" lon="-72.274020000">
<ele>0</ele>
<time>2026-09-04T06:52:40Z</time>
</trkpt>
<trkpt lat="46.756530000" lon="-72.274170000">
<ele>0</ele>
<time>2026-09-04T06:52:41Z</time>
</trkpt>
<trkpt lat="46.756530000" lon="-72.274180000">
<ele>0</ele>
<time>2026-09-04T06:52:42Z</time>
</trkpt>
<trkpt lat="46.756530000" lon="-72.274180000">
<ele>0</ele>
<time>2026-09-04T06:52:43Z</time>
</trkpt>
<trkpt lat="46.756410000" lon="-72.274500000">
<ele>0</ele>
<time>2026-09-04T06:52:44Z</time>
</trkpt>
<trkpt lat="46.756250000" lon="-72.274780000">
<ele>0</ele>
<time>2026-09-04T06:52:45Z</time>
</trkpt>
<trkpt lat="46.756040000" lon="-72.275070000">
<ele>0</ele>
<time>2026-09-04T06:52:46Z</time>
</trkpt>
<trkpt lat="46.755500000" lon="-72.275860000">
<ele>0</ele>
<time>2026-09-04T06:52:47Z</time>
</trkpt>
<trkpt lat="46.754930000" lon="-72.276660000">
<ele>0</ele>
<time>2026-09-04T06:52:48Z</time>
</trkpt>
<trkpt lat="46.754650000" lon="-72.277190000">
<ele>0</ele>
<time>2026-09-04T06:52:49Z</time>
</trkpt>
<trkpt lat="46.754500000" lon="-72.277590000">
<ele>0</ele>
<time>2026-09-04T06:52:50Z</time>
</trkpt>
<trkpt lat="46.754420000" lon="-72.277830000">
<ele>0</ele>
<time>2026-09-04T06:52:51Z</time>
</trkpt>
<trkpt lat="46.754370000" lon="-72.278080000">
<ele>0</ele>
<time>2026-09-04T06:52:52Z</time>
</trkpt>
<trkpt lat="46.754320000" lon="-72.278390000">
<ele>0</ele>
<time>2026-09-04T06:52:53Z</time>
</trkpt>
<trkpt lat="46.754300000" lon="-72.278580000">
<ele>0</ele>
<time>2026-09-04T06:52:54Z</time>
</trkpt>
<trkpt lat="46.754290000" lon="-72.278950000">
<ele>0</ele>
<time>2026-09-04T06:52:55Z</time>
</trkpt>
<trkpt lat="46.754300000" lon="-72.279370000">
<ele>0</ele>
<time>2026-09-04T06:52:56Z</time>
</trkpt>
<trkpt lat="46.754330000" lon="-72.279820000">
<ele>0</ele>
<time>2026-09-04T06:52:57Z</time>
</trkpt>
<trkpt lat="46.754420000" lon="-72.280260000">
<ele>0</ele>
<time>2026-09-04T06:52:58Z</time>
</trkpt>
<trkpt lat="46.754570000" lon="-72.280800000">
<ele>0</ele>
<time>2026-09-04T06:52:59Z</time>
</trkpt>
<trkpt lat="46.755580000" lon="-72.284270000">
<ele>0</ele>
<time>2026-09-04T06:53:00Z</time>
</trkpt>
<trkpt lat="46.756550000" lon="-72.287510000">
<ele>0</ele>
<time>2026-09-04T06:53:01Z</time>
</trkpt>
<trkpt lat="46.756950000" lon="-72.288560000">
<ele>0</ele>
<time>2026-09-04T06:53:02Z</time>
</trkpt>
<trkpt lat="46.757280000" lon="-72.289210000">
<ele>0</ele>
<time>2026-09-04T06:53:03Z</time>
</trkpt>
<trkpt lat="46.757690000" lon="-72.289920000">
<ele>0</ele>
<time>2026-09-04T06:53:04Z</time>
</trkpt>
<trkpt lat="46.758060000" lon="-72.290460000">
<ele>0</ele>
<time>2026-09-04T06:53:05Z</time>
</trkpt>
<trkpt lat="46.758430000" lon="-72.290870000">
<ele>0</ele>
<time>2026-09-04T06:53:06Z</time>
</trkpt>
<trkpt lat="46.758540000" lon="-72.290990000">
<ele>0</ele>
<time>2026-09-04T06:53:07Z</time>
</trkpt>
<trkpt lat="46.759210000" lon="-72.291660000">
<ele>0</ele>
<time>2026-09-04T06:53:08Z</time>
</trkpt>
<trkpt lat="46.760000000" lon="-72.292410000">
<ele>0</ele>
<time>2026-09-04T06:53:09Z</time>
</trkpt>
<trkpt lat="46.761780000" lon="-72.294180000">
<ele>0</ele>
<time>2026-09-04T06:53:10Z</time>
</trkpt>
<trkpt lat="46.762330000" lon="-72.294740000">
<ele>0</ele>
<time>2026-09-04T06:53:11Z</time>
</trkpt>
<trkpt lat="46.763080000" lon="-72.295580000">
<ele>0</ele>
<time>2026-09-04T06:53:12Z</time>
</trkpt>
<trkpt lat="46.763500000" lon="-72.296090000">
<ele>0</ele>
<time>2026-09-04T06:53:13Z</time>
</trkpt>
<trkpt lat="46.764180000" lon="-72.296940000">
<ele>0</ele>
<time>2026-09-04T06:53:14Z</time>
</trkpt>
<trkpt lat="46.765810000" lon="-72.299010000">
<ele>0</ele>
<time>2026-09-04T06:53:15Z</time>
</trkpt>
<trkpt lat="46.768290000" lon="-72.302120000">
<ele>0</ele>
<time>2026-09-04T06:53:16Z</time>
</trkpt>
<trkpt lat="46.769090000" lon="-72.303100000">
<ele>0</ele>
<time>2026-09-04T06:53:17Z</time>
</trkpt>
<trkpt lat="46.770210000" lon="-72.304430000">
<ele>0</ele>
<time>2026-09-04T06:53:18Z</time>
</trkpt>
<trkpt lat="46.772600000" lon="-72.307210000">
<ele>0</ele>
<time>2026-09-04T06:53:19Z</time>
</trkpt>
<trkpt lat="46.774430000" lon="-72.309380000">
<ele>0</ele>
<time>2026-09-04T06:53:20Z</time>
</trkpt>
<trkpt lat="46.774800000" lon="-72.309850000">
<ele>0</ele>
<time>2026-09-04T06:53:21Z</time>
</trkpt>
<trkpt lat="46.774970000" lon="-72.310090000">
<ele>0</ele>
<time>2026-09-04T06:53:22Z</time>
</trkpt>
<trkpt lat="46.775740000" lon="-72.311310000">
<ele>0</ele>
<time>2026-09-04T06:53:23Z</time>
</trkpt>
<trkpt lat="46.776500000" lon="-72.312590000">
<ele>0</ele>
<time>2026-09-04T06:53:24Z</time>
</trkpt>
<trkpt lat="46.777490000" lon="-72.314110000">
<ele>0</ele>
<time>2026-09-04T06:53:25Z</time>
</trkpt>
<trkpt lat="46.778850000" lon="-72.316070000">
<ele>0</ele>
<time>2026-09-04T06:53:26Z</time>
</trkpt>
<trkpt lat="46.779880000" lon="-72.317550000">
<ele>0</ele>
<time>2026-09-04T06:53:27Z</time>
</trkpt>
<trkpt lat="46.781540000" lon="-72.319950000">
<ele>0</ele>
<time>2026-09-04T06:53:28Z</time>
</trkpt>
<trkpt lat="46.783820000" lon="-72.323310000">
<ele>0</ele>
<time>2026-09-04T06:53:29Z</time>
</trkpt>
<trkpt lat="46.787200000" lon="-72.328330000">
<ele>0</ele>
<time>2026-09-04T06:53:30Z</time>
</trkpt>
<trkpt lat="46.790600000" lon="-72.333390000">
<ele>0</ele>
<time>2026-09-04T06:53:31Z</time>
</trkpt>
<trkpt lat="46.793230000" lon="-72.337260000">
<ele>0</ele>
<time>2026-09-04T06:53:32Z</time>
</trkpt>
<trkpt lat="46.795050000" lon="-72.339820000">
<ele>0</ele>
<time>2026-09-04T06:53:33Z</time>
</trkpt>
<trkpt lat="46.797380000" lon="-72.343100000">
<ele>0</ele>
<time>2026-09-04T06:53:34Z</time>
</trkpt>
<trkpt lat="46.797740000" lon="-72.343550000">
<ele>0</ele>
<time>2026-09-04T06:53:35Z</time>
</trkpt>
<trkpt lat="46.798580000" lon="-72.344490000">
<ele>0</ele>
<time>2026-09-04T06:53:36Z</time>
</trkpt>
<trkpt lat="46.799390000" lon="-72.345300000">
<ele>0</ele>
<time>2026-09-04T06:53:37Z</time>
</trkpt>
<trkpt lat="46.800590000" lon="-72.346460000">
<ele>0</ele>
<time>2026-09-04T06:53:38Z</time>
</trkpt>
<trkpt lat="46.801050000" lon="-72.346900000">
<ele>0</ele>
<time>2026-09-04T06:53:39Z</time>
</trkpt>
<trkpt lat="46.803140000" lon="-72.348940000">
<ele>0</ele>
<time>2026-09-04T06:53:40Z</time>
</trkpt>
<trkpt lat="46.803420000" lon="-72.349200000">
<ele>0</ele>
<time>2026-09-04T06:53:41Z</time>
</trkpt>
<trkpt lat="46.803870000" lon="-72.349600000">
<ele>0</ele>
<time>2026-09-04T06:53:42Z</time>
</trkpt>
<trkpt lat="46.804260000" lon="-72.349830000">
<ele>0</ele>
<time>2026-09-04T06:53:43Z</time>
</trkpt>
<trkpt lat="46.804590000" lon="-72.349950000">
<ele>0</ele>
<time>2026-09-04T06:53:44Z</time>
</trkpt>
<trkpt lat="46.805870000" lon="-72.350280000">
<ele>0</ele>
<time>2026-09-04T06:53:45Z</time>
</trkpt>
<trkpt lat="46.811020000" lon="-72.351550000">
<ele>0</ele>
<time>2026-09-04T06:53:46Z</time>
</trkpt>
<trkpt lat="46.812260000" lon="-72.351860000">
<ele>0</ele>
<time>2026-09-04T06:53:47Z</time>
</trkpt>
<trkpt lat="46.812610000" lon="-72.351950000">
<ele>0</ele>
<time>2026-09-04T06:53:48Z</time>
</trkpt>
<trkpt lat="46.813000000" lon="-72.352080000">
<ele>0</ele>
<time>2026-09-04T06:53:49Z</time>
</trkpt>
<trkpt lat="46.813150000" lon="-72.352160000">
<ele>0</ele>
<time>2026-09-04T06:53:50Z</time>
</trkpt>
<trkpt lat="46.813470000" lon="-72.352350000">
<ele>0</ele>
<time>2026-09-04T06:53:51Z</time>
</trkpt>
<trkpt lat="46.813720000" lon="-72.352530000">
<ele>0</ele>
<time>2026-09-04T06:53:52Z</time>
</trkpt>
<trkpt lat="46.814070000" lon="-72.352880000">
<ele>0</ele>
<time>2026-09-04T06:53:53Z</time>
</trkpt>
<trkpt lat="46.814350000" lon="-72.353240000">
<ele>0</ele>
<time>2026-09-04T06:53:54Z</time>
</trkpt>
<trkpt lat="46.814510000" lon="-72.353460000">
<ele>0</ele>
<time>2026-09-04T06:53:55Z</time>
</trkpt>
<trkpt lat="46.814710000" lon="-72.353820000">
<ele>0</ele>
<time>2026-09-04T06:53:56Z</time>
</trkpt>
<trkpt lat="46.814980000" lon="-72.354420000">
<ele>0</ele>
<time>2026-09-04T06:53:57Z</time>
</trkpt>
<trkpt lat="46.815240000" lon="-72.355190000">
<ele>0</ele>
<time>2026-09-04T06:53:58Z</time>
</trkpt>
<trkpt lat="46.815350000" lon="-72.355780000">
<ele>0</ele>
<time>2026-09-04T06:53:59Z</time>
</trkpt>
<trkpt lat="46.815410000" lon="-72.356410000">
<ele>0</ele>
<time>2026-09-04T06:54:00Z</time>
</trkpt>
<trkpt lat="46.815500000" lon="-72.357310000">
<ele>0</ele>
<time>2026-09-04T06:54:01Z</time>
</trkpt>
<trkpt lat="46.815600000" lon="-72.358080000">
<ele>0</ele>
<time>2026-09-04T06:54:02Z</time>
</trkpt>
<trkpt lat="46.815690000" lon="-72.359010000">
<ele>0</ele>
<time>2026-09-04T06:54:03Z</time>
</trkpt>
<trkpt lat="46.815730000" lon="-72.359240000">
<ele>0</ele>
<time>2026-09-04T06:54:04Z</time>
</trkpt>
<trkpt lat="46.815730000" lon="-72.359240000">
<ele>0</ele>
<time>2026-09-04T06:54:05Z</time>
</trkpt>
<trkpt lat="46.815860000" lon="-72.359780000">
<ele>0</ele>
<time>2026-09-04T06:54:06Z</time>
</trkpt>
<trkpt lat="46.815950000" lon="-72.360110000">
<ele>0</ele>
<time>2026-09-04T06:54:07Z</time>
</trkpt>
<trkpt lat="46.816160000" lon="-72.360690000">
<ele>0</ele>
<time>2026-09-04T06:54:08Z</time>
</trkpt>
<trkpt lat="46.816310000" lon="-72.361010000">
<ele>0</ele>
<time>2026-09-04T06:54:09Z</time>
</trkpt>
<trkpt lat="46.816550000" lon="-72.361460000">
<ele>0</ele>
<time>2026-09-04T06:54:10Z</time>
</trkpt>
<trkpt lat="46.816980000" lon="-72.362150000">
<ele>0</ele>
<time>2026-09-04T06:54:11Z</time>
</trkpt>
<trkpt lat="46.817530000" lon="-72.362970000">
<ele>0</ele>
<time>2026-09-04T06:54:12Z</time>
</trkpt>
<trkpt lat="46.817800000" lon="-72.363310000">
<ele>0</ele>
<time>2026-09-04T06:54:13Z</time>
</trkpt>
<trkpt lat="46.818090000" lon="-72.363640000">
<ele>0</ele>
<time>2026-09-04T06:54:14Z</time>
</trkpt>
<trkpt lat="46.818980000" lon="-72.364550000">
<ele>0</ele>
<time>2026-09-04T06:54:15Z</time>
</trkpt>
<trkpt lat="46.820340000" lon="-72.365920000">
<ele>0</ele>
<time>2026-09-04T06:54:16Z</time>
</trkpt>
<trkpt lat="46.821110000" lon="-72.366780000">
<ele>0</ele>
<time>2026-09-04T06:54:17Z</time>
</trkpt>
<trkpt lat="46.821570000" lon="-72.367340000">
<ele>0</ele>
<time>2026-09-04T06:54:18Z</time>
</trkpt>
<trkpt lat="46.823310000" lon="-72.369460000">
<ele>0</ele>
<time>2026-09-04T06:54:19Z</time>
</trkpt>
<trkpt lat="46.823590000" lon="-72.369800000">
<ele>0</ele>
<time>2026-09-04T06:54:20Z</time>
</trkpt>
<trkpt lat="46.823960000" lon="-72.370320000">
<ele>0</ele>
<time>2026-09-04T06:54:21Z</time>
</trkpt>
<trkpt lat="46.824100000" lon="-72.370540000">
<ele>0</ele>
<time>2026-09-04T06:54:22Z</time>
</trkpt>
<trkpt lat="46.824520000" lon="-72.371290000">
<ele>0</ele>
<time>2026-09-04T06:54:23Z</time>
</trkpt>
<trkpt lat="46.825560000" lon="-72.373650000">
<ele>0</ele>
<time>2026-09-04T06:54:24Z</time>
</trkpt>
<trkpt lat="46.826040000" lon="-72.374860000">
<ele>0</ele>
<time>2026-09-04T06:54:25Z</time>
</trkpt>
<trkpt lat="46.826560000" lon="-72.376050000">
<ele>0</ele>
<time>2026-09-04T06:54:26Z</time>
</trkpt>
<trkpt lat="46.826760000" lon="-72.376420000">
<ele>0</ele>
<time>2026-09-04T06:54:27Z</time>
</trkpt>
<trkpt lat="46.826970000" lon="-72.376750000">
<ele>0</ele>
<time>2026-09-04T06:54:28Z</time>
</trkpt>
<trkpt lat="46.827150000" lon="-72.377000000">
<ele>0</ele>
<time>2026-09-04T06:54:29Z</time>
</trkpt>
<trkpt lat="46.827590000" lon="-72.377470000">
<ele>0</ele>
<time>2026-09-04T06:54:30Z</time>
</trkpt>
<trkpt lat="46.827850000" lon="-72.377700000">
<ele>0</ele>
<time>2026-09-04T06:54:31Z</time>
</trkpt>
<trkpt lat="46.828350000" lon="-72.378080000">
<ele>0</ele>
<time>2026-09-04T06:54:32Z</time>
</trkpt>
<trkpt lat="46.828900000" lon="-72.378440000">
<ele>0</ele>
<time>2026-09-04T06:54:33Z</time>
</trkpt>
<trkpt lat="46.829860000" lon="-72.379130000">
<ele>0</ele>
<time>2026-09-04T06:54:34Z</time>
</trkpt>
<trkpt lat="46.830020000" lon="-72.379250000">
<ele>0</ele>
<time>2026-09-04T06:54:35Z</time>
</trkpt>
<trkpt lat="46.830500000" lon="-72.379600000">
<ele>0</ele>
<time>2026-09-04T06:54:36Z</time>
</trkpt>
<trkpt lat="46.830920000" lon="-72.379970000">
<ele>0</ele>
<time>2026-09-04T06:54:37Z</time>
</trkpt>
<trkpt lat="46.831290000" lon="-72.380400000">
<ele>0</ele>
<time>2026-09-04T06:54:38Z</time>
</trkpt>
<trkpt lat="46.831480000" lon="-72.380680000">
<ele>0</ele>
<time>2026-09-04T06:54:39Z</time>
</trkpt>
<trkpt lat="46.831730000" lon="-72.381110000">
<ele>0</ele>
<time>2026-09-04T06:54:40Z</time>
</trkpt>
<trkpt lat="46.831940000" lon="-72.381560000">
<ele>0</ele>
<time>2026-09-04T06:54:41Z</time>
</trkpt>
<trkpt lat="46.832180000" lon="-72.382210000">
<ele>0</ele>
<time>2026-09-04T06:54:42Z</time>
</trkpt>
<trkpt lat="46.832370000" lon="-72.382960000">
<ele>0</ele>
<time>2026-09-04T06:54:43Z</time>
</trkpt>
<trkpt lat="46.832470000" lon="-72.383740000">
<ele>0</ele>
<time>2026-09-04T06:54:44Z</time>
</trkpt>
<trkpt lat="46.832510000" lon="-72.384380000">
<ele>0</ele>
<time>2026-09-04T06:54:45Z</time>
</trkpt>
<trkpt lat="46.832460000" lon="-72.385210000">
<ele>0</ele>
<time>2026-09-04T06:54:46Z</time>
</trkpt>
<trkpt lat="46.832390000" lon="-72.385710000">
<ele>0</ele>
<time>2026-09-04T06:54:47Z</time>
</trkpt>
<trkpt lat="46.832260000" lon="-72.386340000">
<ele>0</ele>
<time>2026-09-04T06:54:48Z</time>
</trkpt>
<trkpt lat="46.832050000" lon="-72.387340000">
<ele>0</ele>
<time>2026-09-04T06:54:49Z</time>
</trkpt>
<trkpt lat="46.831630000" lon="-72.389350000">
<ele>0</ele>
<time>2026-09-04T06:54:50Z</time>
</trkpt>
<trkpt lat="46.831430000" lon="-72.390370000">
<ele>0</ele>
<time>2026-09-04T06:54:51Z</time>
</trkpt>
<trkpt lat="46.831390000" lon="-72.390620000">
<ele>0</ele>
<time>2026-09-04T06:54:52Z</time>
</trkpt>
<trkpt lat="46.831330000" lon="-72.391540000">
<ele>0</ele>
<time>2026-09-04T06:54:53Z</time>
</trkpt>
<trkpt lat="46.831350000" lon="-72.392220000">
<ele>0</ele>
<time>2026-09-04T06:54:54Z</time>
</trkpt>
<trkpt lat="46.831440000" lon="-72.393040000">
<ele>0</ele>
<time>2026-09-04T06:54:55Z</time>
</trkpt>
<trkpt lat="46.831710000" lon="-72.394250000">
<ele>0</ele>
<time>2026-09-04T06:54:56Z</time>
</trkpt>
<trkpt lat="46.831950000" lon="-72.395210000">
<ele>0</ele>
<time>2026-09-04T06:54:57Z</time>
</trkpt>
<trkpt lat="46.832100000" lon="-72.395690000">
<ele>0</ele>
<time>2026-09-04T06:54:58Z</time>
</trkpt>
<trkpt lat="46.832300000" lon="-72.396320000">
<ele>0</ele>
<time>2026-09-04T06:54:59Z</time>
</trkpt>
<trkpt lat="46.832920000" lon="-72.397930000">
<ele>0</ele>
<time>2026-09-04T06:55:00Z</time>
</trkpt>
<trkpt lat="46.833730000" lon="-72.400140000">
<ele>0</ele>
<time>2026-09-04T06:55:01Z</time>
</trkpt>
<trkpt lat="46.834260000" lon="-72.401520000">
<ele>0</ele>
<time>2026-09-04T06:55:02Z</time>
</trkpt>
<trkpt lat="46.834430000" lon="-72.401870000">
<ele>0</ele>
<time>2026-09-04T06:55:03Z</time>
</trkpt>
<trkpt lat="46.834640000" lon="-72.402180000">
<ele>0</ele>
<time>2026-09-04T06:55:04Z</time>
</trkpt>
<trkpt lat="46.834860000" lon="-72.402390000">
<ele>0</ele>
<time>2026-09-04T06:55:05Z</time>
</trkpt>
<trkpt lat="46.835150000" lon="-72.402600000">
<ele>0</ele>
<time>2026-09-04T06:55:06Z</time>
</trkpt>
<trkpt lat="46.835470000" lon="-72.402770000">
<ele>0</ele>
<time>2026-09-04T06:55:07Z</time>
</trkpt>
<trkpt lat="46.835820000" lon="-72.402880000">
<ele>0</ele>
<time>2026-09-04T06:55:08Z</time>
</trkpt>
<trkpt lat="46.836700000" lon="-72.403120000">
<ele>0</ele>
<time>2026-09-04T06:55:09Z</time>
</trkpt>
<trkpt lat="46.841170000" lon="-72.404420000">
<ele>0</ele>
<time>2026-09-04T06:55:10Z</time>
</trkpt>
<trkpt lat="46.841820000" lon="-72.404600000">
<ele>0</ele>
<time>2026-09-04T06:55:11Z</time>
</trkpt>
<trkpt lat="46.842450000" lon="-72.404750000">
<ele>0</ele>
<time>2026-09-04T06:55:12Z</time>
</trkpt>
<trkpt lat="46.842920000" lon="-72.404750000">
<ele>0</ele>
<time>2026-09-04T06:55:13Z</time>
</trkpt>
<trkpt lat="46.843320000" lon="-72.404680000">
<ele>0</ele>
<time>2026-09-04T06:55:14Z</time>
</trkpt>
<trkpt lat="46.843630000" lon="-72.404580000">
<ele>0</ele>
<time>2026-09-04T06:55:15Z</time>
</trkpt>
<trkpt lat="46.844040000" lon="-72.404390000">
<ele>0</ele>
<time>2026-09-04T06:55:16Z</time>
</trkpt>
<trkpt lat="46.844260000" lon="-72.404270000">
<ele>0</ele>
<time>2026-09-04T06:55:17Z</time>
</trkpt>
<trkpt lat="46.844530000" lon="-72.404080000">
<ele>0</ele>
<time>2026-09-04T06:55:18Z</time>
</trkpt>
<trkpt lat="46.845030000" lon="-72.403650000">
<ele>0</ele>
<time>2026-09-04T06:55:19Z</time>
</trkpt>
<trkpt lat="46.845410000" lon="-72.403260000">
<ele>0</ele>
<time>2026-09-04T06:55:20Z</time>
</trkpt>
<trkpt lat="46.845980000" lon="-72.402690000">
<ele>0</ele>
<time>2026-09-04T06:55:21Z</time>
</trkpt>
<trkpt lat="46.846240000" lon="-72.402460000">
<ele>0</ele>
<time>2026-09-04T06:55:22Z</time>
</trkpt>
<trkpt lat="46.846400000" lon="-72.402340000">
<ele>0</ele>
<time>2026-09-04T06:55:23Z</time>
</trkpt>
<trkpt lat="46.846670000" lon="-72.402180000">
<ele>0</ele>
<time>2026-09-04T06:55:24Z</time>
</trkpt>
<trkpt lat="46.846850000" lon="-72.402090000">
<ele>0</ele>
<time>2026-09-04T06:55:25Z</time>
</trkpt>
<trkpt lat="46.847280000" lon="-72.401900000">
<ele>0</ele>
<time>2026-09-04T06:55:26Z</time>
</trkpt>
<trkpt lat="46.847510000" lon="-72.401830000">
<ele>0</ele>
<time>2026-09-04T06:55:27Z</time>
</trkpt>
<trkpt lat="46.847900000" lon="-72.401780000">
<ele>0</ele>
<time>2026-09-04T06:55:28Z</time>
</trkpt>
<trkpt lat="46.848500000" lon="-72.401800000">
<ele>0</ele>
<time>2026-09-04T06:55:29Z</time>
</trkpt>
<trkpt lat="46.849330000" lon="-72.401950000">
<ele>0</ele>
<time>2026-09-04T06:55:30Z</time>
</trkpt>
<trkpt lat="46.850640000" lon="-72.402210000">
<ele>0</ele>
<time>2026-09-04T06:55:31Z</time>
</trkpt>
<trkpt lat="46.851760000" lon="-72.402520000">
<ele>0</ele>
<time>2026-09-04T06:55:32Z</time>
</trkpt>
<trkpt lat="46.852110000" lon="-72.402640000">
<ele>0</ele>
<time>2026-09-04T06:55:33Z</time>
</trkpt>
<trkpt lat="46.852510000" lon="-72.402790000">
<ele>0</ele>
<time>2026-09-04T06:55:34Z</time>
</trkpt>
<trkpt lat="46.853290000" lon="-72.403100000">
<ele>0</ele>
<time>2026-09-04T06:55:35Z</time>
</trkpt>
<trkpt lat="46.854530000" lon="-72.403520000">
<ele>0</ele>
<time>2026-09-04T06:55:36Z</time>
</trkpt>
<trkpt lat="46.854740000" lon="-72.403570000">
<ele>0</ele>
<time>2026-09-04T06:55:37Z</time>
</trkpt>
<trkpt lat="46.854920000" lon="-72.403600000">
<ele>0</ele>
<time>2026-09-04T06:55:38Z</time>
</trkpt>
<trkpt lat="46.855060000" lon="-72.403620000">
<ele>0</ele>
<time>2026-09-04T06:55:39Z</time>
</trkpt>
<trkpt lat="46.855250000" lon="-72.403600000">
<ele>0</ele>
<time>2026-09-04T06:55:40Z</time>
</trkpt>
<trkpt lat="46.855440000" lon="-72.403550000">
<ele>0</ele>
<time>2026-09-04T06:55:41Z</time>
</trkpt>
<trkpt lat="46.855550000" lon="-72.403510000">
<ele>0</ele>
<time>2026-09-04T06:55:42Z</time>
</trkpt>
<trkpt lat="46.855680000" lon="-72.403430000">
<ele>0</ele>
<time>2026-09-04T06:55:43Z</time>
</trkpt>
<trkpt lat="46.855840000" lon="-72.403310000">
<ele>0</ele>
<time>2026-09-04T06:55:44Z</time>
</trkpt>
<trkpt lat="46.856110000" lon="-72.403040000">
<ele>0</ele>
<time>2026-09-04T06:55:45Z</time>
</trkpt>
<trkpt lat="46.856470000" lon="-72.402480000">
<ele>0</ele>
<time>2026-09-04T06:55:46Z</time>
</trkpt>
<trkpt lat="46.857370000" lon="-72.400840000">
<ele>0</ele>
<time>2026-09-04T06:55:47Z</time>
</trkpt>
<trkpt lat="46.857820000" lon="-72.400030000">
<ele>0</ele>
<time>2026-09-04T06:55:48Z</time>
</trkpt>
<trkpt lat="46.858790000" lon="-72.398540000">
<ele>0</ele>
<time>2026-09-04T06:55:49Z</time>
</trkpt>
<trkpt lat="46.858960000" lon="-72.398870000">
<ele>0</ele>
<time>2026-09-04T06:55:50Z</time>
</trkpt>
<trkpt lat="46.858980000" lon="-72.398960000">
<ele>0</ele>
<time>2026-09-04T06:55:51Z</time>
</trkpt>
<trkpt lat="46.859370000" lon="-72.400580000">
<ele>0</ele>
<time>2026-09-04T06:55:52Z</time>
</trkpt>
<trkpt lat="46.859490000" lon="-72.401070000">
<ele>0</ele>
<time>2026-09-04T06:55:53Z</time>
</trkpt>
<trkpt lat="46.859490000" lon="-72.401070000">
<ele>0</ele>
<time>2026-09-04T06:55:54Z</time>
</trkpt>
<trkpt lat="46.860070000" lon="-72.403440000">
<ele>0</ele>
<time>2026-09-04T06:55:55Z</time>
</trkpt>
<trkpt lat="46.860360000" lon="-72.404720000">
<ele>0</ele>
<time>2026-09-04T06:55:56Z</time>
</trkpt>
<trkpt lat="46.860740000" lon="-72.406390000">
<ele>0</ele>
<time>2026-09-04T06:55:57Z</time>
</trkpt>
</trkseg>
</trk>
</gpx>
